Darstellungsparameter: Aktuell verwendete Einstellungen:
Skalierung der Graphiken ... ?
xyx+y,   Skalierungsfaktor:      Skalierung: Modus: x, Faktor: 1
Darstellungszeitraum ... ?
Vom - - bis: - -   Zeitraum: 29.12.2014 - 28.06.2015
Min/Max/Avg-Anzeige ... ?
Zeige MMA aktuell
Zeige MMA Monat
Zeige MMA alles
Zeige --A aktuell
Zeige --A Monat
Zeige --A alles
Keine MMA-Anzeige
MMA:
Minimum Maximum Average (ber die Originaldaten)
MMA-Basis: 23.02.2003 - 29.06.2020
Quicknavigation für Darstellung... ?
Tage:      1T, 2T, 3T, 5T -1T -2T -3T -5T +1T +2T +3T +5T
Wochen: 1W, 2W, 3W -1W -2W -3W +1W +2W +3W
Monate: 1M, 3M, 6M -1M -3M -6M +1M +3M +6M
Jahre:    1J, 3J, 5J, 10J -1J -3J -5J -10J +1J +3J +5J +10J
Nutze für die Darstellung ... ?
Originaldaten oder Mittelwerte auf ...
Stundenbasis Tagesbasis Wochenbasis
Monatsbasis Jahresbasis      Datenbasis: Original-Daten
Darstellen als:
Statistik (Auto) Statistik J:M      Darstellung:
Zur Graphik,    zurück zur Übersicht aller Sensoren.
 
Tabellarische Datenbersicht: ?
 
Sensor: Nr:Datum:Temp:Abs-Feuchte:Windchill:Wind:
Aussen-T/F 1 29-12-2014 00:00:00 -4.2 C 3.28 g/m*3 -4.2 C 3.2 km/h
2 29-12-2014 00:05:00 -4.2 C 3.28 g/m*3 -7.03 C 6.4 km/h
3 29-12-2014 00:10:00 -4.1 C 3.31 g/m*3 -6.92 C 6.4 km/h
4 29-12-2014 00:15:00 -4.1 C 3.27 g/m*3 -4.1 C 4.8 km/h
5 29-12-2014 00:20:00 -4 C 3.33 g/m*3 -4 C 3.2 km/h
6 29-12-2014 00:25:00 -3.9 C 3.32 g/m*3 -3.9 C 1.6 km/h
7 29-12-2014 00:30:00 -3.9 C 3.32 g/m*3 -3.9 C 4.8 km/h
8 29-12-2014 00:35:00 -3.8 C 3.34 g/m*3 -3.8 C 1.6 km/h
9 29-12-2014 00:40:00 -3.8 C 3.34 g/m*3 -3.8 C 3.2 km/h
10 29-12-2014 00:45:00 -3.7 C 3.36 g/m*3 -3.7 C 1.6 km/h
11 29-12-2014 00:50:00 -3.6 C 3.35 g/m*3 -3.6 C 1.6 km/h
12 29-12-2014 00:55:00 -3.6 C 3.35 g/m*3 -6.34 C 6.4 km/h
13 29-12-2014 01:00:00 -3.6 C 3.35 g/m*3 -3.6 C 4.8 km/h
14 29-12-2014 01:05:00 -3.5 C 3.37 g/m*3 -6.88 C 8.1 km/h
15 29-12-2014 01:10:00 -3.6 C 3.35 g/m*3 -3.6 C 4.8 km/h
16 29-12-2014 01:15:00 -3.6 C 3.35 g/m*3 -7.53 C 9.7 km/h
17 29-12-2014 01:20:00 -3.5 C 3.34 g/m*3 -7.41 C 9.7 km/h
18 29-12-2014 01:25:00 -3.4 C 3.36 g/m*3 -7.29 C 9.7 km/h
19 29-12-2014 01:30:00 -3.4 C 3.36 g/m*3 -3.4 C 3.2 km/h
20 29-12-2014 01:35:00 -3.5 C 3.34 g/m*3 -3.5 C 1.6 km/h
21 29-12-2014 01:40:00 -3.6 C 3.31 g/m*3 -3.6 C 0 km/h
22 29-12-2014 01:45:00 -3.7 C 3.29 g/m*3 -3.7 C 0 km/h
23 29-12-2014 01:50:00 -3.9 C 3.28 g/m*3 -7.35 C 8.1 km/h
24 29-12-2014 01:55:00 -4 C 3.26 g/m*3 -7.47 C 8.1 km/h
25 29-12-2014 02:00:00 -4.1 C 3.23 g/m*3 -8.12 C 9.7 km/h
Sensor: Nr:Datum:Temp:Abs-Feuchte:Windchill:Wind:
Aussen-T/F 26 29-12-2014 02:05:00 -4.1 C 3.23 g/m*3 -4.1 C 4.8 km/h
27 29-12-2014 02:10:00 -4.1 C 3.23 g/m*3 -4.1 C 4.8 km/h
28 29-12-2014 02:15:00 -4.1 C 3.23 g/m*3 -4.1 C 4.8 km/h
29 29-12-2014 02:20:00 -4.2 C 3.21 g/m*3 -7.03 C 6.4 km/h
30 29-12-2014 02:25:00 -4.3 C 3.19 g/m*3 -4.3 C 4.8 km/h
31 29-12-2014 02:30:00 -4.3 C 3.19 g/m*3 -4.3 C 0 km/h
32 29-12-2014 02:35:00 -4.4 C 3.2 g/m*3 -4.4 C 4.8 km/h
33 29-12-2014 02:40:00 -4.4 C 3.24 g/m*3 -4.4 C 3.2 km/h
34 29-12-2014 02:45:00 -4.2 C 3.28 g/m*3 -7.71 C 8.1 km/h
35 29-12-2014 02:50:00 -4.1 C 3.27 g/m*3 -4.1 C 4.8 km/h
36 29-12-2014 02:55:00 -3.9 C 3.32 g/m*3 -6.69 C 6.4 km/h
37 29-12-2014 03:00:00 -3.8 C 3.34 g/m*3 -7.24 C 8.1 km/h
38 29-12-2014 03:05:00 -3.7 C 3.33 g/m*3 -7.12 C 8.1 km/h
39 29-12-2014 03:10:00 -3.6 C 3.35 g/m*3 -7.98 C 11.3 km/h
40 29-12-2014 03:15:00 -3.6 C 3.35 g/m*3 -7.53 C 9.7 km/h
41 29-12-2014 03:20:00 -3.4 C 3.36 g/m*3 -8.14 C 12.9 km/h
42 29-12-2014 03:25:00 -3.3 C 3.38 g/m*3 -8.02 C 12.9 km/h
43 29-12-2014 03:30:00 -3.2 C 3.41 g/m*3 -7.9 C 12.9 km/h
44 29-12-2014 03:35:00 -3.2 C 3.41 g/m*3 -7.9 C 12.9 km/h
45 29-12-2014 03:40:00 -3.2 C 3.37 g/m*3 -8.26 C 14.5 km/h
46 29-12-2014 03:45:00 -3.2 C 3.37 g/m*3 -8.26 C 14.5 km/h
47 29-12-2014 03:50:00 -3.2 C 3.37 g/m*3 -7.5 C 11.3 km/h
48 29-12-2014 03:55:00 -3.1 C 3.39 g/m*3 -8.46 C 16.1 km/h
49 29-12-2014 04:00:00 -3.1 C 3.39 g/m*3 -6.41 C 8.1 km/h
50 29-12-2014 04:05:00 -3.1 C 3.35 g/m*3 -8.13 C 14.5 km/h
Sensor: Nr:Datum:Temp:Abs-Feuchte:Windchill:Wind:
Aussen-T/F 51 29-12-2014 04:10:00 -2.9 C 3.4 g/m*3 -7.14 C 11.3 km/h
52 29-12-2014 04:15:00 -2.8 C 3.43 g/m*3 -7.41 C 12.9 km/h
53 29-12-2014 04:20:00 -2.8 C 3.43 g/m*3 -7.76 C 14.5 km/h
54 29-12-2014 04:25:00 -2.7 C 3.45 g/m*3 -7.29 C 12.9 km/h
55 29-12-2014 04:30:00 -2.7 C 3.41 g/m*3 -7.29 C 12.9 km/h
56 29-12-2014 04:35:00 -2.7 C 3.45 g/m*3 -7.96 C 16.1 km/h
57 29-12-2014 04:40:00 -2.7 C 3.53 g/m*3 -7.64 C 14.5 km/h
58 29-12-2014 04:45:00 -2.8 C 3.55 g/m*3 -7.41 C 12.9 km/h
59 29-12-2014 04:50:00 -2.9 C 3.6 g/m*3 -8.21 C 16.1 km/h
60 29-12-2014 04:55:00 -3 C 3.61 g/m*3 -7.65 C 12.9 km/h
61 29-12-2014 05:00:00 -3.1 C 3.63 g/m*3 -7.38 C 11.3 km/h
62 29-12-2014 05:05:00 -3.1 C 3.63 g/m*3 -8.13 C 14.5 km/h
63 29-12-2014 05:10:00 -3.1 C 3.63 g/m*3 -8.13 C 14.5 km/h
64 29-12-2014 05:15:00 -3.1 C 3.63 g/m*3 -7.78 C 12.9 km/h
65 29-12-2014 05:20:00 -3.1 C 3.63 g/m*3 -6.41 C 8.1 km/h
66 29-12-2014 05:25:00 -3 C 3.65 g/m*3 -6.81 C 9.7 km/h
67 29-12-2014 05:30:00 -2.8 C 3.71 g/m*3 -7.76 C 14.5 km/h
68 29-12-2014 05:35:00 -2.8 C 3.71 g/m*3 -7.02 C 11.3 km/h
69 29-12-2014 05:40:00 -2.8 C 3.71 g/m*3 -7.41 C 12.9 km/h
70 29-12-2014 05:45:00 -2.8 C 3.71 g/m*3 -7.41 C 12.9 km/h
71 29-12-2014 05:50:00 -2.9 C 3.72 g/m*3 -6.69 C 9.7 km/h
72 29-12-2014 05:55:00 -2.8 C 3.75 g/m*3 -7.76 C 14.5 km/h
73 29-12-2014 06:00:00 -2.8 C 3.75 g/m*3 -6.06 C 8.1 km/h
74 29-12-2014 06:05:00 -2.8 C 3.75 g/m*3 -7.02 C 11.3 km/h
75 29-12-2014 06:10:00 -2.8 C 3.75 g/m*3 -7.02 C 11.3 km/h
Sensor: Nr:Datum:Temp:Abs-Feuchte:Windchill:Wind:
Aussen-T/F 76 29-12-2014 06:15:00 -2.7 C 3.77 g/m*3 -6.9 C 11.3 km/h
77 29-12-2014 06:20:00 -2.8 C 3.75 g/m*3 -6.57 C 9.7 km/h
78 29-12-2014 06:25:00 -2.8 C 3.75 g/m*3 -6.57 C 9.7 km/h
79 29-12-2014 06:30:00 -2.7 C 3.77 g/m*3 -6.9 C 11.3 km/h
80 29-12-2014 06:35:00 -2.6 C 3.8 g/m*3 -5.83 C 8.1 km/h
81 29-12-2014 06:40:00 -2.5 C 3.83 g/m*3 -5.71 C 8.1 km/h
82 29-12-2014 06:45:00 -2.4 C 3.85 g/m*3 -6.1 C 9.7 km/h
83 29-12-2014 06:50:00 -2.3 C 3.88 g/m*3 -7.15 C 14.5 km/h
84 29-12-2014 06:55:00 -2.3 C 3.88 g/m*3 -5.47 C 8.1 km/h
85 29-12-2014 07:00:00 -2.2 C 3.91 g/m*3 -4.72 C 6.4 km/h
86 29-12-2014 07:05:00 -2.2 C 3.91 g/m*3 -5.86 C 9.7 km/h
87 29-12-2014 07:10:00 -2.1 C 3.93 g/m*3 -2.1 C 4.8 km/h
88 29-12-2014 07:15:00 -2 C 3.96 g/m*3 -5.12 C 8.1 km/h
89 29-12-2014 07:20:00 -1.9 C 4.03 g/m*3 -5.5 C 9.7 km/h
90 29-12-2014 07:25:00 -1.9 C 4.03 g/m*3 -4.38 C 6.4 km/h
91 29-12-2014 07:30:00 -1.8 C 4.06 g/m*3 -1.8 C 4.8 km/h
92 29-12-2014 07:35:00 -1.8 C 4.06 g/m*3 -1.8 C 3.2 km/h
93 29-12-2014 07:40:00 -1.8 C 4.06 g/m*3 -1.8 C 0 km/h
94 29-12-2014 07:45:00 -1.8 C 4.06 g/m*3 -1.8 C 0 km/h
95 29-12-2014 07:50:00 -1.8 C 4.06 g/m*3 -1.8 C 0 km/h
96 29-12-2014 07:55:00 -1.8 C 4.06 g/m*3 -1.8 C 0 km/h
97 29-12-2014 08:00:00 -1.7 C 4.09 g/m*3 -1.7 C 3.2 km/h
98 29-12-2014 08:05:00 -1.7 C 4.09 g/m*3 -1.7 C 4.8 km/h
99 29-12-2014 08:10:00 -1.6 C 4.16 g/m*3 -1.6 C 3.2 km/h
100 29-12-2014 08:15:00 -1.6 C 4.16 g/m*3 -1.6 C 1.6 km/h
Sensor: Nr:Datum:Temp:Abs-Feuchte:Windchill:Wind:
Aussen-T/F 101 29-12-2014 08:20:00 -1.6 C 4.16 g/m*3 -1.6 C 1.6 km/h
102 29-12-2014 08:25:00 -1.5 C 4.19 g/m*3 -1.5 C 3.2 km/h
103 29-12-2014 08:30:00 -1.5 C 4.19 g/m*3 -1.5 C 3.2 km/h
104 29-12-2014 08:35:00 -1.4 C 4.18 g/m*3 -1.4 C 1.6 km/h
105 29-12-2014 08:40:00 -1.4 C 4.18 g/m*3 -1.4 C 1.6 km/h
106 29-12-2014 08:45:00 -1.4 C 4.22 g/m*3 -1.4 C 1.6 km/h
107 29-12-2014 08:50:00 -1.3 C 4.25 g/m*3 -1.3 C 1.6 km/h
108 29-12-2014 08:55:00 -1.3 C 4.25 g/m*3 -1.3 C 0 km/h
109 29-12-2014 09:00:00 -1.3 C 4.25 g/m*3 -1.3 C 0 km/h
110 29-12-2014 09:05:00 -1.3 C 4.25 g/m*3 -1.3 C 3.2 km/h
111 29-12-2014 09:10:00 -1.3 C 4.21 g/m*3 -1.3 C 3.2 km/h
112 29-12-2014 09:15:00 -1.4 C 4.18 g/m*3 -3.8 C 6.4 km/h
113 29-12-2014 09:20:00 -1.4 C 4.18 g/m*3 -1.4 C 3.2 km/h
114 29-12-2014 09:25:00 -1.3 C 4.21 g/m*3 -1.3 C 1.6 km/h
115 29-12-2014 09:30:00 -1.3 C 4.21 g/m*3 -1.3 C 4.8 km/h
116 29-12-2014 09:35:00 -1.3 C 4.25 g/m*3 -1.3 C 4.8 km/h
117 29-12-2014 09:40:00 -1.3 C 4.25 g/m*3 -1.3 C 1.6 km/h
118 29-12-2014 09:45:00 -1.3 C 4.25 g/m*3 -1.3 C 3.2 km/h
119 29-12-2014 09:50:00 -1.2 C 4.28 g/m*3 -1.2 C 1.6 km/h
120 29-12-2014 09:55:00 -1.2 C 4.28 g/m*3 -1.2 C 0 km/h
121 29-12-2014 10:00:00 -1.1 C 4.31 g/m*3 -1.1 C 3.2 km/h
122 29-12-2014 10:05:00 -0.9 C 4.37 g/m*3 -0.9 C 3.2 km/h
123 29-12-2014 10:10:00 -0.9 C 4.37 g/m*3 -0.9 C 1.6 km/h
124 29-12-2014 10:15:00 -0.8 C 4.4 g/m*3 -0.8 C 3.2 km/h
125 29-12-2014 10:20:00 -0.8 C 4.4 g/m*3 -0.8 C 4.8 km/h
Sensor: Nr:Datum:Temp:Abs-Feuchte:Windchill:Wind:
Aussen-T/F 126 29-12-2014 10:25:00 -0.7 C 4.43 g/m*3 -0.7 C 0 km/h
127 29-12-2014 10:30:00 -0.6 C 4.46 g/m*3 -2.88 C 6.4 km/h
128 29-12-2014 10:35:00 -0.5 C 4.49 g/m*3 -2.76 C 6.4 km/h
129 29-12-2014 10:40:00 -0.5 C 4.45 g/m*3 -0.5 C 3.2 km/h
130 29-12-2014 10:45:00 -0.4 C 4.48 g/m*3 -0.4 C 4.8 km/h
131 29-12-2014 10:50:00 -0.4 C 4.48 g/m*3 -0.4 C 4.8 km/h
132 29-12-2014 10:55:00 -0.3 C 4.51 g/m*3 -0.3 C 3.2 km/h
133 29-12-2014 11:00:00 -0.3 C 4.51 g/m*3 -0.3 C 4.8 km/h
134 29-12-2014 11:05:00 -0.3 C 4.51 g/m*3 -2.53 C 6.4 km/h
135 29-12-2014 11:10:00 -0.3 C 4.51 g/m*3 -0.3 C 3.2 km/h
136 29-12-2014 11:15:00 -0.2 C 4.54 g/m*3 -0.2 C 3.2 km/h
137 29-12-2014 11:20:00 -0.1 C 4.62 g/m*3 -0.1 C 3.2 km/h
138 29-12-2014 11:25:00 0.1 C 4.68 g/m*3 0.1 C 4.8 km/h
139 29-12-2014 11:30:00 0.4 C 4.78 g/m*3 -1.72 C 6.4 km/h
140 29-12-2014 11:35:00 0.6 C 4.85 g/m*3 0.6 C 3.2 km/h
141 29-12-2014 11:40:00 0.7 C 4.88 g/m*3 0.7 C 3.2 km/h
142 29-12-2014 11:45:00 0.8 C 4.91 g/m*3 0.8 C 3.2 km/h
143 29-12-2014 11:50:00 0.9 C 4.95 g/m*3 -1.14 C 6.4 km/h
144 29-12-2014 11:55:00 1.2 C 5.05 g/m*3 1.2 C 4.8 km/h
145 29-12-2014 12:00:00 1.2 C 5.05 g/m*3 -1.8 C 9.7 km/h
146 29-12-2014 12:05:00 1.7 C 5.23 g/m*3 -0.22 C 6.4 km/h
147 29-12-2014 12:10:00 1.8 C 5.26 g/m*3 -0.1 C 6.4 km/h
148 29-12-2014 12:15:00 1.9 C 5.3 g/m*3 -0.54 C 8.1 km/h
149 29-12-2014 12:20:00 1.9 C 5.3 g/m*3 1.9 C 3.2 km/h
150 29-12-2014 13:15:00 2.7 C 5.42 g/m*3 0.4 C 8.1 km/h
Sensor: Nr:Datum:Temp:Abs-Feuchte:Windchill:Wind:
Aussen-T/F 151 29-12-2014 13:20:00 2.7 C 5.42 g/m*3 0.4 C 8.1 km/h
152 29-12-2014 13:25:00 2.7 C 5.42 g/m*3 -0.38 C 11.3 km/h
153 29-12-2014 13:30:00 2.7 C 5.42 g/m*3 -0.02 C 9.7 km/h
154 29-12-2014 13:35:00 2.8 C 5.46 g/m*3 0.52 C 8.1 km/h
155 29-12-2014 13:40:00 2.8 C 5.46 g/m*3 0.52 C 8.1 km/h
156 29-12-2014 13:45:00 2.8 C 5.46 g/m*3 0.52 C 8.1 km/h
157 29-12-2014 13:50:00 2.8 C 5.46 g/m*3 0.1 C 9.7 km/h
158 29-12-2014 13:55:00 2.8 C 5.46 g/m*3 -0.59 C 12.9 km/h
159 29-12-2014 14:00:00 2.8 C 5.46 g/m*3 1.05 C 6.4 km/h
160 29-12-2014 14:40:00 2.9 C 5.43 g/m*3 2.9 C 3.2 km/h
161 29-12-2014 14:45:00 3 C 5.47 g/m*3 3 C 3.2 km/h
162 29-12-2014 14:50:00 3 C 5.41 g/m*3 3 C 4.8 km/h
163 29-12-2014 14:55:00 2.9 C 5.37 g/m*3 0.22 C 9.7 km/h
164 29-12-2014 15:00:00 2.9 C 5.37 g/m*3 2.9 C 4.8 km/h
165 29-12-2014 15:05:00 2.9 C 5.37 g/m*3 2.9 C 3.2 km/h
166 29-12-2014 15:25:00 2.9 C 5.26 g/m*3 0.22 C 9.7 km/h
167 29-12-2014 15:30:00 2.9 C 5.26 g/m*3 0.22 C 9.7 km/h
168 29-12-2014 15:35:00 2.9 C 5.26 g/m*3 2.9 C 4.8 km/h
169 29-12-2014 15:40:00 2.8 C 5.22 g/m*3 -0.59 C 12.9 km/h
170 29-12-2014 15:45:00 2.8 C 5.22 g/m*3 -0.26 C 11.3 km/h
171 29-12-2014 15:50:00 2.8 C 5.22 g/m*3 -0.59 C 12.9 km/h
172 29-12-2014 15:55:00 2.8 C 5.22 g/m*3 -0.59 C 12.9 km/h
173 29-12-2014 16:00:00 2.8 C 5.22 g/m*3 -0.26 C 11.3 km/h
174 29-12-2014 16:05:00 2.7 C 5.13 g/m*3 -0.71 C 12.9 km/h
175 29-12-2014 16:10:00 2.7 C 5.07 g/m*3 -1.27 C 16.1 km/h
Sensor: Nr:Datum:Temp:Abs-Feuchte:Windchill:Wind:
Aussen-T/F 176 29-12-2014 16:15:00 2.7 C 5.01 g/m*3 -1 C 14.5 km/h
177 29-12-2014 16:20:00 2.7 C 4.95 g/m*3 -1.74 C 19.3 km/h
178 29-12-2014 16:25:00 2.7 C 4.95 g/m*3 -0.38 C 11.3 km/h
179 29-12-2014 16:30:00 2.6 C 4.92 g/m*3 -1.39 C 16.1 km/h
180 29-12-2014 16:35:00 2.6 C 4.86 g/m*3 -0.5 C 11.3 km/h
181 29-12-2014 16:40:00 2.5 C 4.83 g/m*3 -0.26 C 9.7 km/h
182 29-12-2014 16:45:00 2.5 C 4.83 g/m*3 -0.26 C 9.7 km/h
183 29-12-2014 16:50:00 2.4 C 4.8 g/m*3 0.05 C 8.1 km/h
184 29-12-2014 16:55:00 2.4 C 4.8 g/m*3 0.05 C 8.1 km/h
185 29-12-2014 17:00:00 2.4 C 4.85 g/m*3 2.4 C 4.8 km/h
186 29-12-2014 17:05:00 2.3 C 4.88 g/m*3 2.3 C 3.2 km/h
187 29-12-2014 17:10:00 2.3 C 4.88 g/m*3 2.3 C 3.2 km/h
188 29-12-2014 17:15:00 2.3 C 4.88 g/m*3 2.3 C 3.2 km/h
189 29-12-2014 17:20:00 2.3 C 4.88 g/m*3 -0.07 C 8.1 km/h
190 29-12-2014 17:25:00 2.3 C 4.88 g/m*3 2.3 C 4.8 km/h
191 29-12-2014 17:30:00 2.2 C 4.84 g/m*3 -0.18 C 8.1 km/h
192 29-12-2014 17:35:00 2.2 C 4.84 g/m*3 0.36 C 6.4 km/h
193 29-12-2014 17:40:00 2.1 C 4.81 g/m*3 -0.3 C 8.1 km/h
194 29-12-2014 17:45:00 2.1 C 4.81 g/m*3 -0.73 C 9.7 km/h
195 29-12-2014 17:50:00 2.1 C 4.81 g/m*3 2.1 C 4.8 km/h
196 29-12-2014 17:55:00 2 C 4.78 g/m*3 0.13 C 6.4 km/h
197 29-12-2014 18:00:00 1.9 C 4.75 g/m*3 -1.35 C 11.3 km/h
198 29-12-2014 18:05:00 1.9 C 4.75 g/m*3 -0.54 C 8.1 km/h
199 29-12-2014 18:10:00 1.9 C 4.69 g/m*3 0.01 C 6.4 km/h
200 29-12-2014 18:15:00 1.9 C 4.69 g/m*3 -0.54 C 8.1 km/h
Sensor: Nr:Datum:Temp:Abs-Feuchte:Windchill:Wind:
Aussen-T/F 201 29-12-2014 18:20:00 1.9 C 4.69 g/m*3 0.01 C 6.4 km/h
202 29-12-2014 18:25:00 1.9 C 4.69 g/m*3 1.9 C 4.8 km/h
203 29-12-2014 18:30:00 1.9 C 4.69 g/m*3 1.9 C 1.6 km/h
204 29-12-2014 18:35:00 1.8 C 4.66 g/m*3 -1.47 C 11.3 km/h
205 29-12-2014 18:40:00 1.8 C 4.6 g/m*3 -0.1 C 6.4 km/h
206 29-12-2014 18:45:00 1.8 C 4.55 g/m*3 -1.09 C 9.7 km/h
207 29-12-2014 18:50:00 1.9 C 4.58 g/m*3 -1.35 C 11.3 km/h
208 29-12-2014 18:55:00 1.9 C 4.58 g/m*3 -0.54 C 8.1 km/h
209 29-12-2014 19:00:00 1.9 C 4.58 g/m*3 0.01 C 6.4 km/h
210 29-12-2014 19:05:00 1.8 C 4.6 g/m*3 -1.09 C 9.7 km/h
211 29-12-2014 19:10:00 1.8 C 4.55 g/m*3 -0.1 C 6.4 km/h
212 29-12-2014 19:15:00 1.8 C 4.55 g/m*3 -0.1 C 6.4 km/h
213 29-12-2014 19:20:00 1.8 C 4.55 g/m*3 1.8 C 3.2 km/h
214 29-12-2014 19:25:00 1.8 C 4.55 g/m*3 1.8 C 4.8 km/h
215 29-12-2014 19:30:00 1.8 C 4.55 g/m*3 -1.09 C 9.7 km/h
216 29-12-2014 19:35:00 1.7 C 4.52 g/m*3 -0.77 C 8.1 km/h
217 29-12-2014 19:40:00 1.7 C 4.52 g/m*3 1.7 C 3.2 km/h
218 29-12-2014 19:45:00 1.7 C 4.46 g/m*3 1.7 C 4.8 km/h
219 29-12-2014 19:50:00 1.7 C 4.52 g/m*3 -0.22 C 6.4 km/h
220 29-12-2014 19:55:00 1.7 C 4.52 g/m*3 1.7 C 3.2 km/h
221 29-12-2014 20:00:00 1.6 C 4.49 g/m*3 1.6 C 3.2 km/h
222 29-12-2014 20:05:00 1.6 C 4.49 g/m*3 -1.33 C 9.7 km/h
223 29-12-2014 20:10:00 1.6 C 4.49 g/m*3 -0.33 C 6.4 km/h
224 29-12-2014 20:15:00 1.6 C 4.49 g/m*3 -0.33 C 6.4 km/h
225 29-12-2014 20:20:00 1.5 C 4.4 g/m*3 -0.45 C 6.4 km/h
Sensor: Nr:Datum:Temp:Abs-Feuchte:Windchill:Wind:
Aussen-T/F 226 29-12-2014 20:25:00 1.5 C 4.4 g/m*3 -1.45 C 9.7 km/h
227 29-12-2014 20:30:00 1.5 C 4.46 g/m*3 1.5 C 1.6 km/h
228 29-12-2014 20:35:00 1.5 C 4.46 g/m*3 1.5 C 3.2 km/h
229 29-12-2014 20:40:00 1.4 C 4.43 g/m*3 1.4 C 4.8 km/h
230 29-12-2014 20:45:00 1.4 C 4.43 g/m*3 1.4 C 4.8 km/h
231 29-12-2014 20:50:00 1.5 C 4.4 g/m*3 1.5 C 3.2 km/h
232 29-12-2014 20:55:00 1.5 C 4.46 g/m*3 1.5 C 3.2 km/h
233 29-12-2014 21:00:00 1.5 C 4.4 g/m*3 -1.01 C 8.1 km/h
234 29-12-2014 21:05:00 1.5 C 4.4 g/m*3 1.5 C 4.8 km/h
235 29-12-2014 21:10:00 1.5 C 4.4 g/m*3 -0.45 C 6.4 km/h
236 29-12-2014 21:15:00 1.5 C 4.4 g/m*3 -0.45 C 6.4 km/h
237 29-12-2014 21:20:00 1.4 C 4.43 g/m*3 1.4 C 4.8 km/h
238 29-12-2014 21:25:00 1.4 C 4.43 g/m*3 -0.56 C 6.4 km/h
239 29-12-2014 21:30:00 1.4 C 4.43 g/m*3 1.4 C 4.8 km/h
240 29-12-2014 21:35:00 1.4 C 4.43 g/m*3 1.4 C 3.2 km/h
241 29-12-2014 21:40:00 1.4 C 4.43 g/m*3 1.4 C 3.2 km/h
242 29-12-2014 21:45:00 1.3 C 4.34 g/m*3 -0.68 C 6.4 km/h
243 29-12-2014 21:50:00 1.3 C 4.34 g/m*3 1.3 C 3.2 km/h
244 29-12-2014 21:55:00 1.3 C 4.4 g/m*3 1.3 C 3.2 km/h
245 29-12-2014 22:00:00 1.3 C 4.4 g/m*3 1.3 C 1.6 km/h
246 29-12-2014 22:05:00 1.3 C 4.4 g/m*3 1.3 C 1.6 km/h
247 29-12-2014 22:10:00 1.2 C 4.42 g/m*3 1.2 C 1.6 km/h
248 29-12-2014 22:15:00 1.1 C 4.34 g/m*3 1.1 C 3.2 km/h
249 29-12-2014 22:20:00 0.9 C 4.43 g/m*3 0.9 C 1.6 km/h
250 29-12-2014 22:25:00 0.7 C 4.37 g/m*3 0.7 C 1.6 km/h
Sensor: Nr:Datum:Temp:Abs-Feuchte:Windchill:Wind:
Aussen-T/F 251 29-12-2014 22:30:00 0.6 C 4.34 g/m*3 0.6 C 0 km/h
252 29-12-2014 22:35:00 0.4 C 4.38 g/m*3 0.4 C 1.6 km/h
253 29-12-2014 22:40:00 0.3 C 4.4 g/m*3 0.3 C 4.8 km/h
254 29-12-2014 22:45:00 0.3 C 4.45 g/m*3 0.3 C 4.8 km/h
255 29-12-2014 22:50:00 0.2 C 4.42 g/m*3 0.2 C 3.2 km/h
256 29-12-2014 22:55:00 0.2 C 4.47 g/m*3 0.2 C 4.8 km/h
257 29-12-2014 23:00:00 0.1 C 4.44 g/m*3 0.1 C 1.6 km/h
258 29-12-2014 23:05:00 0.1 C 4.39 g/m*3 0.1 C 1.6 km/h
259 29-12-2014 23:10:00 0 C 4.36 g/m*3 0 C 0 km/h
260 29-12-2014 23:15:00 -0.1 C 4.38 g/m*3 -0.1 C 1.6 km/h
261 29-12-2014 23:20:00 -0.1 C 4.33 g/m*3 -0.1 C 0 km/h
262 29-12-2014 23:25:00 -0.1 C 4.33 g/m*3 -0.1 C 0 km/h
263 29-12-2014 23:30:00 0 C 4.41 g/m*3 0 C 0 km/h
264 29-12-2014 23:35:00 0.1 C 4.39 g/m*3 0.1 C 0 km/h
265 29-12-2014 23:40:00 0.1 C 4.39 g/m*3 0.1 C 0 km/h
266 29-12-2014 23:45:00 0.1 C 4.39 g/m*3 0.1 C 0 km/h
267 29-12-2014 23:50:00 0.2 C 4.42 g/m*3 0.2 C 0 km/h
268 29-12-2014 23:55:00 0.2 C 4.42 g/m*3 0.2 C 0 km/h
269 30-12-2014 00:00:00 0.3 C 4.45 g/m*3 0.3 C 0 km/h
270 30-12-2014 00:05:00 0.3 C 4.45 g/m*3 0.3 C 0 km/h
271 30-12-2014 00:10:00 0.3 C 4.45 g/m*3 0.3 C 0 km/h
272 30-12-2014 00:15:00 0.3 C 4.45 g/m*3 0.3 C 0 km/h
273 30-12-2014 00:55:00 0.4 C 4.48 g/m*3 0.4 C 1.6 km/h
274 30-12-2014 01:00:00 0.3 C 4.45 g/m*3 0.3 C 3.2 km/h
275 30-12-2014 01:05:00 0.3 C 4.5 g/m*3 0.3 C 1.6 km/h
Sensor: Nr:Datum:Temp:Abs-Feuchte:Windchill:Wind:
Aussen-T/F 276 30-12-2014 01:10:00 0.3 C 4.5 g/m*3 0.3 C 0 km/h
277 30-12-2014 09:25:00 1.2 C 5.05 g/m*3 1.2 C 3.2 km/h
278 30-12-2014 09:30:00 1.2 C 5.05 g/m*3 1.2 C 1.6 km/h
279 30-12-2014 09:35:00 1.3 C 5.09 g/m*3 1.3 C 1.6 km/h
280 30-12-2014 09:40:00 1.3 C 5.09 g/m*3 1.3 C 1.6 km/h
281 30-12-2014 09:45:00 1.4 C 5.12 g/m*3 1.4 C 0 km/h
282 30-12-2014 09:50:00 1.4 C 5.12 g/m*3 1.4 C 1.6 km/h
283 30-12-2014 09:55:00 1.5 C 5.16 g/m*3 1.5 C 1.6 km/h
284 30-12-2014 10:00:00 1.6 C 5.19 g/m*3 1.6 C 0 km/h
285 30-12-2014 10:05:00 1.7 C 5.23 g/m*3 1.7 C 1.6 km/h
286 30-12-2014 10:10:00 1.7 C 5.23 g/m*3 1.7 C 1.6 km/h
287 30-12-2014 10:15:00 1.8 C 5.26 g/m*3 1.8 C 1.6 km/h
288 30-12-2014 10:20:00 1.8 C 5.26 g/m*3 1.8 C 3.2 km/h
289 30-12-2014 10:25:00 1.8 C 5.26 g/m*3 1.8 C 1.6 km/h
290 30-12-2014 10:30:00 1.9 C 5.3 g/m*3 1.9 C 1.6 km/h
291 30-12-2014 10:35:00 2 C 5.33 g/m*3 2 C 3.2 km/h
292 30-12-2014 10:40:00 2.2 C 5.41 g/m*3 2.2 C 3.2 km/h
293 30-12-2014 10:45:00 2.2 C 5.41 g/m*3 2.2 C 3.2 km/h
294 30-12-2014 10:50:00 2.3 C 5.44 g/m*3 2.3 C 3.2 km/h
295 30-12-2014 10:55:00 2.3 C 5.44 g/m*3 2.3 C 3.2 km/h
296 30-12-2014 11:00:00 2.4 C 5.48 g/m*3 2.4 C 3.2 km/h
297 30-12-2014 11:05:00 2.5 C 5.52 g/m*3 2.5 C 0 km/h
298 30-12-2014 11:10:00 2.6 C 5.56 g/m*3 2.6 C 4.8 km/h
299 30-12-2014 11:15:00 2.8 C 5.57 g/m*3 2.8 C 3.2 km/h
300 30-12-2014 11:20:00 2.9 C 5.61 g/m*3 2.9 C 1.6 km/h
Sensor: Nr:Datum:Temp:Abs-Feuchte:Windchill:Wind:
Aussen-T/F 301 30-12-2014 11:25:00 3 C 5.59 g/m*3 1.28 C 6.4 km/h
302 30-12-2014 11:30:00 2.9 C 5.55 g/m*3 2.9 C 0 km/h
303 30-12-2014 11:35:00 2.9 C 5.55 g/m*3 2.9 C 4.8 km/h
304 30-12-2014 11:40:00 3 C 5.59 g/m*3 3 C 3.2 km/h
305 30-12-2014 11:45:00 3.1 C 5.63 g/m*3 3.1 C 0 km/h
306 30-12-2014 11:50:00 3.2 C 5.6 g/m*3 3.2 C 1.6 km/h
307 30-12-2014 11:55:00 3.2 C 5.6 g/m*3 3.2 C 3.2 km/h
308 30-12-2014 12:00:00 3.3 C 5.64 g/m*3 3.3 C 3.2 km/h
309 30-12-2014 12:05:00 3.4 C 5.62 g/m*3 3.4 C 1.6 km/h
310 30-12-2014 12:10:00 3.4 C 5.62 g/m*3 3.4 C 3.2 km/h
311 30-12-2014 12:15:00 3.6 C 5.69 g/m*3 3.6 C 1.6 km/h
312 30-12-2014 12:20:00 3.6 C 5.63 g/m*3 3.6 C 3.2 km/h
313 30-12-2014 12:25:00 3.7 C 5.67 g/m*3 3.7 C 3.2 km/h
314 30-12-2014 12:30:00 3.7 C 5.67 g/m*3 3.7 C 1.6 km/h
315 30-12-2014 12:35:00 3.7 C 5.67 g/m*3 3.7 C 3.2 km/h
316 30-12-2014 12:40:00 3.7 C 5.61 g/m*3 3.7 C 0 km/h
317 30-12-2014 12:45:00 3.6 C 5.57 g/m*3 3.6 C 0 km/h
318 30-12-2014 12:50:00 3.6 C 5.63 g/m*3 3.6 C 3.2 km/h
319 30-12-2014 12:55:00 3.6 C 5.63 g/m*3 3.6 C 0 km/h
320 30-12-2014 13:00:00 3.5 C 5.6 g/m*3 3.5 C 0 km/h
321 30-12-2014 13:05:00 3.3 C 5.52 g/m*3 3.3 C 0 km/h
322 30-12-2014 13:10:00 3.3 C 5.52 g/m*3 3.3 C 1.6 km/h
323 30-12-2014 13:15:00 3.2 C 5.54 g/m*3 3.2 C 0 km/h
324 30-12-2014 13:20:00 3.2 C 5.54 g/m*3 3.2 C 0 km/h
325 30-12-2014 13:25:00 3.2 C 5.54 g/m*3 3.2 C 1.6 km/h
Sensor: Nr:Datum:Temp:Abs-Feuchte:Windchill:Wind:
Aussen-T/F 326 30-12-2014 13:30:00 3.2 C 5.54 g/m*3 3.2 C 1.6 km/h
327 30-12-2014 13:35:00 3.3 C 5.58 g/m*3 3.3 C 0 km/h
328 30-12-2014 13:40:00 3.3 C 5.58 g/m*3 3.3 C 0 km/h
329 30-12-2014 13:45:00 3.3 C 5.58 g/m*3 3.3 C 0 km/h
330 30-12-2014 13:50:00 3.2 C 5.54 g/m*3 3.2 C 0 km/h
331 30-12-2014 13:55:00 3.2 C 5.54 g/m*3 3.2 C 0 km/h
332 30-12-2014 14:00:00 3.4 C 5.62 g/m*3 3.4 C 4.8 km/h
333 30-12-2014 14:05:00 3.7 C 5.67 g/m*3 2.09 C 6.4 km/h
334 30-12-2014 14:10:00 3.8 C 5.65 g/m*3 2.21 C 6.4 km/h
335 30-12-2014 14:15:00 4.1 C 5.7 g/m*3 2.55 C 6.4 km/h
336 30-12-2014 14:20:00 4.2 C 5.67 g/m*3 0.84 C 14.5 km/h
337 30-12-2014 14:25:00 4.3 C 5.71 g/m*3 0.97 C 14.5 km/h
338 30-12-2014 14:30:00 4.3 C 5.71 g/m*3 4.3 C 4.8 km/h
339 30-12-2014 14:35:00 4.3 C 5.64 g/m*3 2.29 C 8.1 km/h
340 30-12-2014 14:40:00 4.3 C 5.64 g/m*3 4.3 C 4.8 km/h
341 30-12-2014 14:45:00 4.3 C 5.64 g/m*3 2.78 C 6.4 km/h
342 30-12-2014 14:50:00 4.2 C 5.61 g/m*3 4.2 C 3.2 km/h
343 30-12-2014 14:55:00 4.2 C 5.67 g/m*3 4.2 C 3.2 km/h
344 30-12-2014 15:00:00 4.1 C 5.63 g/m*3 2.05 C 8.1 km/h
345 30-12-2014 15:05:00 4 C 5.59 g/m*3 2.44 C 6.4 km/h
346 30-12-2014 15:10:00 4.1 C 5.63 g/m*3 1.65 C 9.7 km/h
347 30-12-2014 15:15:00 4.2 C 5.67 g/m*3 2.17 C 8.1 km/h
348 30-12-2014 15:20:00 4.2 C 5.67 g/m*3 1.43 C 11.3 km/h
349 30-12-2014 15:25:00 4.3 C 5.71 g/m*3 2.78 C 6.4 km/h
350 30-12-2014 15:30:00 4.3 C 5.77 g/m*3 4.3 C 3.2 km/h
Sensor: Nr:Datum:Temp:Abs-Feuchte:Windchill:Wind:
Aussen-T/F 351 30-12-2014 15:35:00 4.3 C 5.77 g/m*3 4.3 C 4.8 km/h
352 30-12-2014 15:40:00 4.3 C 5.77 g/m*3 4.3 C 4.8 km/h
353 30-12-2014 15:45:00 4.2 C 5.73 g/m*3 4.2 C 3.2 km/h
354 30-12-2014 15:50:00 4.1 C 5.76 g/m*3 4.1 C 4.8 km/h
355 30-12-2014 15:55:00 4.1 C 5.76 g/m*3 2.05 C 8.1 km/h
356 30-12-2014 16:00:00 4.1 C 5.76 g/m*3 4.1 C 3.2 km/h
357 30-12-2014 16:05:00 3.9 C 5.68 g/m*3 3.9 C 4.8 km/h
358 30-12-2014 16:10:00 3.8 C 5.65 g/m*3 3.8 C 1.6 km/h
359 30-12-2014 16:15:00 3.7 C 5.67 g/m*3 3.7 C 1.6 km/h
360 30-12-2014 16:20:00 3.6 C 5.63 g/m*3 3.6 C 1.6 km/h
361 30-12-2014 16:25:00 3.5 C 5.6 g/m*3 3.5 C 1.6 km/h
362 30-12-2014 16:30:00 3.3 C 5.58 g/m*3 3.3 C 1.6 km/h
363 30-12-2014 16:35:00 3.3 C 5.58 g/m*3 3.3 C 3.2 km/h
364 30-12-2014 16:40:00 3.3 C 5.58 g/m*3 3.3 C 1.6 km/h
365 30-12-2014 16:45:00 3.2 C 5.54 g/m*3 3.2 C 4.8 km/h
366 30-12-2014 16:50:00 3.3 C 5.58 g/m*3 1.11 C 8.1 km/h
367 30-12-2014 16:55:00 3.3 C 5.64 g/m*3 1.63 C 6.4 km/h
368 30-12-2014 17:00:00 3.3 C 5.58 g/m*3 3.3 C 1.6 km/h
369 30-12-2014 17:05:00 3.3 C 5.58 g/m*3 3.3 C 4.8 km/h
370 30-12-2014 17:10:00 3.3 C 5.58 g/m*3 3.3 C 4.8 km/h
371 30-12-2014 17:15:00 3.3 C 5.58 g/m*3 3.3 C 3.2 km/h
372 30-12-2014 17:20:00 3.2 C 5.54 g/m*3 3.2 C 1.6 km/h
373 30-12-2014 17:25:00 3.1 C 5.51 g/m*3 3.1 C 3.2 km/h
374 30-12-2014 17:30:00 3 C 5.53 g/m*3 3 C 1.6 km/h
375 30-12-2014 17:35:00 3.1 C 5.57 g/m*3 3.1 C 1.6 km/h
Sensor: Nr:Datum:Temp:Abs-Feuchte:Windchill:Wind:
Aussen-T/F 376 30-12-2014 17:40:00 3.2 C 5.6 g/m*3 3.2 C 3.2 km/h
377 30-12-2014 17:45:00 3.2 C 5.54 g/m*3 3.2 C 3.2 km/h
378 30-12-2014 17:50:00 3.2 C 5.54 g/m*3 3.2 C 3.2 km/h
379 30-12-2014 17:55:00 3.2 C 5.54 g/m*3 3.2 C 0 km/h
380 30-12-2014 18:00:00 3 C 5.47 g/m*3 3 C 3.2 km/h
381 30-12-2014 18:05:00 2.9 C 5.49 g/m*3 2.9 C 0 km/h
382 30-12-2014 18:10:00 2.8 C 5.46 g/m*3 2.8 C 3.2 km/h
383 30-12-2014 18:15:00 2.7 C 5.42 g/m*3 2.7 C 1.6 km/h
384 30-12-2014 18:20:00 2.6 C 5.38 g/m*3 2.6 C 3.2 km/h
385 30-12-2014 18:25:00 2.5 C 5.35 g/m*3 2.5 C 3.2 km/h
386 30-12-2014 18:30:00 2.4 C 5.31 g/m*3 2.4 C 3.2 km/h
387 30-12-2014 18:35:00 2.4 C 5.37 g/m*3 2.4 C 3.2 km/h
388 30-12-2014 18:40:00 2.3 C 5.33 g/m*3 2.3 C 1.6 km/h
389 30-12-2014 18:45:00 2.3 C 5.33 g/m*3 2.3 C 3.2 km/h
390 30-12-2014 18:50:00 2.2 C 5.29 g/m*3 2.2 C 3.2 km/h
391 30-12-2014 18:55:00 2.3 C 5.33 g/m*3 2.3 C 3.2 km/h
392 30-12-2014 19:00:00 2.2 C 5.29 g/m*3 2.2 C 1.6 km/h
393 30-12-2014 19:05:00 2.2 C 5.35 g/m*3 2.2 C 1.6 km/h
394 30-12-2014 19:10:00 2.2 C 5.35 g/m*3 2.2 C 1.6 km/h
395 30-12-2014 19:15:00 2.2 C 5.29 g/m*3 2.2 C 3.2 km/h
396 30-12-2014 19:20:00 2.1 C 5.31 g/m*3 2.1 C 1.6 km/h
397 30-12-2014 19:25:00 2.2 C 5.35 g/m*3 2.2 C 1.6 km/h
398 30-12-2014 19:30:00 2.2 C 5.35 g/m*3 2.2 C 1.6 km/h
399 30-12-2014 19:35:00 2.2 C 5.35 g/m*3 2.2 C 1.6 km/h
400 30-12-2014 19:40:00 2.2 C 5.35 g/m*3 2.2 C 1.6 km/h
Sensor: Nr:Datum:Temp:Abs-Feuchte:Windchill:Wind:
Aussen-T/F 401 30-12-2014 19:45:00 2.2 C 5.29 g/m*3 2.2 C 3.2 km/h
402 30-12-2014 19:50:00 2.2 C 5.29 g/m*3 2.2 C 4.8 km/h
403 30-12-2014 19:55:00 2.3 C 5.33 g/m*3 2.3 C 4.8 km/h
404 30-12-2014 20:00:00 2.4 C 5.31 g/m*3 2.4 C 3.2 km/h
405 30-12-2014 20:05:00 2.5 C 5.35 g/m*3 2.5 C 1.6 km/h
406 30-12-2014 20:10:00 2.4 C 5.25 g/m*3 2.4 C 0 km/h
407 30-12-2014 20:15:00 2.4 C 5.25 g/m*3 2.4 C 0 km/h
408 30-12-2014 20:20:00 2.3 C 5.27 g/m*3 2.3 C 4.8 km/h
409 30-12-2014 20:25:00 2.3 C 5.27 g/m*3 2.3 C 4.8 km/h
410 30-12-2014 20:30:00 2.7 C 5.3 g/m*3 2.7 C 1.6 km/h
411 30-12-2014 20:35:00 2.7 C 5.3 g/m*3 2.7 C 3.2 km/h
412 30-12-2014 20:40:00 2.5 C 5.23 g/m*3 2.5 C 3.2 km/h
413 30-12-2014 20:45:00 2.4 C 5.25 g/m*3 2.4 C 4.8 km/h
414 30-12-2014 20:50:00 2.4 C 5.25 g/m*3 0.59 C 6.4 km/h
415 30-12-2014 20:55:00 2.4 C 5.25 g/m*3 2.4 C 3.2 km/h
416 30-12-2014 21:00:00 2.3 C 5.22 g/m*3 2.3 C 1.6 km/h
417 30-12-2014 21:05:00 2.3 C 5.27 g/m*3 2.3 C 1.6 km/h
418 30-12-2014 21:10:00 2.3 C 5.27 g/m*3 2.3 C 1.6 km/h
419 30-12-2014 21:15:00 2.2 C 5.24 g/m*3 2.2 C 1.6 km/h
420 30-12-2014 21:20:00 2.1 C 5.2 g/m*3 2.1 C 1.6 km/h
421 30-12-2014 21:25:00 2.1 C 5.2 g/m*3 2.1 C 0 km/h
422 30-12-2014 21:30:00 2.1 C 5.2 g/m*3 2.1 C 1.6 km/h
423 30-12-2014 21:35:00 2 C 5.22 g/m*3 2 C 3.2 km/h
424 30-12-2014 21:40:00 2 C 5.22 g/m*3 2 C 3.2 km/h
425 30-12-2014 21:45:00 2.1 C 5.26 g/m*3 2.1 C 4.8 km/h
Sensor: Nr:Datum:Temp:Abs-Feuchte:Windchill:Wind:
Aussen-T/F 426 30-12-2014 21:50:00 2.1 C 5.2 g/m*3 2.1 C 1.6 km/h
427 30-12-2014 21:55:00 2.1 C 5.2 g/m*3 2.1 C 1.6 km/h
428 30-12-2014 22:00:00 2 C 5.17 g/m*3 2 C 1.6 km/h
429 30-12-2014 22:05:00 2 C 5.22 g/m*3 2 C 3.2 km/h
430 30-12-2014 22:10:00 1.9 C 5.19 g/m*3 1.9 C 1.6 km/h
431 30-12-2014 22:15:00 1.9 C 5.19 g/m*3 1.9 C 1.6 km/h
432 30-12-2014 22:20:00 1.9 C 5.19 g/m*3 1.9 C 1.6 km/h
433 30-12-2014 22:25:00 1.9 C 5.19 g/m*3 1.9 C 0 km/h
434 30-12-2014 22:30:00 1.9 C 5.19 g/m*3 1.9 C 0 km/h
435 30-12-2014 22:35:00 1.9 C 5.19 g/m*3 1.9 C 0 km/h
436 30-12-2014 22:40:00 1.9 C 5.19 g/m*3 1.9 C 1.6 km/h
437 30-12-2014 22:45:00 2 C 5.22 g/m*3 2 C 1.6 km/h
438 30-12-2014 22:50:00 2 C 5.22 g/m*3 2 C 1.6 km/h
439 30-12-2014 22:55:00 2 C 5.22 g/m*3 2 C 3.2 km/h
440 30-12-2014 23:00:00 2 C 5.22 g/m*3 2 C 1.6 km/h
441 30-12-2014 23:05:00 1.9 C 5.19 g/m*3 1.9 C 1.6 km/h
442 30-12-2014 23:10:00 1.9 C 5.19 g/m*3 1.9 C 1.6 km/h
443 30-12-2014 23:15:00 1.9 C 5.19 g/m*3 1.9 C 0 km/h
444 30-12-2014 23:20:00 1.9 C 5.19 g/m*3 1.9 C 0 km/h
445 30-12-2014 23:25:00 1.9 C 5.19 g/m*3 1.9 C 3.2 km/h
446 30-12-2014 23:30:00 1.9 C 5.19 g/m*3 1.9 C 3.2 km/h
447 30-12-2014 23:35:00 1.9 C 5.19 g/m*3 1.9 C 0 km/h
448 30-12-2014 23:40:00 1.9 C 5.19 g/m*3 1.9 C 1.6 km/h
449 30-12-2014 23:45:00 1.9 C 5.19 g/m*3 1.9 C 0 km/h
450 30-12-2014 23:50:00 1.9 C 5.19 g/m*3 1.9 C 1.6 km/h
Sensor: Nr:Datum:Temp:Abs-Feuchte:Windchill:Wind:
Aussen-T/F 451 30-12-2014 23:55:00 1.9 C 5.19 g/m*3 1.9 C 1.6 km/h
452 31-12-2014 00:00:00 1.9 C 5.24 g/m*3 1.9 C 1.6 km/h
453 31-12-2014 00:05:00 1.9 C 5.19 g/m*3 1.9 C 1.6 km/h
454 31-12-2014 00:10:00 1.9 C 5.19 g/m*3 1.9 C 0 km/h
455 31-12-2014 00:15:00 1.9 C 5.19 g/m*3 1.9 C 0 km/h
456 31-12-2014 00:20:00 1.9 C 5.19 g/m*3 1.9 C 0 km/h
457 31-12-2014 00:25:00 1.9 C 5.19 g/m*3 1.9 C 1.6 km/h
458 31-12-2014 00:30:00 1.9 C 5.24 g/m*3 1.9 C 0 km/h
459 31-12-2014 00:35:00 1.8 C 5.15 g/m*3 1.8 C 0 km/h
460 31-12-2014 00:40:00 1.9 C 5.24 g/m*3 1.9 C 0 km/h
461 31-12-2014 00:45:00 1.8 C 5.21 g/m*3 1.8 C 0 km/h
462 31-12-2014 00:50:00 1.9 C 5.24 g/m*3 1.9 C 1.6 km/h
463 31-12-2014 00:55:00 1.8 C 5.21 g/m*3 1.8 C 1.6 km/h
464 31-12-2014 01:00:00 1.8 C 5.21 g/m*3 1.8 C 0 km/h
465 31-12-2014 01:05:00 1.8 C 5.21 g/m*3 1.8 C 1.6 km/h
466 31-12-2014 01:10:00 1.8 C 5.21 g/m*3 1.8 C 0 km/h
467 31-12-2014 01:15:00 1.9 C 5.24 g/m*3 1.9 C 4.8 km/h
468 31-12-2014 01:20:00 1.9 C 5.24 g/m*3 1.9 C 1.6 km/h
469 31-12-2014 01:25:00 1.9 C 5.24 g/m*3 1.9 C 0 km/h
470 31-12-2014 01:30:00 2 C 5.22 g/m*3 2 C 1.6 km/h
471 31-12-2014 01:35:00 2.1 C 5.26 g/m*3 2.1 C 1.6 km/h
472 31-12-2014 01:40:00 2.1 C 5.26 g/m*3 2.1 C 1.6 km/h
473 31-12-2014 01:45:00 2.1 C 5.26 g/m*3 2.1 C 1.6 km/h
474 31-12-2014 01:50:00 2.1 C 5.26 g/m*3 2.1 C 0 km/h
475 31-12-2014 01:55:00 2.1 C 5.26 g/m*3 2.1 C 0 km/h
Sensor: Nr:Datum:Temp:Abs-Feuchte:Windchill:Wind:
Aussen-T/F 476 31-12-2014 02:00:00 2.1 C 5.26 g/m*3 2.1 C 1.6 km/h
477 31-12-2014 02:05:00 2.1 C 5.26 g/m*3 2.1 C 0 km/h
478 31-12-2014 02:10:00 2.1 C 5.26 g/m*3 2.1 C 1.6 km/h
479 31-12-2014 02:15:00 2.1 C 5.26 g/m*3 2.1 C 1.6 km/h
480 31-12-2014 02:20:00 2.1 C 5.26 g/m*3 2.1 C 0 km/h
481 31-12-2014 02:25:00 2.1 C 5.26 g/m*3 2.1 C 0 km/h
482 31-12-2014 02:30:00 2.1 C 5.26 g/m*3 2.1 C 1.6 km/h
483 31-12-2014 02:35:00 2.1 C 5.26 g/m*3 2.1 C 0 km/h
484 31-12-2014 02:40:00 2.1 C 5.26 g/m*3 2.1 C 0 km/h
485 31-12-2014 02:45:00 2.1 C 5.26 g/m*3 2.1 C 0 km/h
486 31-12-2014 02:50:00 2.1 C 5.26 g/m*3 2.1 C 1.6 km/h
487 31-12-2014 02:55:00 2.1 C 5.26 g/m*3 2.1 C 1.6 km/h
488 31-12-2014 03:00:00 2.1 C 5.26 g/m*3 2.1 C 1.6 km/h
489 31-12-2014 03:05:00 2.1 C 5.26 g/m*3 2.1 C 1.6 km/h
490 31-12-2014 03:10:00 2.1 C 5.26 g/m*3 2.1 C 1.6 km/h
491 31-12-2014 03:15:00 2.1 C 5.31 g/m*3 2.1 C 1.6 km/h
492 31-12-2014 03:20:00 2.1 C 5.26 g/m*3 2.1 C 3.2 km/h
493 31-12-2014 03:25:00 2.1 C 5.26 g/m*3 2.1 C 0 km/h
494 31-12-2014 03:30:00 2.1 C 5.26 g/m*3 2.1 C 1.6 km/h
495 31-12-2014 03:35:00 2.1 C 5.31 g/m*3 2.1 C 0 km/h
496 31-12-2014 03:40:00 2.1 C 5.31 g/m*3 2.1 C 0 km/h
497 31-12-2014 03:45:00 2.1 C 5.31 g/m*3 2.1 C 1.6 km/h
498 31-12-2014 03:50:00 2.1 C 5.31 g/m*3 2.1 C 0 km/h
499 31-12-2014 03:55:00 2.1 C 5.31 g/m*3 2.1 C 0 km/h
500 31-12-2014 04:00:00 2.1 C 5.31 g/m*3 2.1 C 0 km/h
Sensor: Nr:Datum:Temp:Abs-Feuchte:Windchill:Wind:
Aussen-T/F 501 31-12-2014 04:05:00 2.1 C 5.31 g/m*3 2.1 C 0 km/h
502 31-12-2014 04:10:00 2.1 C 5.31 g/m*3 2.1 C 0 km/h
503 31-12-2014 04:15:00 2.1 C 5.31 g/m*3 2.1 C 0 km/h
504 31-12-2014 04:20:00 2.1 C 5.31 g/m*3 2.1 C 0 km/h
505 31-12-2014 04:25:00 2.1 C 5.31 g/m*3 2.1 C 0 km/h
506 31-12-2014 04:30:00 2.1 C 5.31 g/m*3 2.1 C 0 km/h
507 31-12-2014 04:35:00 2.2 C 5.35 g/m*3 2.2 C 1.6 km/h
508 31-12-2014 04:40:00 2.2 C 5.35 g/m*3 2.2 C 0 km/h
509 31-12-2014 04:45:00 2.2 C 5.35 g/m*3 2.2 C 0 km/h
510 31-12-2014 04:50:00 2.2 C 5.35 g/m*3 2.2 C 0 km/h
511 31-12-2014 04:55:00 2.1 C 5.26 g/m*3 2.1 C 1.6 km/h
512 31-12-2014 05:00:00 2.2 C 5.35 g/m*3 2.2 C 1.6 km/h
513 31-12-2014 05:05:00 2.2 C 5.35 g/m*3 2.2 C 1.6 km/h
514 31-12-2014 05:10:00 2.2 C 5.35 g/m*3 2.2 C 1.6 km/h
515 31-12-2014 05:15:00 2.2 C 5.29 g/m*3 2.2 C 3.2 km/h
516 31-12-2014 05:20:00 2.3 C 5.33 g/m*3 2.3 C 3.2 km/h
517 31-12-2014 05:25:00 2.3 C 5.33 g/m*3 2.3 C 4.8 km/h
518 31-12-2014 05:30:00 2.3 C 5.33 g/m*3 2.3 C 1.6 km/h
519 31-12-2014 05:35:00 2.3 C 5.33 g/m*3 2.3 C 1.6 km/h
520 31-12-2014 05:40:00 2.3 C 5.33 g/m*3 2.3 C 1.6 km/h
521 31-12-2014 05:45:00 2.3 C 5.33 g/m*3 2.3 C 1.6 km/h
522 31-12-2014 05:50:00 2.3 C 5.33 g/m*3 2.3 C 0 km/h
523 31-12-2014 05:55:00 2.3 C 5.33 g/m*3 2.3 C 0 km/h
524 31-12-2014 06:00:00 2.3 C 5.33 g/m*3 2.3 C 3.2 km/h
525 31-12-2014 06:05:00 2.3 C 5.33 g/m*3 2.3 C 0 km/h
Sensor: Nr:Datum:Temp:Abs-Feuchte:Windchill:Wind:
Aussen-T/F 526 31-12-2014 06:10:00 2.3 C 5.33 g/m*3 2.3 C 0 km/h
527 31-12-2014 06:15:00 2.3 C 5.33 g/m*3 2.3 C 0 km/h
528 31-12-2014 06:20:00 2.3 C 5.33 g/m*3 2.3 C 3.2 km/h
529 31-12-2014 06:25:00 2.3 C 5.33 g/m*3 2.3 C 1.6 km/h
530 31-12-2014 06:30:00 2.2 C 5.29 g/m*3 2.2 C 1.6 km/h
531 31-12-2014 06:35:00 2.2 C 5.29 g/m*3 2.2 C 0 km/h
532 31-12-2014 06:40:00 2.2 C 5.29 g/m*3 2.2 C 1.6 km/h
533 31-12-2014 06:45:00 2.3 C 5.33 g/m*3 2.3 C 3.2 km/h
534 31-12-2014 06:50:00 2.3 C 5.33 g/m*3 2.3 C 3.2 km/h
535 31-12-2014 06:55:00 2.3 C 5.33 g/m*3 2.3 C 1.6 km/h
536 31-12-2014 07:00:00 2.3 C 5.33 g/m*3 2.3 C 3.2 km/h
537 31-12-2014 07:05:00 2.4 C 5.37 g/m*3 2.4 C 4.8 km/h
538 31-12-2014 07:10:00 2.4 C 5.37 g/m*3 2.4 C 3.2 km/h
539 31-12-2014 07:15:00 2.4 C 5.37 g/m*3 2.4 C 4.8 km/h
540 31-12-2014 07:20:00 2.5 C 5.4 g/m*3 2.5 C 1.6 km/h
541 31-12-2014 07:25:00 2.5 C 5.35 g/m*3 2.5 C 4.8 km/h
542 31-12-2014 07:30:00 2.6 C 5.44 g/m*3 2.6 C 3.2 km/h
543 31-12-2014 07:35:00 2.6 C 5.38 g/m*3 2.6 C 3.2 km/h
544 31-12-2014 07:40:00 2.6 C 5.38 g/m*3 2.6 C 3.2 km/h
545 31-12-2014 07:45:00 2.6 C 5.38 g/m*3 2.6 C 0 km/h
546 31-12-2014 07:50:00 2.5 C 5.35 g/m*3 2.5 C 3.2 km/h
547 31-12-2014 07:55:00 2.4 C 5.37 g/m*3 2.4 C 1.6 km/h
548 31-12-2014 08:00:00 2.5 C 5.35 g/m*3 2.5 C 3.2 km/h
549 31-12-2014 08:05:00 2.4 C 5.37 g/m*3 2.4 C 3.2 km/h
550 31-12-2014 08:10:00 2.4 C 5.37 g/m*3 2.4 C 3.2 km/h
Sensor: Nr:Datum:Temp:Abs-Feuchte:Windchill:Wind:
Aussen-T/F 551 31-12-2014 08:15:00 2.5 C 5.4 g/m*3 2.5 C 4.8 km/h
552 31-12-2014 08:20:00 2.6 C 5.44 g/m*3 0.82 C 6.4 km/h
553 31-12-2014 08:25:00 2.6 C 5.44 g/m*3 0.82 C 6.4 km/h
554 31-12-2014 08:30:00 2.6 C 5.44 g/m*3 2.6 C 1.6 km/h
555 31-12-2014 08:35:00 2.6 C 5.44 g/m*3 2.6 C 3.2 km/h
556 31-12-2014 08:40:00 2.6 C 5.38 g/m*3 0.29 C 8.1 km/h
557 31-12-2014 08:45:00 2.7 C 5.42 g/m*3 0.4 C 8.1 km/h
558 31-12-2014 08:50:00 2.7 C 5.42 g/m*3 2.7 C 4.8 km/h
559 31-12-2014 08:55:00 2.6 C 5.38 g/m*3 2.6 C 3.2 km/h
560 31-12-2014 09:00:00 2.7 C 5.42 g/m*3 0.4 C 8.1 km/h
561 31-12-2014 09:05:00 2.7 C 5.42 g/m*3 0.4 C 8.1 km/h
562 31-12-2014 09:10:00 2.7 C 5.42 g/m*3 0.94 C 6.4 km/h
563 31-12-2014 09:15:00 2.7 C 5.42 g/m*3 0.4 C 8.1 km/h
564 31-12-2014 09:20:00 2.7 C 5.42 g/m*3 -0.38 C 11.3 km/h
565 31-12-2014 09:25:00 2.8 C 5.4 g/m*3 0.52 C 8.1 km/h
566 31-12-2014 09:30:00 2.8 C 5.4 g/m*3 0.52 C 8.1 km/h
567 31-12-2014 09:35:00 2.8 C 5.4 g/m*3 0.52 C 8.1 km/h
568 31-12-2014 09:40:00 2.8 C 5.4 g/m*3 0.1 C 9.7 km/h
569 31-12-2014 09:45:00 2.8 C 5.4 g/m*3 1.05 C 6.4 km/h
570 31-12-2014 09:50:00 2.8 C 5.4 g/m*3 0.1 C 9.7 km/h
571 31-12-2014 09:55:00 2.9 C 5.43 g/m*3 0.64 C 8.1 km/h
572 31-12-2014 10:00:00 2.9 C 5.43 g/m*3 1.17 C 6.4 km/h
573 31-12-2014 10:05:00 2.9 C 5.43 g/m*3 1.17 C 6.4 km/h
574 31-12-2014 10:10:00 2.9 C 5.43 g/m*3 1.17 C 6.4 km/h
575 31-12-2014 10:15:00 3 C 5.47 g/m*3 0.34 C 9.7 km/h
Sensor: Nr:Datum:Temp:Abs-Feuchte:Windchill:Wind:
Aussen-T/F 576 31-12-2014 10:20:00 3 C 5.47 g/m*3 0.76 C 8.1 km/h
577 31-12-2014 10:25:00 3.1 C 5.51 g/m*3 0.46 C 9.7 km/h
578 31-12-2014 10:30:00 3.1 C 5.51 g/m*3 0.1 C 11.3 km/h
579 31-12-2014 10:35:00 3.1 C 5.45 g/m*3 0.87 C 8.1 km/h
580 31-12-2014 10:40:00 3.2 C 5.48 g/m*3 0.22 C 11.3 km/h
581 31-12-2014 10:45:00 3.2 C 5.48 g/m*3 0.22 C 11.3 km/h
582 31-12-2014 10:50:00 3.2 C 5.48 g/m*3 0.99 C 8.1 km/h
583 31-12-2014 10:55:00 3.3 C 5.52 g/m*3 0.34 C 11.3 km/h
584 31-12-2014 11:00:00 3.2 C 5.48 g/m*3 0.99 C 8.1 km/h
585 31-12-2014 11:05:00 3.2 C 5.48 g/m*3 0.58 C 9.7 km/h
586 31-12-2014 11:10:00 3.2 C 5.48 g/m*3 0.58 C 9.7 km/h
587 31-12-2014 11:15:00 3.3 C 5.52 g/m*3 1.11 C 8.1 km/h
588 31-12-2014 11:20:00 3.3 C 5.52 g/m*3 1.11 C 8.1 km/h
589 31-12-2014 11:25:00 3.3 C 5.52 g/m*3 1.63 C 6.4 km/h
590 31-12-2014 11:30:00 3.4 C 5.56 g/m*3 1.23 C 8.1 km/h
591 31-12-2014 11:35:00 3.4 C 5.56 g/m*3 1.75 C 6.4 km/h
592 31-12-2014 11:40:00 3.5 C 5.6 g/m*3 1.34 C 8.1 km/h
593 31-12-2014 11:45:00 3.6 C 5.63 g/m*3 1.46 C 8.1 km/h
594 31-12-2014 11:50:00 3.6 C 5.63 g/m*3 3.6 C 4.8 km/h
595 31-12-2014 11:55:00 3.6 C 5.63 g/m*3 3.6 C 4.8 km/h
596 31-12-2014 12:00:00 3.6 C 5.63 g/m*3 3.6 C 4.8 km/h
597 31-12-2014 17:10:00 3.3 C 6.07 g/m*3 3.3 C 1.6 km/h
598 31-12-2014 17:15:00 3.2 C 6.03 g/m*3 3.2 C 3.2 km/h
599 31-12-2014 17:20:00 3.2 C 6.03 g/m*3 3.2 C 1.6 km/h
600 31-12-2014 17:25:00 3.2 C 6.03 g/m*3 3.2 C 3.2 km/h
Sensor: Nr:Datum:Temp:Abs-Feuchte:Windchill:Wind:
Aussen-T/F 601 31-12-2014 17:30:00 3.2 C 6.03 g/m*3 0.58 C 9.7 km/h
602 31-12-2014 17:35:00 3.2 C 6.03 g/m*3 3.2 C 3.2 km/h
603 31-12-2014 17:40:00 3.2 C 6.03 g/m*3 3.2 C 3.2 km/h
604 01-01-2015 00:15:00 2.6 C 5.79 g/m*3 2.6 C 0 km/h
605 01-01-2015 00:20:00 2.6 C 5.79 g/m*3 2.6 C 0 km/h
606 01-01-2015 00:25:00 2.6 C 5.79 g/m*3 2.6 C 0 km/h
607 01-01-2015 00:30:00 2.6 C 5.79 g/m*3 2.6 C 1.6 km/h
608 01-01-2015 00:35:00 2.7 C 5.59 g/m*3 2.7 C 0 km/h
609 01-01-2015 00:40:00 2.7 C 5.59 g/m*3 2.7 C 0 km/h
610 01-01-2015 00:45:00 2.7 C 5.59 g/m*3 2.7 C 1.6 km/h
611 01-01-2015 00:50:00 2.7 C 5.59 g/m*3 2.7 C 0 km/h
612 01-01-2015 00:55:00 2.7 C 5.59 g/m*3 2.7 C 0 km/h
613 01-01-2015 01:00:00 2.7 C 5.59 g/m*3 2.7 C 1.6 km/h
614 01-01-2015 01:05:00 2.8 C 5.63 g/m*3 2.8 C 1.6 km/h
615 01-01-2015 01:10:00 2.8 C 5.63 g/m*3 2.8 C 0 km/h
616 01-01-2015 01:15:00 2.8 C 5.63 g/m*3 2.8 C 0 km/h
617 01-01-2015 01:20:00 2.8 C 5.63 g/m*3 2.8 C 1.6 km/h
618 01-01-2015 01:25:00 2.9 C 5.67 g/m*3 2.9 C 0 km/h
619 01-01-2015 01:30:00 2.9 C 5.67 g/m*3 2.9 C 1.6 km/h
620 01-01-2015 01:35:00 2.9 C 5.67 g/m*3 2.9 C 0 km/h
621 01-01-2015 01:40:00 2.9 C 5.67 g/m*3 2.9 C 0 km/h
622 01-01-2015 01:45:00 2.9 C 5.67 g/m*3 2.9 C 1.6 km/h
623 01-01-2015 01:50:00 2.9 C 5.67 g/m*3 2.9 C 0 km/h
624 01-01-2015 01:55:00 2.9 C 5.67 g/m*3 2.9 C 0 km/h
625 01-01-2015 02:00:00 2.8 C 5.63 g/m*3 2.8 C 0 km/h
Sensor: Nr:Datum:Temp:Abs-Feuchte:Windchill:Wind:
Aussen-T/F 626 01-01-2015 02:05:00 2.8 C 5.63 g/m*3 2.8 C 0 km/h
627 01-01-2015 02:10:00 2.8 C 5.63 g/m*3 2.8 C 0 km/h
628 01-01-2015 02:15:00 2.8 C 5.63 g/m*3 2.8 C 0 km/h
629 01-01-2015 02:20:00 2.8 C 5.63 g/m*3 2.8 C 0 km/h
630 01-01-2015 02:25:00 2.8 C 5.63 g/m*3 2.8 C 0 km/h
631 01-01-2015 02:30:00 2.8 C 5.63 g/m*3 2.8 C 0 km/h
632 01-01-2015 02:35:00 2.8 C 5.63 g/m*3 2.8 C 0 km/h
633 01-01-2015 02:40:00 2.7 C 5.59 g/m*3 2.7 C 0 km/h
634 01-01-2015 02:45:00 2.7 C 5.59 g/m*3 2.7 C 0 km/h
635 01-01-2015 02:50:00 2.7 C 5.59 g/m*3 2.7 C 0 km/h
636 01-01-2015 02:55:00 2.6 C 5.56 g/m*3 2.6 C 0 km/h
637 01-01-2015 03:00:00 2.5 C 5.52 g/m*3 2.5 C 0 km/h
638 01-01-2015 03:05:00 2.4 C 5.42 g/m*3 2.4 C 0 km/h
639 01-01-2015 03:10:00 2.2 C 5.35 g/m*3 2.2 C 3.2 km/h
640 01-01-2015 03:15:00 1.9 C 5.24 g/m*3 1.9 C 3.2 km/h
641 01-01-2015 03:20:00 1.8 C 5.21 g/m*3 1.8 C 3.2 km/h
642 01-01-2015 03:25:00 1.8 C 5.26 g/m*3 1.8 C 3.2 km/h
643 01-01-2015 03:30:00 1.7 C 5.23 g/m*3 1.7 C 0 km/h
644 01-01-2015 03:35:00 1.6 C 5.19 g/m*3 1.6 C 1.6 km/h
645 01-01-2015 03:40:00 1.6 C 5.19 g/m*3 1.6 C 1.6 km/h
646 01-01-2015 03:45:00 1.4 C 5.12 g/m*3 1.4 C 3.2 km/h
647 01-01-2015 03:50:00 1.4 C 5.12 g/m*3 1.4 C 3.2 km/h
648 01-01-2015 03:55:00 1.3 C 5.09 g/m*3 1.3 C 0 km/h
649 01-01-2015 04:00:00 1.3 C 5.09 g/m*3 1.3 C 1.6 km/h
650 01-01-2015 04:05:00 1.3 C 5.09 g/m*3 1.3 C 0 km/h
Sensor: Nr:Datum:Temp:Abs-Feuchte:Windchill:Wind:
Aussen-T/F 651 01-01-2015 04:10:00 1.2 C 5.05 g/m*3 1.2 C 3.2 km/h
652 01-01-2015 04:15:00 1.1 C 5.02 g/m*3 1.1 C 1.6 km/h
653 01-01-2015 04:20:00 1 C 4.98 g/m*3 1 C 1.6 km/h
654 01-01-2015 04:25:00 0.9 C 4.95 g/m*3 0.9 C 4.8 km/h
655 01-01-2015 04:30:00 0.9 C 4.95 g/m*3 0.9 C 4.8 km/h
656 01-01-2015 04:35:00 0.9 C 4.95 g/m*3 0.9 C 1.6 km/h
657 01-01-2015 04:40:00 0.9 C 5 g/m*3 0.9 C 3.2 km/h
658 01-01-2015 04:45:00 0.9 C 5 g/m*3 0.9 C 1.6 km/h
659 01-01-2015 04:50:00 0.9 C 5 g/m*3 0.9 C 3.2 km/h
660 01-01-2015 04:55:00 1 C 5.03 g/m*3 1 C 1.6 km/h
661 01-01-2015 05:00:00 1.1 C 5.07 g/m*3 1.1 C 1.6 km/h
662 01-01-2015 05:05:00 1.2 C 5.1 g/m*3 1.2 C 3.2 km/h
663 01-01-2015 05:10:00 1.3 C 5.14 g/m*3 1.3 C 0 km/h
664 01-01-2015 05:15:00 1.4 C 5.17 g/m*3 1.4 C 1.6 km/h
665 01-01-2015 05:20:00 1.5 C 5.21 g/m*3 1.5 C 0 km/h
666 01-01-2015 05:25:00 1.5 C 5.21 g/m*3 1.5 C 0 km/h
667 01-01-2015 05:30:00 1.5 C 5.21 g/m*3 1.5 C 1.6 km/h
668 01-01-2015 05:35:00 1.6 C 5.25 g/m*3 1.6 C 0 km/h
669 01-01-2015 05:40:00 1.7 C 5.28 g/m*3 1.7 C 3.2 km/h
670 01-01-2015 05:45:00 1.7 C 5.28 g/m*3 1.7 C 0 km/h
671 01-01-2015 05:50:00 1.8 C 5.32 g/m*3 1.8 C 4.8 km/h
672 01-01-2015 05:55:00 1.8 C 5.32 g/m*3 1.8 C 3.2 km/h
673 01-01-2015 06:00:00 1.8 C 5.32 g/m*3 -0.1 C 6.4 km/h
674 01-01-2015 06:05:00 1.8 C 5.32 g/m*3 -0.1 C 6.4 km/h
675 01-01-2015 06:10:00 1.8 C 5.32 g/m*3 1.8 C 4.8 km/h
Sensor: Nr:Datum:Temp:Abs-Feuchte:Windchill:Wind:
Aussen-T/F 676 01-01-2015 06:15:00 1.8 C 5.32 g/m*3 1.8 C 3.2 km/h
677 01-01-2015 06:20:00 1.8 C 5.32 g/m*3 1.8 C 4.8 km/h
678 01-01-2015 06:25:00 1.8 C 5.32 g/m*3 1.8 C 3.2 km/h
679 01-01-2015 06:30:00 1.8 C 5.32 g/m*3 1.8 C 4.8 km/h
680 01-01-2015 06:35:00 1.8 C 5.32 g/m*3 -0.65 C 8.1 km/h
681 01-01-2015 06:40:00 1.8 C 5.32 g/m*3 1.8 C 4.8 km/h
682 01-01-2015 06:45:00 1.8 C 5.32 g/m*3 -0.1 C 6.4 km/h
683 01-01-2015 06:50:00 1.8 C 5.32 g/m*3 -0.65 C 8.1 km/h
684 01-01-2015 06:55:00 1.8 C 5.32 g/m*3 1.8 C 4.8 km/h
685 01-01-2015 07:00:00 1.8 C 5.32 g/m*3 -0.1 C 6.4 km/h
686 01-01-2015 07:05:00 1.8 C 5.32 g/m*3 1.8 C 1.6 km/h
687 01-01-2015 07:10:00 1.8 C 5.32 g/m*3 1.8 C 3.2 km/h
688 01-01-2015 07:15:00 1.8 C 5.32 g/m*3 1.8 C 3.2 km/h
689 01-01-2015 07:20:00 1.7 C 5.28 g/m*3 1.7 C 0 km/h
690 01-01-2015 07:25:00 1.7 C 5.28 g/m*3 1.7 C 3.2 km/h
691 01-01-2015 07:30:00 1.7 C 5.28 g/m*3 1.7 C 4.8 km/h
692 01-01-2015 07:35:00 1.7 C 5.28 g/m*3 1.7 C 1.6 km/h
693 01-01-2015 07:40:00 1.7 C 5.28 g/m*3 1.7 C 4.8 km/h
694 01-01-2015 07:45:00 1.6 C 5.25 g/m*3 1.6 C 3.2 km/h
695 01-01-2015 07:50:00 1.6 C 5.25 g/m*3 1.6 C 0 km/h
696 01-01-2015 07:55:00 1.6 C 5.25 g/m*3 1.6 C 3.2 km/h
697 01-01-2015 08:00:00 1.6 C 5.25 g/m*3 1.6 C 3.2 km/h
698 01-01-2015 08:05:00 1.6 C 5.25 g/m*3 1.6 C 1.6 km/h
699 01-01-2015 08:10:00 1.6 C 5.25 g/m*3 1.6 C 3.2 km/h
700 01-01-2015 08:15:00 1.6 C 5.25 g/m*3 1.6 C 1.6 km/h
Sensor: Nr:Datum:Temp:Abs-Feuchte:Windchill:Wind:
Aussen-T/F 701 01-01-2015 08:20:00 1.6 C 5.25 g/m*3 1.6 C 0 km/h
702 01-01-2015 08:25:00 1.5 C 5.21 g/m*3 1.5 C 1.6 km/h
703 01-01-2015 08:30:00 1.5 C 5.21 g/m*3 1.5 C 0 km/h
704 01-01-2015 08:35:00 1.5 C 5.21 g/m*3 1.5 C 0 km/h
705 01-01-2015 16:40:00 1.8 C 5.48 g/m*3 1.8 C 1.6 km/h
706 01-01-2015 16:45:00 1.8 C 5.48 g/m*3 1.8 C 3.2 km/h
707 01-01-2015 18:30:00 1.9 C 5.24 g/m*3 1.9 C 3.2 km/h
708 01-01-2015 18:35:00 1.8 C 5.15 g/m*3 1.8 C 1.6 km/h
709 01-01-2015 18:40:00 1.7 C 5.17 g/m*3 1.7 C 3.2 km/h
710 01-01-2015 18:45:00 1.6 C 5.14 g/m*3 1.6 C 0 km/h
711 01-01-2015 18:50:00 1.6 C 5.14 g/m*3 1.6 C 0 km/h
712 01-01-2015 18:55:00 1.5 C 5.1 g/m*3 1.5 C 0 km/h
713 01-01-2015 19:00:00 1.3 C 5.03 g/m*3 1.3 C 0 km/h
714 01-01-2015 19:05:00 1.2 C 5 g/m*3 1.2 C 1.6 km/h
715 01-01-2015 19:10:00 1.2 C 5 g/m*3 1.2 C 3.2 km/h
716 01-01-2015 19:15:00 1.2 C 5.05 g/m*3 1.2 C 3.2 km/h
717 01-01-2015 19:20:00 1.1 C 4.96 g/m*3 1.1 C 1.6 km/h
718 01-01-2015 19:25:00 1.1 C 4.96 g/m*3 1.1 C 3.2 km/h
719 01-01-2015 19:30:00 1.1 C 4.96 g/m*3 1.1 C 1.6 km/h
720 02-01-2015 03:25:00 2.2 C 4.96 g/m*3 -0.99 C 11.3 km/h
721 02-01-2015 03:30:00 2.2 C 4.96 g/m*3 2.2 C 1.6 km/h
722 02-01-2015 03:35:00 2.2 C 4.96 g/m*3 -0.61 C 9.7 km/h
723 02-01-2015 05:05:00 3.2 C 4.94 g/m*3 -0.1 C 12.9 km/h
724 02-01-2015 05:10:00 3.2 C 4.94 g/m*3 0.22 C 11.3 km/h
725 02-01-2015 05:15:00 3.2 C 4.94 g/m*3 -1.32 C 20.9 km/h
Sensor: Nr:Datum:Temp:Abs-Feuchte:Windchill:Wind:
Aussen-T/F 726 02-01-2015 05:20:00 3.2 C 4.94 g/m*3 0.22 C 11.3 km/h
727 02-01-2015 05:25:00 3.2 C 4.94 g/m*3 0.22 C 11.3 km/h
728 02-01-2015 05:30:00 3.2 C 4.94 g/m*3 -0.39 C 14.5 km/h
729 02-01-2015 06:25:00 3.6 C 4.95 g/m*3 -0.15 C 16.1 km/h
730 02-01-2015 06:30:00 3.4 C 4.95 g/m*3 -0.14 C 14.5 km/h
731 02-01-2015 06:35:00 3.3 C 4.97 g/m*3 -1.57 C 24.1 km/h
732 02-01-2015 06:40:00 3.3 C 4.97 g/m*3 -0.76 C 17.7 km/h
733 02-01-2015 06:45:00 3.3 C 5.04 g/m*3 -1.19 C 20.9 km/h
734 02-01-2015 06:50:00 3.2 C 5 g/m*3 -1.11 C 19.3 km/h
735 02-01-2015 06:55:00 3.2 C 5 g/m*3 -1.87 C 25.7 km/h
736 02-01-2015 07:00:00 3.3 C 5.04 g/m*3 -1.74 C 25.7 km/h
737 02-01-2015 07:05:00 3.2 C 5 g/m*3 -1.51 C 22.5 km/h
738 02-01-2015 07:10:00 3.2 C 5 g/m*3 -0.89 C 17.7 km/h
739 02-01-2015 07:15:00 3.2 C 5.06 g/m*3 0.22 C 11.3 km/h
740 02-01-2015 07:20:00 3.1 C 5.03 g/m*3 -1.64 C 22.5 km/h
741 02-01-2015 07:25:00 3.1 C 5.09 g/m*3 -1.45 C 20.9 km/h
742 02-01-2015 07:30:00 3.1 C 5.09 g/m*3 -2.18 C 27.4 km/h
743 02-01-2015 07:35:00 3 C 5.05 g/m*3 -0.9 C 16.1 km/h
744 02-01-2015 07:40:00 3 C 5.05 g/m*3 -0.34 C 12.9 km/h
745 02-01-2015 07:45:00 2.9 C 5.08 g/m*3 -0.76 C 14.5 km/h
746 02-01-2015 07:50:00 2.9 C 5.08 g/m*3 -0.46 C 12.9 km/h
747 02-01-2015 07:55:00 2.9 C 5.08 g/m*3 -0.76 C 14.5 km/h
748 02-01-2015 08:00:00 2.8 C 5.1 g/m*3 -2.02 C 22.5 km/h
749 02-01-2015 08:05:00 2.8 C 5.1 g/m*3 0.52 C 8.1 km/h
750 02-01-2015 08:10:00 2.8 C 5.1 g/m*3 -0.26 C 11.3 km/h
Sensor: Nr:Datum:Temp:Abs-Feuchte:Windchill:Wind:
Aussen-T/F 751 02-01-2015 08:15:00 2.8 C 5.1 g/m*3 -1.61 C 19.3 km/h
752 02-01-2015 08:20:00 2.7 C 5.13 g/m*3 -2.34 C 24.1 km/h
753 02-01-2015 08:25:00 2.8 C 5.16 g/m*3 -1.61 C 19.3 km/h
754 02-01-2015 08:30:00 2.8 C 5.16 g/m*3 -0.88 C 14.5 km/h
755 02-01-2015 08:35:00 2.8 C 5.16 g/m*3 -1.39 C 17.7 km/h
756 02-01-2015 08:40:00 2.7 C 5.13 g/m*3 -1.95 C 20.9 km/h
757 02-01-2015 08:45:00 2.8 C 5.16 g/m*3 -2.57 C 27.4 km/h
758 02-01-2015 08:50:00 2.8 C 5.22 g/m*3 -1.39 C 17.7 km/h
759 02-01-2015 08:55:00 2.7 C 5.19 g/m*3 -1.74 C 19.3 km/h
760 02-01-2015 09:00:00 2.7 C 5.19 g/m*3 -1.51 C 17.7 km/h
761 02-01-2015 09:05:00 2.7 C 5.24 g/m*3 -1.27 C 16.1 km/h
762 02-01-2015 09:10:00 2.7 C 5.24 g/m*3 -2.15 C 22.5 km/h
763 02-01-2015 09:15:00 2.7 C 5.24 g/m*3 -2.15 C 22.5 km/h
764 02-01-2015 09:20:00 2.7 C 5.24 g/m*3 -1.95 C 20.9 km/h
765 02-01-2015 09:25:00 2.7 C 5.24 g/m*3 -2.34 C 24.1 km/h
766 02-01-2015 09:30:00 2.7 C 5.3 g/m*3 -2.34 C 24.1 km/h
767 02-01-2015 09:35:00 2.7 C 5.3 g/m*3 -1.27 C 16.1 km/h
768 02-01-2015 09:40:00 2.7 C 5.24 g/m*3 -2.34 C 24.1 km/h
769 02-01-2015 09:45:00 2.8 C 5.28 g/m*3 -2.39 C 25.7 km/h
770 02-01-2015 09:50:00 2.8 C 5.28 g/m*3 -1.39 C 17.7 km/h
771 02-01-2015 09:55:00 2.8 C 5.28 g/m*3 -1.83 C 20.9 km/h
772 02-01-2015 10:00:00 2.9 C 5.32 g/m*3 -1.02 C 16.1 km/h
773 02-01-2015 10:05:00 2.9 C 5.32 g/m*3 -2.26 C 25.7 km/h
774 02-01-2015 10:10:00 3 C 5.35 g/m*3 -1.77 C 22.5 km/h
775 02-01-2015 10:15:00 3.1 C 5.39 g/m*3 -1.83 C 24.1 km/h
Sensor: Nr:Datum:Temp:Abs-Feuchte:Windchill:Wind:
Aussen-T/F 776 02-01-2015 10:20:00 3.1 C 5.39 g/m*3 -1.45 C 20.9 km/h
777 02-01-2015 10:25:00 3.2 C 5.42 g/m*3 -1.7 C 24.1 km/h
778 02-01-2015 10:30:00 3.2 C 5.42 g/m*3 -0.89 C 17.7 km/h
779 02-01-2015 10:35:00 3.3 C 5.4 g/m*3 -0.76 C 17.7 km/h
780 02-01-2015 10:40:00 3.3 C 5.4 g/m*3 -1.19 C 20.9 km/h
781 02-01-2015 10:45:00 3.3 C 5.4 g/m*3 -0.99 C 19.3 km/h
782 02-01-2015 10:50:00 3.3 C 5.4 g/m*3 -0.76 C 17.7 km/h
783 02-01-2015 10:55:00 3.4 C 5.44 g/m*3 -1.44 C 24.1 km/h
784 02-01-2015 11:00:00 3.4 C 5.44 g/m*3 -0.64 C 17.7 km/h
785 02-01-2015 11:05:00 3.5 C 5.47 g/m*3 -0.28 C 16.1 km/h
786 02-01-2015 11:10:00 3.5 C 5.47 g/m*3 -1.49 C 25.7 km/h
787 02-01-2015 11:15:00 3.5 C 5.47 g/m*3 0.58 C 11.3 km/h
788 02-01-2015 11:20:00 3.6 C 5.51 g/m*3 -1.01 C 22.5 km/h
789 02-01-2015 11:25:00 3.6 C 5.51 g/m*3 -1.19 C 24.1 km/h
790 02-01-2015 11:30:00 3.7 C 5.55 g/m*3 -0.88 C 22.5 km/h
791 02-01-2015 11:35:00 3.7 C 5.55 g/m*3 -1.23 C 25.7 km/h
792 02-01-2015 11:40:00 3.7 C 5.55 g/m*3 -0.69 C 20.9 km/h
793 02-01-2015 11:45:00 3.8 C 5.58 g/m*3 -0.75 C 22.5 km/h
794 02-01-2015 11:50:00 3.8 C 5.58 g/m*3 -0.56 C 20.9 km/h
795 02-01-2015 11:55:00 3.9 C 5.62 g/m*3 -0.97 C 25.7 km/h
796 02-01-2015 12:00:00 3.9 C 5.62 g/m*3 -0.23 C 19.3 km/h
797 02-01-2015 12:05:00 4.1 C 5.7 g/m*3 0.47 C 16.1 km/h
798 02-01-2015 12:10:00 4.1 C 5.7 g/m*3 0.47 C 16.1 km/h
799 02-01-2015 12:15:00 4.1 C 5.7 g/m*3 0.02 C 19.3 km/h
800 02-01-2015 12:20:00 4.2 C 5.73 g/m*3 0.15 C 19.3 km/h
Sensor: Nr:Datum:Temp:Abs-Feuchte:Windchill:Wind:
Aussen-T/F 801 02-01-2015 12:25:00 4.2 C 5.73 g/m*3 0.36 C 17.7 km/h
802 02-01-2015 12:30:00 4.2 C 5.73 g/m*3 0.36 C 17.7 km/h
803 02-01-2015 12:35:00 4.3 C 5.77 g/m*3 0.49 C 17.7 km/h
804 02-01-2015 12:40:00 4.3 C 5.77 g/m*3 -0.11 C 22.5 km/h
805 02-01-2015 12:45:00 4.4 C 5.81 g/m*3 0.61 C 17.7 km/h
806 02-01-2015 12:50:00 4.5 C 5.85 g/m*3 0.74 C 17.7 km/h
807 02-01-2015 12:55:00 4.6 C 5.89 g/m*3 0.86 C 17.7 km/h
808 02-01-2015 13:00:00 4.6 C 5.89 g/m*3 0.45 C 20.9 km/h
809 02-01-2015 13:05:00 4.5 C 5.85 g/m*3 0.33 C 20.9 km/h
810 02-01-2015 13:10:00 4.5 C 5.85 g/m*3 0.96 C 16.1 km/h
811 02-01-2015 13:15:00 4.6 C 5.89 g/m*3 0.86 C 17.7 km/h
812 02-01-2015 13:20:00 4.6 C 5.96 g/m*3 0.86 C 17.7 km/h
813 02-01-2015 13:25:00 4.7 C 5.93 g/m*3 0.22 C 24.1 km/h
814 02-01-2015 13:30:00 4.7 C 5.93 g/m*3 0.78 C 19.3 km/h
815 02-01-2015 13:35:00 4.6 C 5.89 g/m*3 0.65 C 19.3 km/h
816 02-01-2015 13:40:00 4.6 C 5.96 g/m*3 1.34 C 14.5 km/h
817 02-01-2015 13:45:00 4.6 C 5.96 g/m*3 0.45 C 20.9 km/h
818 02-01-2015 13:50:00 4.6 C 5.96 g/m*3 0.65 C 19.3 km/h
819 02-01-2015 13:55:00 4.6 C 5.96 g/m*3 1.09 C 16.1 km/h
820 02-01-2015 14:00:00 4.5 C 5.92 g/m*3 1.21 C 14.5 km/h
821 02-01-2015 14:05:00 4.5 C 5.92 g/m*3 1.79 C 11.3 km/h
822 02-01-2015 14:10:00 4.5 C 5.92 g/m*3 0.96 C 16.1 km/h
823 02-01-2015 14:15:00 4.5 C 5.92 g/m*3 0.14 C 22.5 km/h
824 02-01-2015 14:20:00 4.5 C 5.98 g/m*3 1.79 C 11.3 km/h
825 02-01-2015 14:25:00 4.5 C 5.98 g/m*3 0.52 C 19.3 km/h
Sensor: Nr:Datum:Temp:Abs-Feuchte:Windchill:Wind:
Aussen-T/F 826 02-01-2015 14:30:00 4.6 C 6.02 g/m*3 1.09 C 16.1 km/h
827 02-01-2015 14:35:00 4.6 C 6.02 g/m*3 0.1 C 24.1 km/h
828 02-01-2015 14:40:00 4.6 C 6.02 g/m*3 0.45 C 20.9 km/h
829 02-01-2015 14:45:00 4.6 C 6.02 g/m*3 1.09 C 16.1 km/h
830 02-01-2015 14:50:00 4.6 C 6.02 g/m*3 1.34 C 14.5 km/h
831 02-01-2015 14:55:00 4.5 C 5.98 g/m*3 1.21 C 14.5 km/h
832 02-01-2015 15:00:00 4.5 C 6.05 g/m*3 0.96 C 16.1 km/h
833 02-01-2015 15:05:00 4.4 C 6.07 g/m*3 1.09 C 14.5 km/h
834 02-01-2015 15:10:00 4.4 C 6.07 g/m*3 0.84 C 16.1 km/h
835 02-01-2015 15:15:00 4.4 C 6.07 g/m*3 1.36 C 12.9 km/h
836 02-01-2015 15:20:00 4.4 C 6.07 g/m*3 2.01 C 9.7 km/h
837 02-01-2015 15:25:00 4.4 C 6.14 g/m*3 0.84 C 16.1 km/h
838 02-01-2015 15:30:00 4.4 C 6.14 g/m*3 1.09 C 14.5 km/h
839 02-01-2015 15:35:00 4.4 C 6.07 g/m*3 1.67 C 11.3 km/h
840 02-01-2015 15:40:00 4.4 C 6.14 g/m*3 0.61 C 17.7 km/h
841 02-01-2015 15:45:00 4.4 C 6.14 g/m*3 1.09 C 14.5 km/h
842 02-01-2015 15:50:00 4.4 C 6.14 g/m*3 2.01 C 9.7 km/h
843 02-01-2015 15:55:00 4.4 C 6.14 g/m*3 1.67 C 11.3 km/h
844 02-01-2015 16:00:00 4.3 C 6.1 g/m*3 0.97 C 14.5 km/h
845 02-01-2015 16:05:00 4.3 C 6.1 g/m*3 1.24 C 12.9 km/h
846 02-01-2015 16:10:00 4.3 C 6.1 g/m*3 1.89 C 9.7 km/h
847 02-01-2015 16:15:00 4.3 C 6.1 g/m*3 2.29 C 8.1 km/h
848 02-01-2015 16:20:00 4.3 C 6.1 g/m*3 0.97 C 14.5 km/h
849 02-01-2015 16:25:00 4.3 C 6.1 g/m*3 0.72 C 16.1 km/h
850 02-01-2015 16:30:00 4.4 C 6.14 g/m*3 0.2 C 20.9 km/h
Sensor: Nr:Datum:Temp:Abs-Feuchte:Windchill:Wind:
Aussen-T/F 851 02-01-2015 16:35:00 4.5 C 6.18 g/m*3 1.21 C 14.5 km/h
852 02-01-2015 16:40:00 4.5 C 6.11 g/m*3 0.74 C 17.7 km/h
853 02-01-2015 16:45:00 4.4 C 6.07 g/m*3 1.36 C 12.9 km/h
854 02-01-2015 16:50:00 4.4 C 6.07 g/m*3 1.36 C 12.9 km/h
855 02-01-2015 16:55:00 4.3 C 6.03 g/m*3 1.24 C 12.9 km/h
856 02-01-2015 17:00:00 4.3 C 6.1 g/m*3 0.07 C 20.9 km/h
857 02-01-2015 17:05:00 4.3 C 6.1 g/m*3 0.97 C 14.5 km/h
858 02-01-2015 17:10:00 4.3 C 6.1 g/m*3 2.29 C 8.1 km/h
859 02-01-2015 17:15:00 4.3 C 6.1 g/m*3 2.29 C 8.1 km/h
860 02-01-2015 23:30:00 2.4 C 5.2 g/m*3 2.4 C 3.2 km/h
861 02-01-2015 23:35:00 2.5 C 5.23 g/m*3 0.71 C 6.4 km/h
862 02-01-2015 23:40:00 2.6 C 5.27 g/m*3 0.82 C 6.4 km/h
863 02-01-2015 23:45:00 2.6 C 5.27 g/m*3 2.6 C 4.8 km/h
864 02-01-2015 23:50:00 2.4 C 5.14 g/m*3 0.59 C 6.4 km/h
865 02-01-2015 23:55:00 2.4 C 5.14 g/m*3 2.4 C 1.6 km/h
866 03-01-2015 00:00:00 2.2 C 5.13 g/m*3 2.2 C 1.6 km/h
867 03-01-2015 00:05:00 2 C 5.06 g/m*3 2 C 1.6 km/h
868 03-01-2015 00:10:00 1.8 C 5.04 g/m*3 1.8 C 4.8 km/h
869 03-01-2015 00:15:00 1.8 C 5.04 g/m*3 1.8 C 3.2 km/h
870 03-01-2015 00:20:00 1.8 C 5.1 g/m*3 1.8 C 3.2 km/h
871 03-01-2015 00:25:00 1.9 C 5.13 g/m*3 0.01 C 6.4 km/h
872 03-01-2015 00:30:00 2.1 C 5.2 g/m*3 0.24 C 6.4 km/h
873 03-01-2015 00:35:00 2.2 C 5.18 g/m*3 0.36 C 6.4 km/h
874 03-01-2015 00:40:00 2.3 C 5.16 g/m*3 2.3 C 4.8 km/h
875 03-01-2015 00:45:00 2.5 C 5.23 g/m*3 -0.62 C 11.3 km/h
Sensor: Nr:Datum:Temp:Abs-Feuchte:Windchill:Wind:
Aussen-T/F 876 03-01-2015 00:50:00 2.6 C 5.21 g/m*3 0.82 C 6.4 km/h
877 03-01-2015 00:55:00 2.5 C 5.17 g/m*3 2.5 C 4.8 km/h
878 03-01-2015 01:00:00 2.4 C 5.14 g/m*3 2.4 C 3.2 km/h
879 03-01-2015 01:05:00 2.4 C 5.14 g/m*3 0.59 C 6.4 km/h
880 03-01-2015 01:10:00 2.3 C 5.1 g/m*3 2.3 C 4.8 km/h
881 03-01-2015 01:15:00 2.4 C 5.2 g/m*3 0.59 C 6.4 km/h
882 03-01-2015 01:20:00 2.5 C 5.17 g/m*3 -0.62 C 11.3 km/h
883 03-01-2015 01:25:00 2.5 C 5.17 g/m*3 0.17 C 8.1 km/h
884 03-01-2015 01:30:00 2.4 C 5.14 g/m*3 0.59 C 6.4 km/h
885 03-01-2015 01:35:00 2.4 C 5.14 g/m*3 -0.37 C 9.7 km/h
886 03-01-2015 01:40:00 2.5 C 5.17 g/m*3 -0.62 C 11.3 km/h
887 03-01-2015 01:45:00 2.5 C 5.17 g/m*3 0.71 C 6.4 km/h
888 03-01-2015 01:50:00 2.5 C 5.17 g/m*3 0.17 C 8.1 km/h
889 03-01-2015 01:55:00 2.6 C 5.21 g/m*3 -0.14 C 9.7 km/h
890 03-01-2015 02:00:00 2.6 C 5.21 g/m*3 0.29 C 8.1 km/h
891 03-01-2015 02:05:00 2.7 C 5.24 g/m*3 -0.71 C 12.9 km/h
892 03-01-2015 02:10:00 2.7 C 5.24 g/m*3 0.4 C 8.1 km/h
893 03-01-2015 02:15:00 2.7 C 5.24 g/m*3 -0.02 C 9.7 km/h
894 03-01-2015 02:20:00 2.7 C 5.24 g/m*3 -0.02 C 9.7 km/h
895 03-01-2015 02:25:00 2.7 C 5.24 g/m*3 0.4 C 8.1 km/h
896 03-01-2015 02:30:00 2.7 C 5.24 g/m*3 -0.02 C 9.7 km/h
897 03-01-2015 02:35:00 2.8 C 5.28 g/m*3 -0.26 C 11.3 km/h
898 03-01-2015 02:40:00 2.8 C 5.28 g/m*3 0.1 C 9.7 km/h
899 03-01-2015 02:45:00 2.8 C 5.22 g/m*3 0.1 C 9.7 km/h
900 03-01-2015 02:50:00 2.8 C 5.22 g/m*3 -0.26 C 11.3 km/h
Sensor: Nr:Datum:Temp:Abs-Feuchte:Windchill:Wind:
Aussen-T/F 901 03-01-2015 02:55:00 2.8 C 5.22 g/m*3 0.1 C 9.7 km/h
902 03-01-2015 03:00:00 2.8 C 5.22 g/m*3 0.1 C 9.7 km/h
903 03-01-2015 04:30:00 2.5 C 5.29 g/m*3 -0.62 C 11.3 km/h
904 03-01-2015 04:35:00 2.5 C 5.29 g/m*3 -0.26 C 9.7 km/h
905 03-01-2015 04:40:00 2.5 C 5.29 g/m*3 -0.95 C 12.9 km/h
906 03-01-2015 04:45:00 2.4 C 5.25 g/m*3 -0.74 C 11.3 km/h
907 03-01-2015 04:50:00 2.4 C 5.25 g/m*3 -1.07 C 12.9 km/h
908 03-01-2015 04:55:00 2.4 C 5.25 g/m*3 -1.37 C 14.5 km/h
909 03-01-2015 05:00:00 2.4 C 5.31 g/m*3 -1.07 C 12.9 km/h
910 03-01-2015 05:05:00 2.4 C 5.31 g/m*3 -0.74 C 11.3 km/h
911 03-01-2015 05:10:00 2.5 C 5.35 g/m*3 -0.26 C 9.7 km/h
912 03-01-2015 05:15:00 2.5 C 5.35 g/m*3 -0.95 C 12.9 km/h
913 03-01-2015 05:20:00 2.5 C 5.35 g/m*3 -0.62 C 11.3 km/h
914 03-01-2015 05:25:00 2.6 C 5.38 g/m*3 -0.14 C 9.7 km/h
915 03-01-2015 05:30:00 2.6 C 5.38 g/m*3 0.29 C 8.1 km/h
916 03-01-2015 05:35:00 2.6 C 5.38 g/m*3 0.29 C 8.1 km/h
917 03-01-2015 06:00:00 2.6 C 5.79 g/m*3 2.6 C 1.6 km/h
918 03-01-2015 06:05:00 2.6 C 5.38 g/m*3 2.6 C 0 km/h
919 03-01-2015 06:10:00 2.6 C 5.38 g/m*3 2.6 C 4.8 km/h
920 03-01-2015 06:15:00 2.6 C 5.38 g/m*3 2.6 C 0 km/h
921 03-01-2015 06:20:00 2.5 C 5.35 g/m*3 2.5 C 0 km/h
922 03-01-2015 06:25:00 2.5 C 5.4 g/m*3 2.5 C 0 km/h
923 03-01-2015 06:30:00 2.5 C 5.4 g/m*3 2.5 C 1.6 km/h
924 03-01-2015 07:45:00 3 C 5.59 g/m*3 3 C 0 km/h
925 03-01-2015 07:50:00 3.1 C 5.63 g/m*3 3.1 C 0 km/h
Sensor: Nr:Datum:Temp:Abs-Feuchte:Windchill:Wind:
Aussen-T/F 926 03-01-2015 07:55:00 3.1 C 5.63 g/m*3 3.1 C 0 km/h
927 03-01-2015 11:25:00 4.2 C 5.86 g/m*3 0.84 C 14.5 km/h
928 03-01-2015 11:30:00 4.2 C 5.86 g/m*3 1.77 C 9.7 km/h
929 03-01-2015 11:35:00 4.2 C 5.86 g/m*3 4.2 C 4.8 km/h
930 03-01-2015 11:40:00 4.2 C 5.86 g/m*3 1.43 C 11.3 km/h
931 03-01-2015 11:45:00 4.2 C 5.86 g/m*3 1.77 C 9.7 km/h
932 03-01-2015 12:45:00 3.6 C 5.76 g/m*3 3.6 C 0 km/h
933 03-01-2015 12:50:00 3.6 C 5.76 g/m*3 3.6 C 1.6 km/h
934 03-01-2015 14:05:00 2.1 C 5.31 g/m*3 2.1 C 0 km/h
935 03-01-2015 14:10:00 2 C 5.28 g/m*3 2 C 0 km/h
936 03-01-2015 14:15:00 1.9 C 5.24 g/m*3 1.9 C 0 km/h
937 03-01-2015 14:20:00 1.8 C 5.21 g/m*3 1.8 C 0 km/h
938 03-01-2015 14:25:00 1.8 C 5.21 g/m*3 1.8 C 0 km/h
939 03-01-2015 14:30:00 1.7 C 5.17 g/m*3 1.7 C 0 km/h
940 03-01-2015 14:35:00 1.6 C 5.14 g/m*3 1.6 C 0 km/h
941 03-01-2015 14:40:00 1.6 C 5.14 g/m*3 1.6 C 0 km/h
942 03-01-2015 14:45:00 1.5 C 5.16 g/m*3 1.5 C 0 km/h
943 03-01-2015 14:50:00 1.6 C 5.19 g/m*3 1.6 C 0 km/h
944 03-01-2015 14:55:00 1.6 C 5.19 g/m*3 1.6 C 0 km/h
945 03-01-2015 15:00:00 1.6 C 5.19 g/m*3 1.6 C 0 km/h
946 03-01-2015 15:05:00 1.7 C 5.23 g/m*3 1.7 C 0 km/h
947 03-01-2015 15:10:00 1.7 C 5.23 g/m*3 1.7 C 0 km/h
948 03-01-2015 15:15:00 1.7 C 5.23 g/m*3 1.7 C 0 km/h
949 03-01-2015 15:20:00 1.7 C 5.23 g/m*3 1.7 C 0 km/h
950 03-01-2015 17:40:00 1.8 C 5.26 g/m*3 1.8 C 0 km/h
Sensor: Nr:Datum:Temp:Abs-Feuchte:Windchill:Wind:
Aussen-T/F 951 03-01-2015 17:45:00 1.6 C 5.19 g/m*3 1.6 C 0 km/h
952 03-01-2015 17:50:00 1.6 C 5.25 g/m*3 1.6 C 0 km/h
953 03-01-2015 17:55:00 1.6 C 5.25 g/m*3 1.6 C 0 km/h
954 03-01-2015 18:00:00 1.6 C 5.25 g/m*3 1.6 C 0 km/h
955 03-01-2015 18:05:00 1.6 C 5.25 g/m*3 1.6 C 1.6 km/h
956 03-01-2015 18:10:00 1.7 C 5.28 g/m*3 1.7 C 0 km/h
957 03-01-2015 18:15:00 1.7 C 5.28 g/m*3 1.7 C 3.2 km/h
958 03-01-2015 18:20:00 1.7 C 5.28 g/m*3 1.7 C 0 km/h
959 03-01-2015 18:25:00 1.6 C 5.25 g/m*3 1.6 C 0 km/h
960 03-01-2015 18:30:00 1.4 C 5.17 g/m*3 1.4 C 0 km/h
961 03-01-2015 18:35:00 1.3 C 5.14 g/m*3 1.3 C 0 km/h
962 03-01-2015 18:40:00 1.3 C 5.14 g/m*3 1.3 C 0 km/h
963 03-01-2015 18:45:00 1.2 C 5.1 g/m*3 1.2 C 0 km/h
964 03-01-2015 18:50:00 1.2 C 5.1 g/m*3 1.2 C 0 km/h
965 03-01-2015 18:55:00 1.2 C 5.1 g/m*3 1.2 C 0 km/h
966 03-01-2015 19:00:00 1.1 C 5.07 g/m*3 1.1 C 0 km/h
967 03-01-2015 19:05:00 1.1 C 5.07 g/m*3 1.1 C 0 km/h
968 03-01-2015 19:10:00 1.1 C 5.07 g/m*3 1.1 C 0 km/h
969 03-01-2015 19:15:00 1 C 5.03 g/m*3 1 C 0 km/h
970 03-01-2015 19:20:00 1 C 5.03 g/m*3 1 C 0 km/h
971 03-01-2015 19:25:00 1 C 5.03 g/m*3 1 C 0 km/h
972 03-01-2015 19:30:00 0.9 C 5 g/m*3 0.9 C 0 km/h
973 03-01-2015 19:35:00 1 C 5.03 g/m*3 1 C 0 km/h
974 03-01-2015 19:40:00 1 C 5.03 g/m*3 1 C 0 km/h
975 03-01-2015 19:45:00 1 C 5.03 g/m*3 1 C 0 km/h
Sensor: Nr:Datum:Temp:Abs-Feuchte:Windchill:Wind:
Aussen-T/F 976 03-01-2015 19:50:00 1 C 5.03 g/m*3 1 C 0 km/h
977 03-01-2015 19:55:00 1 C 5.03 g/m*3 1 C 0 km/h
978 03-01-2015 20:00:00 1 C 5.03 g/m*3 1 C 0 km/h
979 03-01-2015 20:05:00 1 C 5.03 g/m*3 1 C 0 km/h
980 03-01-2015 20:10:00 0.9 C 5 g/m*3 0.9 C 0 km/h
981 03-01-2015 20:15:00 0.9 C 5 g/m*3 0.9 C 0 km/h
982 03-01-2015 20:20:00 0.9 C 5 g/m*3 0.9 C 0 km/h
983 03-01-2015 20:25:00 0.9 C 5 g/m*3 0.9 C 0 km/h
984 03-01-2015 20:30:00 0.9 C 5 g/m*3 0.9 C 0 km/h
985 03-01-2015 20:35:00 0.8 C 4.97 g/m*3 0.8 C 0 km/h
986 03-01-2015 20:40:00 0.9 C 5 g/m*3 0.9 C 0 km/h
987 03-01-2015 20:45:00 0.8 C 5.02 g/m*3 0.8 C 0 km/h
988 03-01-2015 20:50:00 0.9 C 5.05 g/m*3 0.9 C 0 km/h
989 03-01-2015 20:55:00 0.9 C 5.05 g/m*3 0.9 C 0 km/h
990 03-01-2015 21:00:00 0.9 C 5.05 g/m*3 0.9 C 1.6 km/h
991 03-01-2015 21:05:00 0.9 C 5.05 g/m*3 0.9 C 3.2 km/h
992 03-01-2015 21:10:00 0.9 C 5.05 g/m*3 -1.14 C 6.4 km/h
993 03-01-2015 21:15:00 0.9 C 5.05 g/m*3 0.9 C 3.2 km/h
994 03-01-2015 21:20:00 1 C 5.09 g/m*3 1 C 3.2 km/h
995 03-01-2015 21:25:00 1.1 C 5.12 g/m*3 1.1 C 0 km/h
996 03-01-2015 21:30:00 1.2 C 5.16 g/m*3 1.2 C 4.8 km/h
997 03-01-2015 21:35:00 1.3 C 5.19 g/m*3 -0.68 C 6.4 km/h
998 03-01-2015 21:40:00 1.3 C 5.19 g/m*3 1.3 C 4.8 km/h
999 03-01-2015 21:45:00 1.3 C 5.19 g/m*3 1.3 C 4.8 km/h
1000 03-01-2015 21:50:00 1.3 C 5.19 g/m*3 1.3 C 3.2 km/h
Sensor: Nr:Datum:Temp:Abs-Feuchte:Windchill:Wind:
Aussen-T/F 1001 03-01-2015 21:55:00 1.3 C 5.19 g/m*3 1.3 C 1.6 km/h
1002 03-01-2015 22:00:00 1.3 C 5.19 g/m*3 1.3 C 4.8 km/h
1003 03-01-2015 22:05:00 1.3 C 5.19 g/m*3 1.3 C 1.6 km/h
1004 03-01-2015 22:10:00 1.3 C 5.19 g/m*3 1.3 C 4.8 km/h
1005 03-01-2015 22:15:00 1.4 C 5.23 g/m*3 1.4 C 4.8 km/h
1006 03-01-2015 22:20:00 1.5 C 5.26 g/m*3 1.5 C 3.2 km/h
1007 03-01-2015 22:25:00 1.4 C 5.23 g/m*3 1.4 C 4.8 km/h
1008 03-01-2015 22:30:00 1.4 C 5.23 g/m*3 1.4 C 3.2 km/h
1009 03-01-2015 22:35:00 1.6 C 5.3 g/m*3 1.6 C 4.8 km/h
1010 03-01-2015 22:40:00 1.6 C 5.3 g/m*3 1.6 C 1.6 km/h
1011 03-01-2015 22:45:00 1.7 C 5.34 g/m*3 1.7 C 4.8 km/h
1012 03-01-2015 22:50:00 1.8 C 5.37 g/m*3 -0.65 C 8.1 km/h
1013 03-01-2015 22:55:00 1.8 C 5.37 g/m*3 -0.65 C 8.1 km/h
1014 03-01-2015 23:00:00 1.9 C 5.41 g/m*3 0.01 C 6.4 km/h
1015 03-01-2015 23:05:00 1.9 C 5.41 g/m*3 -0.54 C 8.1 km/h
1016 03-01-2015 23:10:00 2 C 5.39 g/m*3 2 C 4.8 km/h
1017 03-01-2015 23:15:00 2 C 5.39 g/m*3 2 C 3.2 km/h
1018 03-01-2015 23:20:00 2 C 5.39 g/m*3 2 C 0 km/h
1019 03-01-2015 23:25:00 1.9 C 5.35 g/m*3 1.9 C 4.8 km/h
1020 03-01-2015 23:30:00 1.9 C 5.35 g/m*3 1.9 C 0 km/h
1021 03-01-2015 23:35:00 2 C 5.39 g/m*3 0.13 C 6.4 km/h
1022 03-01-2015 23:40:00 2 C 5.39 g/m*3 2 C 1.6 km/h
1023 03-01-2015 23:45:00 2 C 5.39 g/m*3 2 C 4.8 km/h
1024 03-01-2015 23:50:00 2 C 5.39 g/m*3 0.13 C 6.4 km/h
1025 03-01-2015 23:55:00 2 C 5.39 g/m*3 2 C 3.2 km/h
Sensor: Nr:Datum:Temp:Abs-Feuchte:Windchill:Wind:
Aussen-T/F 1026 04-01-2015 00:00:00 2 C 5.39 g/m*3 2 C 1.6 km/h
1027 04-01-2015 00:05:00 2 C 5.39 g/m*3 2 C 3.2 km/h
1028 04-01-2015 00:10:00 2 C 5.39 g/m*3 2 C 3.2 km/h
1029 04-01-2015 00:15:00 2.1 C 5.43 g/m*3 0.24 C 6.4 km/h
1030 04-01-2015 00:20:00 2.2 C 5.46 g/m*3 2.2 C 1.6 km/h
1031 04-01-2015 00:25:00 2.1 C 5.43 g/m*3 2.1 C 4.8 km/h
1032 04-01-2015 00:30:00 2.1 C 5.43 g/m*3 2.1 C 4.8 km/h
1033 04-01-2015 00:35:00 2 C 5.39 g/m*3 2 C 3.2 km/h
1034 04-01-2015 00:40:00 2 C 5.39 g/m*3 0.13 C 6.4 km/h
1035 04-01-2015 00:45:00 2.1 C 5.43 g/m*3 0.24 C 6.4 km/h
1036 04-01-2015 00:50:00 2.1 C 5.43 g/m*3 2.1 C 3.2 km/h
1037 04-01-2015 00:55:00 2.1 C 5.43 g/m*3 2.1 C 4.8 km/h
1038 04-01-2015 01:00:00 2.2 C 5.52 g/m*3 2.2 C 3.2 km/h
1039 04-01-2015 01:05:00 2.2 C 5.52 g/m*3 2.2 C 1.6 km/h
1040 04-01-2015 01:10:00 2.2 C 5.52 g/m*3 2.2 C 1.6 km/h
1041 04-01-2015 01:15:00 2.2 C 5.52 g/m*3 2.2 C 0 km/h
1042 04-01-2015 01:20:00 2.2 C 5.52 g/m*3 2.2 C 1.6 km/h
1043 04-01-2015 01:25:00 2.2 C 5.52 g/m*3 2.2 C 4.8 km/h
1044 04-01-2015 01:30:00 2.2 C 5.52 g/m*3 2.2 C 3.2 km/h
1045 04-01-2015 01:35:00 2.3 C 5.56 g/m*3 2.3 C 4.8 km/h
1046 04-01-2015 01:40:00 2.4 C 5.6 g/m*3 2.4 C 3.2 km/h
1047 04-01-2015 01:45:00 2.7 C 5.71 g/m*3 2.7 C 4.8 km/h
1048 04-01-2015 01:50:00 2.8 C 5.75 g/m*3 0.1 C 9.7 km/h
1049 04-01-2015 01:55:00 2.9 C 5.79 g/m*3 2.9 C 4.8 km/h
1050 04-01-2015 02:00:00 3.1 C 5.87 g/m*3 0.46 C 9.7 km/h
Sensor: Nr:Datum:Temp:Abs-Feuchte:Windchill:Wind:
Aussen-T/F 1051 04-01-2015 02:05:00 3.3 C 5.95 g/m*3 3.3 C 4.8 km/h
1052 04-01-2015 02:10:00 3.4 C 5.99 g/m*3 3.4 C 4.8 km/h
1053 04-01-2015 02:15:00 3.4 C 5.92 g/m*3 3.4 C 4.8 km/h
1054 04-01-2015 02:20:00 3.6 C 6 g/m*3 1.46 C 8.1 km/h
1055 04-01-2015 02:25:00 3.7 C 6.04 g/m*3 1.58 C 8.1 km/h
1056 04-01-2015 02:30:00 3.7 C 6.04 g/m*3 3.7 C 1.6 km/h
1057 04-01-2015 02:35:00 3.7 C 5.98 g/m*3 3.7 C 3.2 km/h
1058 04-01-2015 02:40:00 3.8 C 6.02 g/m*3 0.63 C 12.9 km/h
1059 04-01-2015 02:45:00 3.9 C 6.06 g/m*3 1.06 C 11.3 km/h
1060 04-01-2015 02:50:00 4.1 C 6.08 g/m*3 2.55 C 6.4 km/h
1061 04-01-2015 02:55:00 4.1 C 6.08 g/m*3 2.55 C 6.4 km/h
1062 04-01-2015 03:00:00 4.1 C 6.08 g/m*3 2.55 C 6.4 km/h
1063 04-01-2015 03:05:00 4.1 C 6.08 g/m*3 0.72 C 14.5 km/h
1064 04-01-2015 03:10:00 4.1 C 6.02 g/m*3 2.05 C 8.1 km/h
1065 04-01-2015 03:15:00 4.1 C 6.02 g/m*3 4.1 C 4.8 km/h
1066 04-01-2015 03:20:00 4.1 C 6.02 g/m*3 2.55 C 6.4 km/h
1067 04-01-2015 03:25:00 4.1 C 5.95 g/m*3 2.05 C 8.1 km/h
1068 04-01-2015 03:30:00 4.1 C 5.95 g/m*3 0.72 C 14.5 km/h
1069 04-01-2015 03:35:00 4.1 C 5.95 g/m*3 1.65 C 9.7 km/h
1070 04-01-2015 03:40:00 4.1 C 5.95 g/m*3 2.05 C 8.1 km/h
1071 04-01-2015 03:45:00 4 C 5.91 g/m*3 1.93 C 8.1 km/h
1072 04-01-2015 03:50:00 4 C 5.91 g/m*3 1.93 C 8.1 km/h
1073 04-01-2015 03:55:00 4 C 5.91 g/m*3 1.53 C 9.7 km/h
1074 04-01-2015 04:00:00 3.9 C 5.87 g/m*3 1.82 C 8.1 km/h
1075 04-01-2015 04:05:00 3.9 C 5.87 g/m*3 3.9 C 4.8 km/h
Sensor: Nr:Datum:Temp:Abs-Feuchte:Windchill:Wind:
Aussen-T/F 1076 04-01-2015 04:10:00 3.9 C 5.87 g/m*3 1.82 C 8.1 km/h
1077 04-01-2015 04:50:00 2.9 C 5.55 g/m*3 2.9 C 4.8 km/h
1078 04-01-2015 04:55:00 2.8 C 5.51 g/m*3 2.8 C 4.8 km/h
1079 04-01-2015 05:00:00 2.6 C 5.44 g/m*3 2.6 C 0 km/h
1080 04-01-2015 05:05:00 2.4 C 5.37 g/m*3 2.4 C 4.8 km/h
1081 04-01-2015 05:10:00 2.2 C 5.29 g/m*3 2.2 C 4.8 km/h
1082 04-01-2015 05:15:00 2.1 C 5.31 g/m*3 -0.3 C 8.1 km/h
1083 04-01-2015 05:20:00 2.1 C 5.31 g/m*3 2.1 C 3.2 km/h
1084 04-01-2015 05:25:00 2.1 C 5.37 g/m*3 2.1 C 3.2 km/h
1085 04-01-2015 05:30:00 2 C 5.33 g/m*3 2 C 4.8 km/h
1086 04-01-2015 05:35:00 2 C 5.33 g/m*3 2 C 3.2 km/h
1087 04-01-2015 05:40:00 1.9 C 5.3 g/m*3 1.9 C 4.8 km/h
1088 04-01-2015 05:45:00 1.8 C 5.26 g/m*3 1.8 C 4.8 km/h
1089 04-01-2015 05:50:00 1.7 C 5.23 g/m*3 1.7 C 3.2 km/h
1090 04-01-2015 05:55:00 1.7 C 5.23 g/m*3 -0.22 C 6.4 km/h
1091 04-01-2015 06:00:00 1.6 C 5.19 g/m*3 1.6 C 4.8 km/h
1092 04-01-2015 06:05:00 1.6 C 5.25 g/m*3 1.6 C 4.8 km/h
1093 04-01-2015 06:10:00 1.6 C 5.25 g/m*3 1.6 C 4.8 km/h
1094 04-01-2015 06:15:00 1.5 C 5.16 g/m*3 1.5 C 4.8 km/h
1095 04-01-2015 06:20:00 1.4 C 5.12 g/m*3 1.4 C 1.6 km/h
1096 04-01-2015 06:25:00 1.4 C 5.17 g/m*3 1.4 C 4.8 km/h
1097 04-01-2015 06:30:00 1.3 C 5.14 g/m*3 1.3 C 0 km/h
1098 04-01-2015 06:35:00 1.2 C 5.05 g/m*3 1.2 C 1.6 km/h
1099 04-01-2015 06:40:00 1.2 C 5.05 g/m*3 1.2 C 4.8 km/h
1100 04-01-2015 06:45:00 1.1 C 5.07 g/m*3 -0.91 C 6.4 km/h
Sensor: Nr:Datum:Temp:Abs-Feuchte:Windchill:Wind:
Aussen-T/F 1101 04-01-2015 06:50:00 1.1 C 5.07 g/m*3 1.1 C 1.6 km/h
1102 04-01-2015 06:55:00 1.1 C 5.07 g/m*3 1.1 C 1.6 km/h
1103 04-01-2015 07:00:00 1.1 C 5.07 g/m*3 1.1 C 4.8 km/h
1104 04-01-2015 07:05:00 1.1 C 5.07 g/m*3 1.1 C 4.8 km/h
1105 04-01-2015 07:10:00 1.1 C 5.07 g/m*3 1.1 C 3.2 km/h
1106 04-01-2015 07:15:00 1 C 5.03 g/m*3 1 C 3.2 km/h
1107 04-01-2015 07:20:00 0.9 C 5 g/m*3 0.9 C 1.6 km/h
1108 04-01-2015 07:25:00 0.9 C 5 g/m*3 0.9 C 3.2 km/h
1109 04-01-2015 07:30:00 0.9 C 5 g/m*3 0.9 C 3.2 km/h
1110 04-01-2015 07:35:00 1 C 5.03 g/m*3 1 C 3.2 km/h
1111 04-01-2015 07:40:00 1.1 C 5.07 g/m*3 1.1 C 3.2 km/h
1112 04-01-2015 07:45:00 1.2 C 5.1 g/m*3 1.2 C 1.6 km/h
1113 04-01-2015 07:50:00 1.1 C 5.07 g/m*3 1.1 C 1.6 km/h
1114 04-01-2015 07:55:00 1.1 C 5.07 g/m*3 1.1 C 4.8 km/h
1115 04-01-2015 08:00:00 1.1 C 5.07 g/m*3 1.1 C 1.6 km/h
1116 04-01-2015 08:05:00 1.2 C 5.1 g/m*3 1.2 C 1.6 km/h
1117 04-01-2015 08:10:00 1.2 C 5.1 g/m*3 1.2 C 3.2 km/h
1118 04-01-2015 08:15:00 1.2 C 5.1 g/m*3 1.2 C 1.6 km/h
1119 04-01-2015 08:20:00 1.2 C 5.1 g/m*3 1.2 C 3.2 km/h
1120 04-01-2015 18:15:00 4.1 C 5.89 g/m*3 4.1 C 1.6 km/h
1121 04-01-2015 18:20:00 4.1 C 5.89 g/m*3 4.1 C 1.6 km/h
1122 04-01-2015 18:25:00 4 C 5.85 g/m*3 4 C 3.2 km/h
1123 04-01-2015 18:30:00 4 C 5.85 g/m*3 4 C 1.6 km/h
1124 04-01-2015 18:35:00 3.9 C 5.75 g/m*3 3.9 C 4.8 km/h
1125 04-01-2015 18:40:00 4 C 5.79 g/m*3 4 C 4.8 km/h
Sensor: Nr:Datum:Temp:Abs-Feuchte:Windchill:Wind:
Aussen-T/F 1126 04-01-2015 18:45:00 4.1 C 5.76 g/m*3 4.1 C 4.8 km/h
1127 04-01-2015 18:50:00 4.2 C 5.73 g/m*3 2.67 C 6.4 km/h
1128 04-01-2015 18:55:00 4.3 C 5.71 g/m*3 1.89 C 9.7 km/h
1129 04-01-2015 19:00:00 4.4 C 5.68 g/m*3 4.4 C 3.2 km/h
1130 04-01-2015 19:05:00 4.4 C 5.68 g/m*3 4.4 C 3.2 km/h
1131 04-01-2015 19:10:00 4.4 C 5.68 g/m*3 2.9 C 6.4 km/h
1132 04-01-2015 19:15:00 4.3 C 5.64 g/m*3 2.78 C 6.4 km/h
1133 04-01-2015 19:20:00 4.3 C 5.64 g/m*3 4.3 C 1.6 km/h
1134 04-01-2015 19:25:00 4.2 C 5.67 g/m*3 4.2 C 1.6 km/h
1135 04-01-2015 19:30:00 4.2 C 5.67 g/m*3 4.2 C 4.8 km/h
1136 04-01-2015 19:35:00 4.1 C 5.63 g/m*3 2.05 C 8.1 km/h
1137 04-01-2015 19:40:00 4.1 C 5.63 g/m*3 4.1 C 3.2 km/h
1138 04-01-2015 19:45:00 4.1 C 5.63 g/m*3 4.1 C 1.6 km/h
1139 04-01-2015 19:50:00 4 C 5.59 g/m*3 4 C 1.6 km/h
1140 04-01-2015 19:55:00 3.9 C 5.62 g/m*3 2.32 C 6.4 km/h
1141 04-01-2015 20:00:00 3.9 C 5.62 g/m*3 3.9 C 4.8 km/h
1142 04-01-2015 20:05:00 3.9 C 5.62 g/m*3 3.9 C 4.8 km/h
1143 04-01-2015 20:10:00 3.8 C 5.58 g/m*3 3.8 C 4.8 km/h
1144 04-01-2015 20:15:00 3.8 C 5.58 g/m*3 3.8 C 4.8 km/h
1145 04-01-2015 20:20:00 3.7 C 5.61 g/m*3 3.7 C 3.2 km/h
1146 04-01-2015 20:25:00 3.7 C 5.61 g/m*3 3.7 C 3.2 km/h
1147 04-01-2015 20:30:00 3.6 C 5.57 g/m*3 3.6 C 4.8 km/h
1148 04-01-2015 20:35:00 3.6 C 5.63 g/m*3 3.6 C 1.6 km/h
1149 04-01-2015 20:40:00 3.6 C 5.63 g/m*3 3.6 C 3.2 km/h
1150 04-01-2015 20:45:00 3.6 C 5.63 g/m*3 3.6 C 3.2 km/h
Sensor: Nr:Datum:Temp:Abs-Feuchte:Windchill:Wind:
Aussen-T/F 1151 04-01-2015 20:50:00 3.6 C 5.63 g/m*3 3.6 C 4.8 km/h
1152 04-01-2015 20:55:00 3.6 C 5.63 g/m*3 3.6 C 3.2 km/h
1153 04-01-2015 21:00:00 3.7 C 5.67 g/m*3 3.7 C 1.6 km/h
1154 04-01-2015 21:05:00 3.7 C 5.67 g/m*3 3.7 C 3.2 km/h
1155 04-01-2015 21:10:00 3.7 C 5.61 g/m*3 3.7 C 3.2 km/h
1156 04-01-2015 21:15:00 3.7 C 5.61 g/m*3 3.7 C 3.2 km/h
1157 04-01-2015 21:20:00 3.8 C 5.65 g/m*3 3.8 C 3.2 km/h
1158 04-01-2015 21:25:00 3.8 C 5.65 g/m*3 3.8 C 3.2 km/h
1159 04-01-2015 21:30:00 3.8 C 5.65 g/m*3 2.21 C 6.4 km/h
1160 04-01-2015 21:35:00 3.8 C 5.65 g/m*3 3.8 C 4.8 km/h
1161 04-01-2015 21:40:00 3.9 C 5.62 g/m*3 2.32 C 6.4 km/h
1162 04-01-2015 21:45:00 3.9 C 5.62 g/m*3 3.9 C 3.2 km/h
1163 04-01-2015 21:50:00 4 C 5.66 g/m*3 4 C 4.8 km/h
1164 04-01-2015 21:55:00 4 C 5.66 g/m*3 4 C 4.8 km/h
1165 04-01-2015 22:00:00 3.9 C 5.62 g/m*3 3.9 C 4.8 km/h
1166 04-01-2015 22:05:00 3.7 C 5.61 g/m*3 3.7 C 1.6 km/h
1167 04-01-2015 22:10:00 3.6 C 5.57 g/m*3 3.6 C 3.2 km/h
1168 04-01-2015 22:15:00 3.5 C 5.6 g/m*3 3.5 C 3.2 km/h
1169 04-01-2015 22:20:00 3.4 C 5.56 g/m*3 3.4 C 1.6 km/h
1170 04-01-2015 22:25:00 3.3 C 5.58 g/m*3 3.3 C 1.6 km/h
1171 04-01-2015 22:30:00 3.2 C 5.54 g/m*3 3.2 C 0 km/h
1172 04-01-2015 22:35:00 3.2 C 5.6 g/m*3 3.2 C 1.6 km/h
1173 04-01-2015 22:40:00 3.2 C 5.6 g/m*3 3.2 C 1.6 km/h
1174 04-01-2015 22:45:00 3.2 C 5.6 g/m*3 3.2 C 0 km/h
1175 04-01-2015 22:50:00 3.2 C 5.6 g/m*3 3.2 C 0 km/h
Sensor: Nr:Datum:Temp:Abs-Feuchte:Windchill:Wind:
Aussen-T/F 1176 04-01-2015 22:55:00 3.2 C 5.54 g/m*3 3.2 C 3.2 km/h
1177 04-01-2015 23:00:00 3.2 C 5.54 g/m*3 3.2 C 1.6 km/h
1178 04-01-2015 23:05:00 3.2 C 5.54 g/m*3 3.2 C 3.2 km/h
1179 04-01-2015 23:10:00 3.3 C 5.58 g/m*3 3.3 C 1.6 km/h
1180 04-01-2015 23:15:00 3.3 C 5.58 g/m*3 3.3 C 1.6 km/h
1181 04-01-2015 23:20:00 3.3 C 5.58 g/m*3 3.3 C 1.6 km/h
1182 04-01-2015 23:25:00 3.2 C 5.54 g/m*3 3.2 C 3.2 km/h
1183 04-01-2015 23:30:00 3.2 C 5.48 g/m*3 1.51 C 6.4 km/h
1184 04-01-2015 23:35:00 3.2 C 5.54 g/m*3 3.2 C 1.6 km/h
1185 04-01-2015 23:40:00 3.2 C 5.48 g/m*3 3.2 C 4.8 km/h
1186 04-01-2015 23:45:00 3.3 C 5.52 g/m*3 3.3 C 3.2 km/h
1187 04-01-2015 23:50:00 3.3 C 5.46 g/m*3 3.3 C 4.8 km/h
1188 04-01-2015 23:55:00 3.4 C 5.44 g/m*3 3.4 C 3.2 km/h
1189 05-01-2015 00:00:00 3.5 C 5.47 g/m*3 3.5 C 1.6 km/h
1190 05-01-2015 00:05:00 3.4 C 5.5 g/m*3 3.4 C 1.6 km/h
1191 05-01-2015 00:10:00 3.3 C 5.46 g/m*3 3.3 C 3.2 km/h
1192 05-01-2015 00:15:00 3.2 C 5.42 g/m*3 3.2 C 4.8 km/h
1193 05-01-2015 00:20:00 3.2 C 5.42 g/m*3 3.2 C 3.2 km/h
1194 05-01-2015 00:25:00 3.1 C 5.45 g/m*3 3.1 C 3.2 km/h
1195 05-01-2015 00:30:00 3 C 5.41 g/m*3 3 C 4.8 km/h
1196 05-01-2015 00:35:00 2.9 C 5.37 g/m*3 2.9 C 3.2 km/h
1197 05-01-2015 00:40:00 2.8 C 5.34 g/m*3 2.8 C 3.2 km/h
1198 05-01-2015 00:45:00 2.8 C 5.34 g/m*3 2.8 C 3.2 km/h
1199 05-01-2015 00:50:00 2.8 C 5.34 g/m*3 2.8 C 3.2 km/h
1200 05-01-2015 00:55:00 2.8 C 5.28 g/m*3 2.8 C 3.2 km/h
Sensor: Nr:Datum:Temp:Abs-Feuchte:Windchill:Wind:
Aussen-T/F 1201 05-01-2015 01:00:00 2.9 C 5.32 g/m*3 2.9 C 3.2 km/h
1202 05-01-2015 01:05:00 2.9 C 5.26 g/m*3 0.64 C 8.1 km/h
1203 05-01-2015 01:10:00 2.9 C 5.26 g/m*3 0.64 C 8.1 km/h
1204 05-01-2015 01:15:00 2.9 C 5.26 g/m*3 2.9 C 1.6 km/h
1205 05-01-2015 01:20:00 2.8 C 5.22 g/m*3 2.8 C 4.8 km/h
1206 05-01-2015 01:25:00 2.7 C 5.24 g/m*3 2.7 C 3.2 km/h
1207 05-01-2015 01:30:00 2.6 C 5.21 g/m*3 2.6 C 1.6 km/h
1208 05-01-2015 01:35:00 2.6 C 5.21 g/m*3 2.6 C 1.6 km/h
1209 05-01-2015 01:40:00 2.5 C 5.23 g/m*3 2.5 C 1.6 km/h
1210 05-01-2015 01:45:00 2.4 C 5.2 g/m*3 2.4 C 3.2 km/h
1211 05-01-2015 01:50:00 2.3 C 5.16 g/m*3 2.3 C 3.2 km/h
1212 05-01-2015 01:55:00 2.2 C 5.13 g/m*3 2.2 C 1.6 km/h
1213 05-01-2015 02:00:00 2.1 C 5.15 g/m*3 2.1 C 1.6 km/h
1214 05-01-2015 02:05:00 1.9 C 5.08 g/m*3 1.9 C 0 km/h
1215 05-01-2015 02:10:00 1.8 C 5.04 g/m*3 1.8 C 0 km/h
1216 05-01-2015 02:15:00 1.6 C 4.97 g/m*3 1.6 C 1.6 km/h
1217 05-01-2015 02:20:00 1.4 C 4.91 g/m*3 1.4 C 0 km/h
1218 05-01-2015 02:25:00 1.3 C 4.93 g/m*3 1.3 C 0 km/h
1219 05-01-2015 02:30:00 1.2 C 4.89 g/m*3 1.2 C 1.6 km/h
1220 05-01-2015 02:35:00 1.2 C 4.89 g/m*3 1.2 C 1.6 km/h
1221 05-01-2015 02:40:00 1.1 C 4.91 g/m*3 1.1 C 3.2 km/h
1222 05-01-2015 02:45:00 1.1 C 4.91 g/m*3 1.1 C 1.6 km/h
1223 05-01-2015 02:50:00 1.1 C 4.91 g/m*3 1.1 C 1.6 km/h
1224 05-01-2015 02:55:00 1.1 C 4.91 g/m*3 1.1 C 1.6 km/h
1225 05-01-2015 03:00:00 1 C 4.88 g/m*3 1 C 1.6 km/h
Sensor: Nr:Datum:Temp:Abs-Feuchte:Windchill:Wind:
Aussen-T/F 1226 05-01-2015 03:05:00 1 C 4.88 g/m*3 1 C 3.2 km/h
1227 05-01-2015 03:10:00 1 C 4.88 g/m*3 1 C 3.2 km/h
1228 05-01-2015 03:15:00 1 C 4.88 g/m*3 1 C 3.2 km/h
1229 05-01-2015 03:20:00 1 C 4.88 g/m*3 1 C 4.8 km/h
1230 05-01-2015 03:25:00 0.9 C 4.85 g/m*3 0.9 C 1.6 km/h
1231 05-01-2015 03:30:00 1 C 4.88 g/m*3 1 C 4.8 km/h
1232 05-01-2015 03:35:00 1 C 4.88 g/m*3 1 C 0 km/h
1233 05-01-2015 03:40:00 0.9 C 4.85 g/m*3 0.9 C 0 km/h
1234 05-01-2015 03:45:00 0.8 C 4.81 g/m*3 0.8 C 1.6 km/h
1235 05-01-2015 03:50:00 0.8 C 4.81 g/m*3 0.8 C 1.6 km/h
1236 05-01-2015 03:55:00 0.7 C 4.78 g/m*3 0.7 C 0 km/h
1237 05-01-2015 04:00:00 0.7 C 4.78 g/m*3 0.7 C 0 km/h
1238 05-01-2015 04:05:00 0.5 C 4.71 g/m*3 0.5 C 0 km/h
1239 05-01-2015 04:10:00 0.4 C 4.68 g/m*3 0.4 C 3.2 km/h
1240 05-01-2015 04:15:00 0.3 C 4.65 g/m*3 0.3 C 3.2 km/h
1241 05-01-2015 04:20:00 0.2 C 4.62 g/m*3 0.2 C 1.6 km/h
1242 05-01-2015 04:25:00 0.1 C 4.59 g/m*3 0.1 C 1.6 km/h
1243 05-01-2015 04:30:00 0.1 C 4.59 g/m*3 0.1 C 0 km/h
1244 05-01-2015 04:35:00 -0.1 C 4.52 g/m*3 -0.1 C 0 km/h
1245 05-01-2015 04:40:00 -0.1 C 4.57 g/m*3 -0.1 C 0 km/h
1246 05-01-2015 04:45:00 -0.2 C 4.54 g/m*3 -0.2 C 0 km/h
1247 05-01-2015 04:50:00 -0.3 C 4.51 g/m*3 -0.3 C 0 km/h
1248 05-01-2015 04:55:00 -0.3 C 4.51 g/m*3 -0.3 C 0 km/h
1249 05-01-2015 05:00:00 -0.4 C 4.48 g/m*3 -0.4 C 1.6 km/h
1250 05-01-2015 05:05:00 -0.4 C 4.48 g/m*3 -0.4 C 1.6 km/h
Sensor: Nr:Datum:Temp:Abs-Feuchte:Windchill:Wind:
Aussen-T/F 1251 05-01-2015 05:10:00 -0.4 C 4.48 g/m*3 -0.4 C 0 km/h
1252 05-01-2015 05:15:00 -0.4 C 4.48 g/m*3 -0.4 C 0 km/h
1253 05-01-2015 05:20:00 -0.4 C 4.48 g/m*3 -0.4 C 0 km/h
1254 05-01-2015 05:25:00 -0.5 C 4.45 g/m*3 -0.5 C 0 km/h
1255 05-01-2015 05:30:00 -0.6 C 4.42 g/m*3 -0.6 C 1.6 km/h
1256 05-01-2015 05:35:00 -0.6 C 4.46 g/m*3 -0.6 C 0 km/h
1257 05-01-2015 05:40:00 -0.6 C 4.46 g/m*3 -0.6 C 1.6 km/h
1258 05-01-2015 05:45:00 -0.5 C 4.49 g/m*3 -0.5 C 3.2 km/h
1259 05-01-2015 05:50:00 -0.5 C 4.49 g/m*3 -0.5 C 1.6 km/h
1260 05-01-2015 05:55:00 -0.5 C 4.49 g/m*3 -0.5 C 0 km/h
1261 05-01-2015 06:00:00 -0.5 C 4.49 g/m*3 -0.5 C 1.6 km/h
1262 05-01-2015 06:05:00 -0.6 C 4.46 g/m*3 -0.6 C 0 km/h
1263 05-01-2015 06:10:00 -0.6 C 4.46 g/m*3 -0.6 C 0 km/h
1264 05-01-2015 06:15:00 -0.6 C 4.46 g/m*3 -0.6 C 0 km/h
1265 05-01-2015 06:20:00 -0.6 C 4.46 g/m*3 -0.6 C 0 km/h
1266 05-01-2015 06:25:00 -0.9 C 4.37 g/m*3 -0.9 C 0 km/h
1267 05-01-2015 06:30:00 -1 C 4.34 g/m*3 -1 C 1.6 km/h
1268 05-01-2015 06:35:00 -1 C 4.34 g/m*3 -1 C 0 km/h
1269 05-01-2015 06:40:00 -1 C 4.34 g/m*3 -1 C 0 km/h
1270 05-01-2015 06:45:00 -0.9 C 4.37 g/m*3 -0.9 C 0 km/h
1271 05-01-2015 06:50:00 -0.9 C 4.37 g/m*3 -0.9 C 1.6 km/h
1272 05-01-2015 06:55:00 -0.9 C 4.37 g/m*3 -0.9 C 1.6 km/h
1273 05-01-2015 07:00:00 -0.9 C 4.37 g/m*3 -0.9 C 4.8 km/h
1274 05-01-2015 07:05:00 -0.9 C 4.37 g/m*3 -0.9 C 1.6 km/h
1275 05-01-2015 07:10:00 -0.8 C 4.4 g/m*3 -0.8 C 1.6 km/h
Sensor: Nr:Datum:Temp:Abs-Feuchte:Windchill:Wind:
Aussen-T/F 1276 05-01-2015 07:15:00 -0.9 C 4.37 g/m*3 -0.9 C 0 km/h
1277 05-01-2015 07:20:00 -0.9 C 4.37 g/m*3 -0.9 C 0 km/h
1278 05-01-2015 07:25:00 -1 C 4.34 g/m*3 -1 C 1.6 km/h
1279 05-01-2015 07:30:00 -1 C 4.34 g/m*3 -1 C 0 km/h
1280 05-01-2015 07:35:00 -1 C 4.38 g/m*3 -1 C 1.6 km/h
1281 05-01-2015 07:40:00 -0.9 C 4.42 g/m*3 -0.9 C 4.8 km/h
1282 05-01-2015 07:45:00 -0.8 C 4.45 g/m*3 -3.11 C 6.4 km/h
1283 05-01-2015 07:50:00 -0.8 C 4.45 g/m*3 -3.11 C 6.4 km/h
1284 05-01-2015 07:55:00 -0.8 C 4.45 g/m*3 -3.11 C 6.4 km/h
1285 05-01-2015 08:00:00 -0.8 C 4.45 g/m*3 -3.71 C 8.1 km/h
1286 05-01-2015 08:05:00 -0.8 C 4.45 g/m*3 -0.8 C 3.2 km/h
1287 05-01-2015 08:10:00 -0.7 C 4.48 g/m*3 -3.59 C 8.1 km/h
1288 05-01-2015 08:15:00 -0.7 C 4.48 g/m*3 -2.99 C 6.4 km/h
1289 05-01-2015 08:20:00 -0.7 C 4.48 g/m*3 -0.7 C 4.8 km/h
1290 05-01-2015 08:25:00 -0.7 C 4.48 g/m*3 -0.7 C 4.8 km/h
1291 05-01-2015 08:30:00 -0.7 C 4.48 g/m*3 -0.7 C 4.8 km/h
1292 05-01-2015 08:35:00 -0.7 C 4.48 g/m*3 -4.07 C 9.7 km/h
1293 05-01-2015 08:40:00 -0.8 C 4.45 g/m*3 -3.71 C 8.1 km/h
1294 05-01-2015 08:45:00 -0.8 C 4.45 g/m*3 -0.8 C 4.8 km/h
1295 05-01-2015 08:50:00 -0.8 C 4.45 g/m*3 -3.71 C 8.1 km/h
1296 05-01-2015 08:55:00 -0.8 C 4.45 g/m*3 -0.8 C 4.8 km/h
1297 05-01-2015 09:00:00 -0.8 C 4.45 g/m*3 -0.8 C 4.8 km/h
1298 05-01-2015 09:05:00 -0.8 C 4.45 g/m*3 -3.11 C 6.4 km/h
1299 05-01-2015 09:10:00 -0.8 C 4.45 g/m*3 -3.11 C 6.4 km/h
1300 05-01-2015 09:15:00 -0.8 C 4.45 g/m*3 -3.11 C 6.4 km/h
Sensor: Nr:Datum:Temp:Abs-Feuchte:Windchill:Wind:
Aussen-T/F 1301 05-01-2015 09:20:00 -0.8 C 4.45 g/m*3 -0.8 C 4.8 km/h
1302 05-01-2015 09:25:00 -0.8 C 4.45 g/m*3 -0.8 C 4.8 km/h
1303 05-01-2015 09:30:00 -0.8 C 4.45 g/m*3 -0.8 C 3.2 km/h
1304 05-01-2015 09:35:00 -0.8 C 4.45 g/m*3 -3.11 C 6.4 km/h
1305 05-01-2015 09:40:00 -0.6 C 4.51 g/m*3 -3.48 C 8.1 km/h
1306 05-01-2015 09:45:00 -0.6 C 4.51 g/m*3 -3.95 C 9.7 km/h
1307 05-01-2015 09:50:00 -0.6 C 4.51 g/m*3 -0.6 C 4.8 km/h
1308 05-01-2015 09:55:00 -0.6 C 4.51 g/m*3 -0.6 C 4.8 km/h
1309 05-01-2015 10:00:00 -0.6 C 4.51 g/m*3 -0.6 C 3.2 km/h
1310 05-01-2015 10:05:00 -0.6 C 4.51 g/m*3 -0.6 C 3.2 km/h
1311 05-01-2015 10:10:00 -0.6 C 4.51 g/m*3 -0.6 C 3.2 km/h
1312 05-01-2015 10:15:00 -0.6 C 4.51 g/m*3 -0.6 C 1.6 km/h
1313 05-01-2015 10:20:00 -0.6 C 4.51 g/m*3 -2.88 C 6.4 km/h
1314 05-01-2015 10:25:00 -0.5 C 4.54 g/m*3 -0.5 C 1.6 km/h
1315 05-01-2015 10:30:00 -0.5 C 4.54 g/m*3 -0.5 C 4.8 km/h
1316 05-01-2015 10:35:00 -0.5 C 4.54 g/m*3 -2.76 C 6.4 km/h
1317 05-01-2015 10:40:00 -0.3 C 4.6 g/m*3 -3.12 C 8.1 km/h
1318 05-01-2015 10:45:00 -0.2 C 4.64 g/m*3 -0.2 C 4.8 km/h
1319 05-01-2015 10:50:00 -0.2 C 4.64 g/m*3 -0.2 C 3.2 km/h
1320 05-01-2015 10:55:00 -0.2 C 4.64 g/m*3 -0.2 C 1.6 km/h
1321 05-01-2015 11:00:00 -0.2 C 4.64 g/m*3 -0.2 C 1.6 km/h
1322 05-01-2015 11:05:00 -0.2 C 4.64 g/m*3 -0.2 C 3.2 km/h
1323 05-01-2015 11:10:00 -0.2 C 4.64 g/m*3 -0.2 C 1.6 km/h
1324 05-01-2015 11:50:00 0.2 C 4.77 g/m*3 0.2 C 3.2 km/h
1325 05-01-2015 11:55:00 0.2 C 4.77 g/m*3 0.2 C 1.6 km/h
Sensor: Nr:Datum:Temp:Abs-Feuchte:Windchill:Wind:
Aussen-T/F 1326 05-01-2015 12:00:00 0.2 C 4.77 g/m*3 0.2 C 1.6 km/h
1327 05-01-2015 12:05:00 0.2 C 4.77 g/m*3 0.2 C 1.6 km/h
1328 05-01-2015 12:10:00 0.2 C 4.77 g/m*3 0.2 C 3.2 km/h
1329 05-01-2015 12:15:00 0.2 C 4.77 g/m*3 0.2 C 1.6 km/h
1330 05-01-2015 12:20:00 0.2 C 4.77 g/m*3 0.2 C 1.6 km/h
1331 05-01-2015 12:25:00 0.2 C 4.77 g/m*3 0.2 C 1.6 km/h
1332 05-01-2015 13:50:00 1.1 C 5.23 g/m*3 1.1 C 3.2 km/h
1333 05-01-2015 13:55:00 1.1 C 4.96 g/m*3 1.1 C 4.8 km/h
1334 05-01-2015 14:00:00 1.1 C 4.96 g/m*3 1.1 C 3.2 km/h
1335 05-01-2015 18:20:00 -0.8 C 4.4 g/m*3 -0.8 C 0 km/h
1336 05-01-2015 18:25:00 -0.8 C 4.4 g/m*3 -0.8 C 0 km/h
1337 05-01-2015 18:30:00 -0.8 C 4.4 g/m*3 -0.8 C 0 km/h
1338 05-01-2015 18:35:00 -0.8 C 4.4 g/m*3 -0.8 C 1.6 km/h
1339 05-01-2015 18:40:00 -0.8 C 4.4 g/m*3 -0.8 C 0 km/h
1340 05-01-2015 18:45:00 -0.8 C 4.4 g/m*3 -0.8 C 0 km/h
1341 05-01-2015 18:50:00 -0.8 C 4.4 g/m*3 -0.8 C 0 km/h
1342 05-01-2015 18:55:00 -0.8 C 4.4 g/m*3 -0.8 C 0 km/h
1343 05-01-2015 19:00:00 -0.8 C 4.4 g/m*3 -0.8 C 0 km/h
1344 05-01-2015 19:05:00 -0.9 C 4.37 g/m*3 -0.9 C 0 km/h
1345 05-01-2015 19:10:00 -0.9 C 4.37 g/m*3 -0.9 C 0 km/h
1346 05-01-2015 20:10:00 -1.4 C 4.22 g/m*3 -1.4 C 0 km/h
1347 05-01-2015 20:15:00 -1.4 C 4.22 g/m*3 -1.4 C 0 km/h
1348 05-01-2015 20:20:00 -1.3 C 4.25 g/m*3 -1.3 C 0 km/h
1349 05-01-2015 20:25:00 -1.4 C 4.22 g/m*3 -1.4 C 0 km/h
1350 05-01-2015 20:30:00 -1.4 C 4.22 g/m*3 -1.4 C 0 km/h
Sensor: Nr:Datum:Temp:Abs-Feuchte:Windchill:Wind:
Aussen-T/F 1351 05-01-2015 20:35:00 -1.4 C 4.22 g/m*3 -1.4 C 0 km/h
1352 05-01-2015 20:40:00 -1.3 C 4.25 g/m*3 -1.3 C 0 km/h
1353 05-01-2015 20:45:00 -1.4 C 4.22 g/m*3 -1.4 C 0 km/h
1354 05-01-2015 20:50:00 -1.4 C 4.22 g/m*3 -1.4 C 0 km/h
1355 05-01-2015 20:55:00 -1.5 C 4.19 g/m*3 -1.5 C 0 km/h
1356 05-01-2015 21:00:00 -1.5 C 4.19 g/m*3 -1.5 C 0 km/h
1357 05-01-2015 21:05:00 -1.6 C 4.16 g/m*3 -1.6 C 0 km/h
1358 05-01-2015 21:10:00 -1.5 C 4.19 g/m*3 -1.5 C 0 km/h
1359 05-01-2015 21:15:00 -1.5 C 4.19 g/m*3 -1.5 C 0 km/h
1360 05-01-2015 21:20:00 -1.5 C 4.19 g/m*3 -1.5 C 0 km/h
1361 05-01-2015 21:25:00 -1.6 C 4.16 g/m*3 -1.6 C 0 km/h
1362 05-01-2015 21:30:00 -1.6 C 4.16 g/m*3 -1.6 C 0 km/h
1363 05-01-2015 21:35:00 -1.6 C 4.16 g/m*3 -1.6 C 0 km/h
1364 05-01-2015 21:40:00 -1.6 C 4.16 g/m*3 -1.6 C 0 km/h
1365 05-01-2015 21:45:00 -1.6 C 4.16 g/m*3 -1.6 C 0 km/h
1366 05-01-2015 21:50:00 -1.6 C 4.16 g/m*3 -1.6 C 0 km/h
1367 05-01-2015 21:55:00 -1.6 C 4.21 g/m*3 -1.6 C 0 km/h
1368 05-01-2015 22:00:00 -1.6 C 4.21 g/m*3 -1.6 C 0 km/h
1369 05-01-2015 22:05:00 -1.7 C 4.13 g/m*3 -1.7 C 0 km/h
1370 05-01-2015 22:10:00 -1.7 C 4.13 g/m*3 -1.7 C 0 km/h
1371 05-01-2015 22:15:00 -1.8 C 4.1 g/m*3 -1.8 C 0 km/h
1372 05-01-2015 22:20:00 -1.8 C 4.1 g/m*3 -1.8 C 0 km/h
1373 05-01-2015 22:25:00 -1.8 C 4.1 g/m*3 -1.8 C 0 km/h
1374 05-01-2015 22:30:00 -1.8 C 4.1 g/m*3 -1.8 C 1.6 km/h
1375 05-01-2015 22:35:00 -1.8 C 4.1 g/m*3 -1.8 C 0 km/h
Sensor: Nr:Datum:Temp:Abs-Feuchte:Windchill:Wind:
Aussen-T/F 1376 05-01-2015 22:40:00 -1.8 C 4.1 g/m*3 -1.8 C 0 km/h
1377 06-01-2015 07:55:00 -2.9 C 3.84 g/m*3 -2.9 C 4.8 km/h
1378 06-01-2015 08:00:00 -2.9 C 3.84 g/m*3 -2.9 C 3.2 km/h
1379 06-01-2015 08:05:00 -2.9 C 3.84 g/m*3 -2.9 C 1.6 km/h
1380 06-01-2015 08:10:00 -2.9 C 3.84 g/m*3 -2.9 C 3.2 km/h
1381 06-01-2015 08:15:00 -2.9 C 3.84 g/m*3 -2.9 C 3.2 km/h
1382 06-01-2015 13:05:00 -1.4 C 4.26 g/m*3 -1.4 C 3.2 km/h
1383 06-01-2015 13:10:00 -1.3 C 4.29 g/m*3 -1.3 C 0 km/h
1384 06-01-2015 13:15:00 -1.3 C 4.29 g/m*3 -1.3 C 0 km/h
1385 06-01-2015 13:20:00 -1.3 C 4.29 g/m*3 -1.3 C 0 km/h
1386 06-01-2015 13:25:00 -1.3 C 4.29 g/m*3 -1.3 C 1.6 km/h
1387 06-01-2015 19:40:00 1.1 C 4.7 g/m*3 -2.66 C 12.9 km/h
1388 06-01-2015 19:45:00 1.1 C 4.7 g/m*3 -2.97 C 14.5 km/h
1389 06-01-2015 19:50:00 1.1 C 4.7 g/m*3 -2.97 C 14.5 km/h
1390 06-01-2015 19:55:00 1.1 C 4.7 g/m*3 -2.66 C 12.9 km/h
1391 06-01-2015 20:00:00 0.9 C 4.64 g/m*3 -3.21 C 14.5 km/h
1392 06-01-2015 20:05:00 0.9 C 4.64 g/m*3 -2.16 C 9.7 km/h
1393 06-01-2015 20:10:00 0.8 C 4.61 g/m*3 -4.13 C 19.3 km/h
1394 06-01-2015 20:15:00 0.8 C 4.61 g/m*3 -3.02 C 12.9 km/h
1395 06-01-2015 20:20:00 0.8 C 4.61 g/m*3 -3.02 C 12.9 km/h
1396 06-01-2015 20:25:00 0.8 C 4.61 g/m*3 -2.67 C 11.3 km/h
1397 06-01-2015 21:20:00 0.7 C 4.68 g/m*3 -1.95 C 8.1 km/h
1398 06-01-2015 21:25:00 0.7 C 4.68 g/m*3 -2.8 C 11.3 km/h
1399 06-01-2015 21:30:00 0.7 C 4.68 g/m*3 -2.8 C 11.3 km/h
1400 06-01-2015 21:35:00 0.8 C 4.71 g/m*3 -2.28 C 9.7 km/h
Sensor: Nr:Datum:Temp:Abs-Feuchte:Windchill:Wind:
Aussen-T/F 1401 06-01-2015 21:40:00 0.8 C 4.71 g/m*3 -2.28 C 9.7 km/h
1402 06-01-2015 21:45:00 0.8 C 4.71 g/m*3 -2.28 C 9.7 km/h
1403 06-01-2015 21:50:00 0.8 C 4.71 g/m*3 -2.67 C 11.3 km/h
1404 06-01-2015 21:55:00 0.8 C 4.71 g/m*3 -3.34 C 14.5 km/h
1405 06-01-2015 22:00:00 0.9 C 4.74 g/m*3 -1.14 C 6.4 km/h
1406 06-01-2015 22:05:00 1 C 4.78 g/m*3 -2.78 C 12.9 km/h
1407 06-01-2015 22:10:00 1 C 4.78 g/m*3 -1.59 C 8.1 km/h
1408 06-01-2015 22:15:00 1.1 C 4.81 g/m*3 -1.92 C 9.7 km/h
1409 06-01-2015 22:20:00 1.1 C 4.81 g/m*3 -1.48 C 8.1 km/h
1410 06-01-2015 22:25:00 1.1 C 4.81 g/m*3 -2.31 C 11.3 km/h
1411 06-01-2015 22:30:00 1.2 C 4.84 g/m*3 -0.8 C 6.4 km/h
1412 06-01-2015 22:35:00 1.3 C 4.87 g/m*3 -0.68 C 6.4 km/h
1413 06-01-2015 22:40:00 1.3 C 4.87 g/m*3 1.3 C 1.6 km/h
1414 06-01-2015 22:45:00 1.3 C 4.87 g/m*3 1.3 C 1.6 km/h
1415 06-01-2015 22:50:00 1.3 C 4.87 g/m*3 1.3 C 4.8 km/h
1416 06-01-2015 22:55:00 1.2 C 4.84 g/m*3 1.2 C 0 km/h
1417 06-01-2015 23:00:00 1.2 C 4.84 g/m*3 -1.8 C 9.7 km/h
1418 06-01-2015 23:05:00 1.2 C 4.84 g/m*3 1.2 C 4.8 km/h
1419 06-01-2015 23:10:00 1.2 C 4.84 g/m*3 1.2 C 3.2 km/h
1420 06-01-2015 23:15:00 1.3 C 4.93 g/m*3 -0.68 C 6.4 km/h
1421 06-01-2015 23:20:00 1.4 C 4.96 g/m*3 -2.29 C 12.9 km/h
1422 06-01-2015 23:25:00 1.6 C 5.03 g/m*3 -1.33 C 9.7 km/h
1423 06-01-2015 23:30:00 1.6 C 5.03 g/m*3 1.6 C 4.8 km/h
1424 06-01-2015 23:35:00 1.6 C 4.97 g/m*3 -0.33 C 6.4 km/h
1425 06-01-2015 23:40:00 1.6 C 4.97 g/m*3 1.6 C 4.8 km/h
Sensor: Nr:Datum:Temp:Abs-Feuchte:Windchill:Wind:
Aussen-T/F 1426 06-01-2015 23:45:00 1.5 C 4.94 g/m*3 1.5 C 4.8 km/h
1427 06-01-2015 23:50:00 1.5 C 4.99 g/m*3 -0.45 C 6.4 km/h
1428 06-01-2015 23:55:00 1.5 C 4.99 g/m*3 -2.17 C 12.9 km/h
1429 07-01-2015 00:00:00 1.5 C 4.99 g/m*3 -1.01 C 8.1 km/h
1430 07-01-2015 00:05:00 1.6 C 5.03 g/m*3 -0.33 C 6.4 km/h
1431 07-01-2015 00:10:00 1.6 C 5.03 g/m*3 -0.33 C 6.4 km/h
1432 07-01-2015 00:15:00 1.6 C 5.03 g/m*3 -0.33 C 6.4 km/h
1433 07-01-2015 00:20:00 1.6 C 5.03 g/m*3 -0.33 C 6.4 km/h
1434 07-01-2015 00:25:00 1.6 C 5.03 g/m*3 -0.89 C 8.1 km/h
1435 07-01-2015 00:30:00 1.6 C 5.03 g/m*3 1.6 C 3.2 km/h
1436 07-01-2015 00:35:00 1.6 C 5.08 g/m*3 -0.33 C 6.4 km/h
1437 07-01-2015 00:40:00 1.7 C 5.12 g/m*3 -0.22 C 6.4 km/h
1438 07-01-2015 00:45:00 1.7 C 5.12 g/m*3 1.7 C 3.2 km/h
1439 07-01-2015 00:50:00 1.7 C 5.12 g/m*3 1.7 C 3.2 km/h
1440 07-01-2015 00:55:00 1.7 C 5.12 g/m*3 1.7 C 3.2 km/h
1441 07-01-2015 01:00:00 1.8 C 5.15 g/m*3 -1.09 C 9.7 km/h
1442 07-01-2015 01:05:00 1.9 C 5.19 g/m*3 -0.97 C 9.7 km/h
1443 07-01-2015 01:10:00 1.9 C 5.19 g/m*3 1.9 C 4.8 km/h
1444 07-01-2015 01:15:00 1.9 C 5.19 g/m*3 0.01 C 6.4 km/h
1445 07-01-2015 01:20:00 2 C 5.22 g/m*3 -2.14 C 16.1 km/h
1446 07-01-2015 01:25:00 2.1 C 5.26 g/m*3 -0.73 C 9.7 km/h
1447 07-01-2015 01:30:00 2.1 C 5.26 g/m*3 -0.73 C 9.7 km/h
1448 07-01-2015 01:35:00 2.2 C 5.29 g/m*3 2.2 C 4.8 km/h
1449 07-01-2015 01:40:00 2.1 C 5.2 g/m*3 -1.74 C 14.5 km/h
1450 07-01-2015 01:45:00 2.2 C 5.29 g/m*3 2.2 C 4.8 km/h
Sensor: Nr:Datum:Temp:Abs-Feuchte:Windchill:Wind:
Aussen-T/F 1451 07-01-2015 01:50:00 2.2 C 5.29 g/m*3 0.36 C 6.4 km/h
1452 07-01-2015 01:55:00 2.2 C 5.29 g/m*3 0.36 C 6.4 km/h
1453 07-01-2015 02:00:00 2.2 C 5.29 g/m*3 2.2 C 3.2 km/h
1454 07-01-2015 02:05:00 2.2 C 5.29 g/m*3 2.2 C 3.2 km/h
1455 07-01-2015 02:10:00 2.2 C 5.29 g/m*3 2.2 C 4.8 km/h
1456 07-01-2015 02:15:00 2.2 C 5.29 g/m*3 -0.18 C 8.1 km/h
1457 07-01-2015 02:20:00 2.3 C 5.33 g/m*3 -0.87 C 11.3 km/h
1458 07-01-2015 02:25:00 2.3 C 5.33 g/m*3 -0.49 C 9.7 km/h
1459 07-01-2015 02:30:00 2.3 C 5.33 g/m*3 0.47 C 6.4 km/h
1460 07-01-2015 02:35:00 2.3 C 5.33 g/m*3 -0.07 C 8.1 km/h
1461 07-01-2015 02:40:00 2.2 C 5.29 g/m*3 -0.61 C 9.7 km/h
1462 07-01-2015 02:45:00 2.2 C 5.29 g/m*3 0.36 C 6.4 km/h
1463 07-01-2015 02:50:00 2.2 C 5.29 g/m*3 0.36 C 6.4 km/h
1464 07-01-2015 02:55:00 2.3 C 5.33 g/m*3 2.3 C 4.8 km/h
1465 07-01-2015 03:00:00 2.3 C 5.33 g/m*3 0.47 C 6.4 km/h
1466 07-01-2015 03:05:00 2.3 C 5.33 g/m*3 -0.87 C 11.3 km/h
1467 07-01-2015 03:10:00 2.4 C 5.37 g/m*3 -0.74 C 11.3 km/h
1468 07-01-2015 03:15:00 2.6 C 5.44 g/m*3 0.29 C 8.1 km/h
1469 07-01-2015 03:20:00 2.6 C 5.38 g/m*3 -0.14 C 9.7 km/h
1470 07-01-2015 03:25:00 2.5 C 5.35 g/m*3 -0.62 C 11.3 km/h
1471 07-01-2015 03:30:00 2.4 C 5.31 g/m*3 0.59 C 6.4 km/h
1472 07-01-2015 03:35:00 2.5 C 5.4 g/m*3 -0.26 C 9.7 km/h
1473 07-01-2015 03:40:00 2.5 C 5.35 g/m*3 -0.26 C 9.7 km/h
1474 07-01-2015 03:45:00 2.6 C 5.44 g/m*3 -0.5 C 11.3 km/h
1475 07-01-2015 03:50:00 2.6 C 5.44 g/m*3 0.82 C 6.4 km/h
Sensor: Nr:Datum:Temp:Abs-Feuchte:Windchill:Wind:
Aussen-T/F 1476 07-01-2015 03:55:00 2.5 C 5.4 g/m*3 0.71 C 6.4 km/h
1477 07-01-2015 04:00:00 2.4 C 5.37 g/m*3 0.59 C 6.4 km/h
1478 07-01-2015 04:05:00 2.4 C 5.37 g/m*3 2.4 C 4.8 km/h
1479 07-01-2015 04:10:00 2.4 C 5.37 g/m*3 -1.37 C 14.5 km/h
1480 07-01-2015 04:15:00 2.4 C 5.37 g/m*3 -0.37 C 9.7 km/h
1481 07-01-2015 04:20:00 2.4 C 5.37 g/m*3 -0.74 C 11.3 km/h
1482 07-01-2015 04:25:00 2.5 C 5.4 g/m*3 -0.26 C 9.7 km/h
1483 07-01-2015 04:30:00 2.5 C 5.4 g/m*3 -1.52 C 16.1 km/h
1484 07-01-2015 04:35:00 2.5 C 5.4 g/m*3 0.17 C 8.1 km/h
1485 07-01-2015 04:40:00 2.6 C 5.44 g/m*3 -0.5 C 11.3 km/h
1486 07-01-2015 04:45:00 2.5 C 5.4 g/m*3 0.71 C 6.4 km/h
1487 07-01-2015 04:50:00 2.5 C 5.4 g/m*3 -0.62 C 11.3 km/h
1488 07-01-2015 04:55:00 2.4 C 5.37 g/m*3 2.4 C 4.8 km/h
1489 07-01-2015 05:00:00 2.4 C 5.37 g/m*3 0.59 C 6.4 km/h
1490 07-01-2015 05:05:00 2.4 C 5.37 g/m*3 2.4 C 4.8 km/h
1491 07-01-2015 05:10:00 2.4 C 5.37 g/m*3 0.05 C 8.1 km/h
1492 07-01-2015 05:15:00 2.5 C 5.4 g/m*3 -0.26 C 9.7 km/h
1493 07-01-2015 05:20:00 2.5 C 5.4 g/m*3 0.71 C 6.4 km/h
1494 07-01-2015 05:25:00 2.6 C 5.44 g/m*3 2.6 C 4.8 km/h
1495 07-01-2015 05:30:00 2.6 C 5.44 g/m*3 0.82 C 6.4 km/h
1496 07-01-2015 05:35:00 2.6 C 5.44 g/m*3 -0.5 C 11.3 km/h
1497 07-01-2015 05:40:00 2.5 C 5.4 g/m*3 0.71 C 6.4 km/h
1498 07-01-2015 05:45:00 2.5 C 5.4 g/m*3 0.71 C 6.4 km/h
1499 07-01-2015 05:50:00 2.4 C 5.37 g/m*3 2.4 C 4.8 km/h
1500 07-01-2015 05:55:00 2.3 C 5.33 g/m*3 2.3 C 4.8 km/h
Sensor: Nr:Datum:Temp:Abs-Feuchte:Windchill:Wind:
Aussen-T/F 1501 07-01-2015 06:00:00 2.1 C 5.26 g/m*3 2.1 C 3.2 km/h
1502 07-01-2015 06:05:00 1.9 C 5.19 g/m*3 1.9 C 3.2 km/h
1503 07-01-2015 06:10:00 1.8 C 5.15 g/m*3 1.8 C 1.6 km/h
1504 07-01-2015 06:15:00 1.7 C 5.17 g/m*3 1.7 C 3.2 km/h
1505 07-01-2015 06:20:00 1.6 C 5.14 g/m*3 1.6 C 1.6 km/h
1506 07-01-2015 06:25:00 1.6 C 5.14 g/m*3 1.6 C 1.6 km/h
1507 07-01-2015 06:30:00 1.4 C 5.07 g/m*3 1.4 C 0 km/h
1508 07-01-2015 06:35:00 1.4 C 5.12 g/m*3 1.4 C 1.6 km/h
1509 07-01-2015 06:40:00 1.4 C 5.12 g/m*3 1.4 C 4.8 km/h
1510 07-01-2015 06:45:00 1.5 C 5.16 g/m*3 1.5 C 4.8 km/h
1511 07-01-2015 06:50:00 1.4 C 5.12 g/m*3 1.4 C 3.2 km/h
1512 07-01-2015 06:55:00 1.4 C 5.12 g/m*3 1.4 C 4.8 km/h
1513 07-01-2015 07:00:00 1.3 C 5.09 g/m*3 1.3 C 4.8 km/h
1514 07-01-2015 07:05:00 1.3 C 5.09 g/m*3 1.3 C 3.2 km/h
1515 07-01-2015 07:10:00 1.4 C 5.12 g/m*3 1.4 C 3.2 km/h
1516 07-01-2015 07:15:00 1.5 C 5.16 g/m*3 1.5 C 3.2 km/h
1517 07-01-2015 07:20:00 1.4 C 5.12 g/m*3 1.4 C 3.2 km/h
1518 07-01-2015 07:25:00 1.4 C 5.12 g/m*3 1.4 C 3.2 km/h
1519 07-01-2015 07:30:00 1.4 C 5.12 g/m*3 -0.56 C 6.4 km/h
1520 07-01-2015 07:35:00 1.4 C 5.12 g/m*3 1.4 C 3.2 km/h
1521 07-01-2015 07:40:00 1.3 C 5.09 g/m*3 1.3 C 1.6 km/h
1522 07-01-2015 07:45:00 1.3 C 5.09 g/m*3 -0.68 C 6.4 km/h
1523 07-01-2015 07:50:00 1.4 C 5.12 g/m*3 1.4 C 3.2 km/h
1524 07-01-2015 07:55:00 1.3 C 5.09 g/m*3 1.3 C 3.2 km/h
1525 07-01-2015 08:00:00 1.3 C 5.09 g/m*3 1.3 C 3.2 km/h
Sensor: Nr:Datum:Temp:Abs-Feuchte:Windchill:Wind:
Aussen-T/F 1526 07-01-2015 08:05:00 1.3 C 5.14 g/m*3 1.3 C 4.8 km/h
1527 07-01-2015 08:10:00 1.4 C 5.17 g/m*3 1.4 C 4.8 km/h
1528 07-01-2015 08:15:00 1.5 C 5.21 g/m*3 -1.01 C 8.1 km/h
1529 07-01-2015 08:20:00 1.6 C 5.25 g/m*3 1.6 C 4.8 km/h
1530 07-01-2015 08:25:00 1.7 C 5.28 g/m*3 -0.22 C 6.4 km/h
1531 07-01-2015 08:30:00 1.7 C 5.28 g/m*3 -0.22 C 6.4 km/h
1532 07-01-2015 08:35:00 1.7 C 5.23 g/m*3 -0.22 C 6.4 km/h
1533 07-01-2015 08:40:00 1.8 C 5.26 g/m*3 1.8 C 3.2 km/h
1534 07-01-2015 08:45:00 1.8 C 5.26 g/m*3 1.8 C 3.2 km/h
1535 07-01-2015 08:50:00 1.8 C 5.26 g/m*3 -0.65 C 8.1 km/h
1536 07-01-2015 08:55:00 1.9 C 5.35 g/m*3 1.9 C 4.8 km/h
1537 07-01-2015 09:00:00 2 C 5.33 g/m*3 2 C 4.8 km/h
1538 07-01-2015 09:05:00 2.1 C 5.37 g/m*3 2.1 C 4.8 km/h
1539 07-01-2015 09:10:00 2 C 5.33 g/m*3 2 C 3.2 km/h
1540 07-01-2015 09:15:00 2 C 5.33 g/m*3 2 C 1.6 km/h
1541 07-01-2015 09:20:00 2 C 5.33 g/m*3 2 C 3.2 km/h
1542 07-01-2015 09:25:00 2.1 C 5.37 g/m*3 2.1 C 4.8 km/h
1543 07-01-2015 09:30:00 2.1 C 5.37 g/m*3 2.1 C 0 km/h
1544 07-01-2015 09:35:00 2.1 C 5.37 g/m*3 2.1 C 4.8 km/h
1545 07-01-2015 09:40:00 2.1 C 5.37 g/m*3 2.1 C 3.2 km/h
1546 07-01-2015 11:40:00 3.2 C 5.54 g/m*3 -0.1 C 12.9 km/h
1547 07-01-2015 11:45:00 3.3 C 5.58 g/m*3 1.63 C 6.4 km/h
1548 07-01-2015 11:50:00 3.2 C 5.54 g/m*3 0.58 C 9.7 km/h
1549 07-01-2015 11:55:00 3.2 C 5.54 g/m*3 3.2 C 4.8 km/h
1550 07-01-2015 12:00:00 3.1 C 5.51 g/m*3 1.4 C 6.4 km/h
Sensor: Nr:Datum:Temp:Abs-Feuchte:Windchill:Wind:
Aussen-T/F 1551 07-01-2015 12:05:00 3.1 C 5.51 g/m*3 3.1 C 4.8 km/h
1552 07-01-2015 12:10:00 3.2 C 5.54 g/m*3 1.51 C 6.4 km/h
1553 07-01-2015 12:15:00 3.1 C 5.51 g/m*3 1.4 C 6.4 km/h
1554 07-01-2015 12:20:00 3.1 C 5.51 g/m*3 3.1 C 4.8 km/h
1555 07-01-2015 12:25:00 3.1 C 5.51 g/m*3 0.1 C 11.3 km/h
1556 07-01-2015 12:30:00 3.2 C 5.54 g/m*3 0.58 C 9.7 km/h
1557 07-01-2015 12:35:00 3.2 C 5.48 g/m*3 1.51 C 6.4 km/h
1558 07-01-2015 12:40:00 3.2 C 5.54 g/m*3 0.22 C 11.3 km/h
1559 07-01-2015 12:45:00 3.3 C 5.52 g/m*3 0.34 C 11.3 km/h
1560 07-01-2015 12:50:00 3.3 C 5.52 g/m*3 1.11 C 8.1 km/h
1561 07-01-2015 12:55:00 3.4 C 5.56 g/m*3 0.46 C 11.3 km/h
1562 07-01-2015 13:00:00 3.4 C 5.5 g/m*3 0.46 C 11.3 km/h
1563 07-01-2015 13:05:00 3.4 C 5.5 g/m*3 0.46 C 11.3 km/h
1564 07-01-2015 13:10:00 3.4 C 5.5 g/m*3 1.75 C 6.4 km/h
1565 07-01-2015 13:15:00 3.4 C 5.5 g/m*3 1.23 C 8.1 km/h
1566 07-01-2015 13:20:00 3.4 C 5.56 g/m*3 1.75 C 6.4 km/h
1567 07-01-2015 13:25:00 3.4 C 5.56 g/m*3 0.46 C 11.3 km/h
1568 07-01-2015 13:30:00 3.4 C 5.56 g/m*3 1.23 C 8.1 km/h
1569 07-01-2015 13:35:00 3.4 C 5.56 g/m*3 0.82 C 9.7 km/h
1570 07-01-2015 13:40:00 3.4 C 5.5 g/m*3 -0.14 C 14.5 km/h
1571 07-01-2015 13:45:00 3.4 C 5.5 g/m*3 1.23 C 8.1 km/h
1572 07-01-2015 13:50:00 3.4 C 5.5 g/m*3 0.14 C 12.9 km/h
1573 07-01-2015 13:55:00 3.5 C 5.53 g/m*3 0.58 C 11.3 km/h
1574 07-01-2015 14:00:00 3.5 C 5.53 g/m*3 0.94 C 9.7 km/h
1575 07-01-2015 14:05:00 3.5 C 5.53 g/m*3 1.86 C 6.4 km/h
Sensor: Nr:Datum:Temp:Abs-Feuchte:Windchill:Wind:
Aussen-T/F 1576 07-01-2015 14:10:00 3.5 C 5.53 g/m*3 0.94 C 9.7 km/h
1577 07-01-2015 14:15:00 3.4 C 5.5 g/m*3 -0.4 C 16.1 km/h
1578 07-01-2015 14:20:00 3.4 C 5.5 g/m*3 0.46 C 11.3 km/h
1579 07-01-2015 14:25:00 3.4 C 5.5 g/m*3 0.82 C 9.7 km/h
1580 07-01-2015 14:30:00 3.4 C 5.44 g/m*3 0.46 C 11.3 km/h
1581 07-01-2015 14:35:00 3.4 C 5.44 g/m*3 0.82 C 9.7 km/h
1582 07-01-2015 14:40:00 3.4 C 5.44 g/m*3 0.82 C 9.7 km/h
1583 07-01-2015 14:45:00 3.4 C 5.44 g/m*3 0.82 C 9.7 km/h
1584 07-01-2015 14:50:00 3.4 C 5.44 g/m*3 0.14 C 12.9 km/h
1585 07-01-2015 14:55:00 3.4 C 5.44 g/m*3 0.46 C 11.3 km/h
1586 07-01-2015 15:00:00 3.4 C 5.44 g/m*3 3.4 C 4.8 km/h
1587 07-01-2015 15:05:00 3.4 C 5.37 g/m*3 3.4 C 4.8 km/h
1588 07-01-2015 15:10:00 3.5 C 5.47 g/m*3 0.58 C 11.3 km/h
1589 07-01-2015 15:15:00 3.5 C 5.47 g/m*3 1.86 C 6.4 km/h
1590 07-01-2015 15:20:00 3.5 C 5.47 g/m*3 1.86 C 6.4 km/h
1591 07-01-2015 15:25:00 3.5 C 5.41 g/m*3 3.5 C 4.8 km/h
1592 07-01-2015 15:30:00 3.5 C 5.47 g/m*3 3.5 C 4.8 km/h
1593 07-01-2015 15:35:00 3.4 C 5.44 g/m*3 0.82 C 9.7 km/h
1594 07-01-2015 15:40:00 3.4 C 5.37 g/m*3 1.23 C 8.1 km/h
1595 07-01-2015 15:45:00 3.3 C 5.34 g/m*3 0.7 C 9.7 km/h
1596 07-01-2015 15:50:00 3.3 C 5.4 g/m*3 0.34 C 11.3 km/h
1597 07-01-2015 15:55:00 3.3 C 5.4 g/m*3 0.7 C 9.7 km/h
1598 07-01-2015 16:00:00 3.2 C 5.36 g/m*3 0.99 C 8.1 km/h
1599 07-01-2015 16:05:00 3.2 C 5.36 g/m*3 3.2 C 4.8 km/h
1600 07-01-2015 16:10:00 3.2 C 5.42 g/m*3 0.99 C 8.1 km/h
Sensor: Nr:Datum:Temp:Abs-Feuchte:Windchill:Wind:
Aussen-T/F 1601 07-01-2015 16:15:00 3.2 C 5.36 g/m*3 0.58 C 9.7 km/h
1602 07-01-2015 16:20:00 3.2 C 5.42 g/m*3 3.2 C 4.8 km/h
1603 07-01-2015 16:25:00 3.2 C 5.42 g/m*3 3.2 C 3.2 km/h
1604 07-01-2015 16:30:00 3.1 C 5.39 g/m*3 3.1 C 3.2 km/h
1605 07-01-2015 16:35:00 3.1 C 5.39 g/m*3 3.1 C 4.8 km/h
1606 07-01-2015 16:40:00 3.1 C 5.39 g/m*3 0.87 C 8.1 km/h
1607 07-01-2015 16:45:00 3.1 C 5.39 g/m*3 1.4 C 6.4 km/h
1608 07-01-2015 16:50:00 3.1 C 5.39 g/m*3 1.4 C 6.4 km/h
1609 07-01-2015 16:55:00 3 C 5.35 g/m*3 3 C 4.8 km/h
1610 07-01-2015 17:00:00 3 C 5.35 g/m*3 1.28 C 6.4 km/h
1611 07-01-2015 17:05:00 2.9 C 5.32 g/m*3 2.9 C 3.2 km/h
1612 07-01-2015 17:10:00 2.9 C 5.32 g/m*3 2.9 C 3.2 km/h
1613 07-01-2015 17:15:00 2.9 C 5.32 g/m*3 0.22 C 9.7 km/h
1614 07-01-2015 17:20:00 2.9 C 5.37 g/m*3 2.9 C 1.6 km/h
1615 07-01-2015 17:25:00 2.8 C 5.34 g/m*3 2.8 C 0 km/h
1616 07-01-2015 17:30:00 2.8 C 5.34 g/m*3 2.8 C 0 km/h
1617 07-01-2015 17:35:00 2.8 C 5.34 g/m*3 2.8 C 0 km/h
1618 07-01-2015 17:40:00 2.7 C 5.3 g/m*3 2.7 C 3.2 km/h
1619 07-01-2015 17:45:00 2.7 C 5.3 g/m*3 0.4 C 8.1 km/h
1620 07-01-2015 17:50:00 2.8 C 5.34 g/m*3 0.52 C 8.1 km/h
1621 07-01-2015 17:55:00 2.8 C 5.34 g/m*3 1.05 C 6.4 km/h
1622 07-01-2015 18:00:00 2.8 C 5.28 g/m*3 2.8 C 4.8 km/h
1623 07-01-2015 18:05:00 2.8 C 5.28 g/m*3 0.1 C 9.7 km/h
1624 07-01-2015 18:10:00 2.8 C 5.28 g/m*3 1.05 C 6.4 km/h
1625 07-01-2015 18:15:00 2.8 C 5.28 g/m*3 2.8 C 3.2 km/h
Sensor: Nr:Datum:Temp:Abs-Feuchte:Windchill:Wind:
Aussen-T/F 1626 07-01-2015 18:20:00 2.8 C 5.28 g/m*3 2.8 C 1.6 km/h
1627 07-01-2015 18:25:00 2.8 C 5.28 g/m*3 2.8 C 3.2 km/h
1628 07-01-2015 18:30:00 2.8 C 5.28 g/m*3 2.8 C 4.8 km/h
1629 07-01-2015 18:35:00 2.8 C 5.28 g/m*3 2.8 C 3.2 km/h
1630 07-01-2015 18:40:00 2.8 C 5.28 g/m*3 2.8 C 3.2 km/h
1631 07-01-2015 18:45:00 2.8 C 5.34 g/m*3 2.8 C 0 km/h
1632 07-01-2015 18:50:00 2.7 C 5.3 g/m*3 2.7 C 0 km/h
1633 07-01-2015 18:55:00 2.7 C 5.3 g/m*3 2.7 C 1.6 km/h
1634 07-01-2015 19:00:00 2.7 C 5.3 g/m*3 2.7 C 1.6 km/h
1635 07-01-2015 19:05:00 2.7 C 5.3 g/m*3 2.7 C 0 km/h
1636 07-01-2015 19:10:00 2.7 C 5.36 g/m*3 2.7 C 1.6 km/h
1637 07-01-2015 19:15:00 2.6 C 5.32 g/m*3 2.6 C 0 km/h
1638 07-01-2015 19:20:00 2.6 C 5.32 g/m*3 2.6 C 0 km/h
1639 07-01-2015 19:25:00 2.6 C 5.32 g/m*3 2.6 C 1.6 km/h
1640 07-01-2015 19:30:00 2.6 C 5.32 g/m*3 2.6 C 1.6 km/h
1641 07-01-2015 19:35:00 2.5 C 5.35 g/m*3 2.5 C 1.6 km/h
1642 07-01-2015 19:40:00 2.5 C 5.35 g/m*3 2.5 C 0 km/h
1643 07-01-2015 19:45:00 2.5 C 5.35 g/m*3 2.5 C 0 km/h
1644 07-01-2015 19:50:00 2.4 C 5.31 g/m*3 2.4 C 0 km/h
1645 07-01-2015 19:55:00 2.4 C 5.31 g/m*3 2.4 C 3.2 km/h
1646 07-01-2015 20:00:00 2.5 C 5.35 g/m*3 2.5 C 0 km/h
1647 07-01-2015 20:05:00 2.5 C 5.35 g/m*3 2.5 C 0 km/h
1648 07-01-2015 20:10:00 2.6 C 5.38 g/m*3 2.6 C 0 km/h
1649 07-01-2015 20:15:00 2.6 C 5.38 g/m*3 2.6 C 0 km/h
1650 07-01-2015 20:20:00 2.6 C 5.38 g/m*3 2.6 C 0 km/h
Sensor: Nr:Datum:Temp:Abs-Feuchte:Windchill:Wind:
Aussen-T/F 1651 07-01-2015 20:25:00 2.6 C 5.38 g/m*3 2.6 C 0 km/h
1652 07-01-2015 20:30:00 2.6 C 5.38 g/m*3 2.6 C 1.6 km/h
1653 07-01-2015 20:35:00 2.6 C 5.32 g/m*3 2.6 C 4.8 km/h
1654 07-01-2015 20:40:00 2.6 C 5.32 g/m*3 0.29 C 8.1 km/h
1655 07-01-2015 20:45:00 2.7 C 5.36 g/m*3 0.94 C 6.4 km/h
1656 07-01-2015 20:50:00 2.7 C 5.36 g/m*3 0.94 C 6.4 km/h
1657 07-01-2015 20:55:00 2.7 C 5.36 g/m*3 2.7 C 3.2 km/h
1658 07-01-2015 21:00:00 2.7 C 5.36 g/m*3 2.7 C 1.6 km/h
1659 07-01-2015 21:05:00 2.7 C 5.36 g/m*3 2.7 C 1.6 km/h
1660 07-01-2015 21:10:00 2.7 C 5.36 g/m*3 2.7 C 3.2 km/h
1661 07-01-2015 21:15:00 2.6 C 5.32 g/m*3 2.6 C 3.2 km/h
1662 07-01-2015 21:20:00 2.6 C 5.32 g/m*3 2.6 C 3.2 km/h
1663 07-01-2015 21:25:00 2.6 C 5.27 g/m*3 2.6 C 3.2 km/h
1664 07-01-2015 21:30:00 2.6 C 5.32 g/m*3 2.6 C 0 km/h
1665 07-01-2015 21:35:00 2.6 C 5.32 g/m*3 2.6 C 1.6 km/h
1666 07-01-2015 21:40:00 2.6 C 5.32 g/m*3 2.6 C 1.6 km/h
1667 07-01-2015 21:45:00 2.5 C 5.29 g/m*3 2.5 C 0 km/h
1668 07-01-2015 21:50:00 2.4 C 5.25 g/m*3 2.4 C 0 km/h
1669 07-01-2015 21:55:00 2.4 C 5.31 g/m*3 2.4 C 0 km/h
1670 07-01-2015 22:00:00 2.4 C 5.31 g/m*3 2.4 C 0 km/h
1671 07-01-2015 22:05:00 2.4 C 5.31 g/m*3 2.4 C 0 km/h
1672 07-01-2015 22:10:00 2.4 C 5.31 g/m*3 2.4 C 0 km/h
1673 07-01-2015 22:15:00 2.4 C 5.31 g/m*3 2.4 C 0 km/h
1674 07-01-2015 22:20:00 2.4 C 5.31 g/m*3 2.4 C 1.6 km/h
1675 07-01-2015 22:25:00 2.4 C 5.25 g/m*3 2.4 C 1.6 km/h
Sensor: Nr:Datum:Temp:Abs-Feuchte:Windchill:Wind:
Aussen-T/F 1676 07-01-2015 22:30:00 2.4 C 5.25 g/m*3 0.59 C 6.4 km/h
1677 07-01-2015 22:35:00 2.4 C 5.2 g/m*3 2.4 C 3.2 km/h
1678 07-01-2015 22:40:00 2.6 C 5.21 g/m*3 2.6 C 4.8 km/h
1679 07-01-2015 22:45:00 2.6 C 5.15 g/m*3 2.6 C 3.2 km/h
1680 07-01-2015 22:50:00 2.6 C 5.15 g/m*3 2.6 C 3.2 km/h
1681 07-01-2015 22:55:00 2.7 C 5.19 g/m*3 2.7 C 1.6 km/h
1682 07-01-2015 23:00:00 2.7 C 5.19 g/m*3 0.4 C 8.1 km/h
1683 07-01-2015 23:05:00 2.7 C 5.13 g/m*3 0.94 C 6.4 km/h
1684 07-01-2015 23:10:00 2.8 C 5.16 g/m*3 2.8 C 3.2 km/h
1685 07-01-2015 23:15:00 2.8 C 5.16 g/m*3 2.8 C 0 km/h
1686 07-01-2015 23:20:00 2.8 C 5.16 g/m*3 0.52 C 8.1 km/h
1687 07-01-2015 23:25:00 2.8 C 5.16 g/m*3 2.8 C 3.2 km/h
1688 07-01-2015 23:30:00 2.8 C 5.16 g/m*3 2.8 C 0 km/h
1689 07-01-2015 23:35:00 2.8 C 5.16 g/m*3 2.8 C 3.2 km/h
1690 07-01-2015 23:40:00 2.9 C 5.2 g/m*3 2.9 C 3.2 km/h
1691 07-01-2015 23:45:00 2.9 C 5.2 g/m*3 2.9 C 0 km/h
1692 07-01-2015 23:50:00 2.9 C 5.26 g/m*3 2.9 C 0 km/h
1693 07-01-2015 23:55:00 2.8 C 5.22 g/m*3 2.8 C 0 km/h
1694 08-01-2015 00:00:00 2.8 C 5.28 g/m*3 2.8 C 0 km/h
1695 08-01-2015 00:05:00 2.7 C 5.3 g/m*3 2.7 C 3.2 km/h
1696 08-01-2015 00:10:00 2.6 C 5.27 g/m*3 2.6 C 0 km/h
1697 08-01-2015 00:15:00 2.6 C 5.32 g/m*3 2.6 C 0 km/h
1698 08-01-2015 00:20:00 2.6 C 5.32 g/m*3 2.6 C 0 km/h
1699 08-01-2015 00:25:00 2.6 C 5.32 g/m*3 2.6 C 1.6 km/h
1700 08-01-2015 00:30:00 2.6 C 5.32 g/m*3 2.6 C 1.6 km/h
Sensor: Nr:Datum:Temp:Abs-Feuchte:Windchill:Wind:
Aussen-T/F 1701 08-01-2015 00:35:00 2.6 C 5.32 g/m*3 2.6 C 0 km/h
1702 08-01-2015 00:40:00 2.6 C 5.38 g/m*3 2.6 C 1.6 km/h
1703 08-01-2015 00:45:00 2.6 C 5.38 g/m*3 2.6 C 1.6 km/h
1704 08-01-2015 00:50:00 2.6 C 5.38 g/m*3 2.6 C 0 km/h
1705 08-01-2015 00:55:00 2.6 C 5.38 g/m*3 2.6 C 1.6 km/h
1706 08-01-2015 01:00:00 2.6 C 5.38 g/m*3 2.6 C 0 km/h
1707 08-01-2015 01:05:00 2.6 C 5.38 g/m*3 2.6 C 0 km/h
1708 08-01-2015 01:10:00 2.6 C 5.44 g/m*3 2.6 C 0 km/h
1709 08-01-2015 01:15:00 2.6 C 5.44 g/m*3 2.6 C 0 km/h
1710 08-01-2015 01:20:00 2.6 C 5.44 g/m*3 2.6 C 0 km/h
1711 08-01-2015 01:25:00 2.6 C 5.44 g/m*3 2.6 C 0 km/h
1712 08-01-2015 01:30:00 2.6 C 5.44 g/m*3 2.6 C 1.6 km/h
1713 08-01-2015 01:35:00 2.6 C 5.44 g/m*3 2.6 C 0 km/h
1714 08-01-2015 01:40:00 2.6 C 5.44 g/m*3 2.6 C 0 km/h
1715 08-01-2015 01:45:00 2.7 C 5.48 g/m*3 2.7 C 0 km/h
1716 08-01-2015 01:50:00 2.7 C 5.48 g/m*3 2.7 C 0 km/h
1717 08-01-2015 01:55:00 2.7 C 5.48 g/m*3 2.7 C 0 km/h
1718 08-01-2015 02:00:00 2.6 C 5.44 g/m*3 2.6 C 0 km/h
1719 08-01-2015 02:05:00 2.7 C 5.48 g/m*3 2.7 C 0 km/h
1720 08-01-2015 02:10:00 2.7 C 5.48 g/m*3 2.7 C 0 km/h
1721 08-01-2015 02:15:00 2.7 C 5.48 g/m*3 2.7 C 0 km/h
1722 08-01-2015 02:20:00 2.7 C 5.48 g/m*3 2.7 C 0 km/h
1723 08-01-2015 02:25:00 2.7 C 5.48 g/m*3 2.7 C 0 km/h
1724 08-01-2015 02:30:00 2.7 C 5.48 g/m*3 2.7 C 0 km/h
1725 08-01-2015 02:35:00 2.8 C 5.51 g/m*3 2.8 C 0 km/h
Sensor: Nr:Datum:Temp:Abs-Feuchte:Windchill:Wind:
Aussen-T/F 1726 08-01-2015 02:40:00 2.8 C 5.51 g/m*3 2.8 C 1.6 km/h
1727 08-01-2015 02:45:00 2.9 C 5.55 g/m*3 2.9 C 0 km/h
1728 08-01-2015 02:50:00 2.9 C 5.55 g/m*3 2.9 C 0 km/h
1729 08-01-2015 02:55:00 3.2 C 5.66 g/m*3 1.51 C 6.4 km/h
1730 08-01-2015 03:00:00 3.4 C 5.74 g/m*3 0.82 C 9.7 km/h
1731 08-01-2015 03:05:00 3.8 C 5.9 g/m*3 0.35 C 14.5 km/h
1732 08-01-2015 03:10:00 4 C 5.98 g/m*3 2.44 C 6.4 km/h
1733 08-01-2015 03:15:00 4.2 C 5.99 g/m*3 1.43 C 11.3 km/h
1734 08-01-2015 03:20:00 4.2 C 5.93 g/m*3 2.17 C 8.1 km/h
1735 08-01-2015 03:25:00 4.3 C 5.97 g/m*3 1.24 C 12.9 km/h
1736 08-01-2015 03:30:00 4.4 C 6.01 g/m*3 2.01 C 9.7 km/h
1737 08-01-2015 03:35:00 4.5 C 6.05 g/m*3 1.48 C 12.9 km/h
1738 08-01-2015 03:40:00 4.6 C 6.02 g/m*3 3.13 C 6.4 km/h
1739 08-01-2015 03:45:00 4.7 C 6.06 g/m*3 2.37 C 9.7 km/h
1740 08-01-2015 03:50:00 4.7 C 6.06 g/m*3 4.7 C 4.8 km/h
1741 08-01-2015 03:55:00 4.6 C 6.02 g/m*3 3.13 C 6.4 km/h
1742 08-01-2015 04:00:00 4.6 C 6.09 g/m*3 4.6 C 4.8 km/h
1743 08-01-2015 04:05:00 4.5 C 6.05 g/m*3 4.5 C 4.8 km/h
1744 08-01-2015 04:10:00 4.4 C 6.07 g/m*3 4.4 C 4.8 km/h
1745 08-01-2015 04:15:00 4.4 C 6.14 g/m*3 4.4 C 4.8 km/h
1746 08-01-2015 04:20:00 4.5 C 6.18 g/m*3 4.5 C 4.8 km/h
1747 08-01-2015 04:25:00 4.5 C 6.18 g/m*3 4.5 C 0 km/h
1748 08-01-2015 04:30:00 4.4 C 6.14 g/m*3 4.4 C 4.8 km/h
1749 08-01-2015 04:35:00 4.3 C 6.16 g/m*3 4.3 C 0 km/h
1750 08-01-2015 04:40:00 4.2 C 6.12 g/m*3 4.2 C 4.8 km/h
Sensor: Nr:Datum:Temp:Abs-Feuchte:Windchill:Wind:
Aussen-T/F 1751 08-01-2015 04:45:00 4.2 C 6.12 g/m*3 4.2 C 3.2 km/h
1752 08-01-2015 04:50:00 4.2 C 6.19 g/m*3 4.2 C 3.2 km/h
1753 08-01-2015 04:55:00 4.2 C 6.19 g/m*3 4.2 C 3.2 km/h
1754 08-01-2015 05:00:00 4.2 C 6.19 g/m*3 4.2 C 1.6 km/h
1755 08-01-2015 05:05:00 4.3 C 6.23 g/m*3 4.3 C 1.6 km/h
1756 08-01-2015 05:10:00 4.3 C 6.23 g/m*3 4.3 C 0 km/h
1757 08-01-2015 05:15:00 4.2 C 6.19 g/m*3 4.2 C 0 km/h
1758 08-01-2015 05:20:00 4.2 C 6.19 g/m*3 4.2 C 1.6 km/h
1759 08-01-2015 05:25:00 4.3 C 6.23 g/m*3 4.3 C 3.2 km/h
1760 08-01-2015 05:30:00 4.3 C 6.23 g/m*3 4.3 C 1.6 km/h
1761 08-01-2015 05:35:00 4.3 C 6.23 g/m*3 4.3 C 1.6 km/h
1762 08-01-2015 05:40:00 4.3 C 6.29 g/m*3 4.3 C 3.2 km/h
1763 08-01-2015 05:45:00 4.3 C 6.23 g/m*3 4.3 C 4.8 km/h
1764 08-01-2015 05:50:00 4.3 C 6.23 g/m*3 4.3 C 1.6 km/h
1765 08-01-2015 05:55:00 4.3 C 6.23 g/m*3 4.3 C 0 km/h
1766 08-01-2015 06:00:00 4.3 C 6.23 g/m*3 4.3 C 3.2 km/h
1767 08-01-2015 06:05:00 4.3 C 6.29 g/m*3 4.3 C 1.6 km/h
1768 08-01-2015 06:10:00 4.3 C 6.29 g/m*3 4.3 C 0 km/h
1769 08-01-2015 06:15:00 4.2 C 6.25 g/m*3 4.2 C 1.6 km/h
1770 08-01-2015 06:20:00 4.3 C 6.29 g/m*3 4.3 C 1.6 km/h
1771 08-01-2015 06:25:00 4.3 C 6.29 g/m*3 4.3 C 0 km/h
1772 08-01-2015 06:30:00 4.3 C 6.29 g/m*3 4.3 C 3.2 km/h
1773 08-01-2015 06:35:00 4.3 C 6.29 g/m*3 4.3 C 1.6 km/h
1774 08-01-2015 06:40:00 4.2 C 6.25 g/m*3 4.2 C 1.6 km/h
1775 08-01-2015 06:45:00 4.3 C 6.29 g/m*3 4.3 C 0 km/h
Sensor: Nr:Datum:Temp:Abs-Feuchte:Windchill:Wind:
Aussen-T/F 1776 08-01-2015 06:50:00 4.3 C 6.29 g/m*3 4.3 C 0 km/h
1777 08-01-2015 06:55:00 4.3 C 6.29 g/m*3 4.3 C 0 km/h
1778 08-01-2015 07:00:00 4.3 C 6.29 g/m*3 4.3 C 1.6 km/h
1779 08-01-2015 07:05:00 4.4 C 6.33 g/m*3 4.4 C 1.6 km/h
1780 08-01-2015 07:10:00 4.4 C 6.33 g/m*3 4.4 C 4.8 km/h
1781 08-01-2015 07:15:00 4.5 C 6.38 g/m*3 4.5 C 3.2 km/h
1782 08-01-2015 07:20:00 4.7 C 6.53 g/m*3 2.03 C 11.3 km/h
1783 08-01-2015 07:25:00 4.9 C 6.62 g/m*3 2.99 C 8.1 km/h
1784 08-01-2015 07:30:00 5.1 C 6.7 g/m*3 5.1 C 3.2 km/h
1785 08-01-2015 07:35:00 5.2 C 6.68 g/m*3 3.34 C 8.1 km/h
1786 08-01-2015 07:40:00 5.3 C 6.72 g/m*3 2.46 C 12.9 km/h
1787 08-01-2015 07:45:00 5.4 C 6.77 g/m*3 2.08 C 16.1 km/h
1788 08-01-2015 07:50:00 5.6 C 6.86 g/m*3 2.33 C 16.1 km/h
1789 08-01-2015 07:55:00 5.6 C 6.79 g/m*3 2.11 C 17.7 km/h
1790 08-01-2015 08:00:00 5.7 C 6.83 g/m*3 3.93 C 8.1 km/h
1791 08-01-2015 08:05:00 5.6 C 6.79 g/m*3 5.6 C 4.8 km/h
1792 08-01-2015 08:10:00 5.6 C 6.79 g/m*3 3.81 C 8.1 km/h
1793 08-01-2015 08:15:00 5.7 C 6.83 g/m*3 3.56 C 9.7 km/h
1794 08-01-2015 08:20:00 5.7 C 6.83 g/m*3 3.93 C 8.1 km/h
1795 08-01-2015 08:25:00 5.7 C 6.83 g/m*3 4.4 C 6.4 km/h
1796 08-01-2015 08:30:00 5.7 C 6.83 g/m*3 5.7 C 4.8 km/h
1797 08-01-2015 08:35:00 5.6 C 6.79 g/m*3 5.6 C 1.6 km/h
1798 08-01-2015 08:40:00 5.6 C 6.79 g/m*3 5.6 C 1.6 km/h
1799 08-01-2015 08:45:00 5.6 C 6.79 g/m*3 5.6 C 0 km/h
1800 08-01-2015 08:50:00 5.6 C 6.79 g/m*3 5.6 C 4.8 km/h
Sensor: Nr:Datum:Temp:Abs-Feuchte:Windchill:Wind:
Aussen-T/F 1801 08-01-2015 08:55:00 5.5 C 6.74 g/m*3 5.5 C 3.2 km/h
1802 08-01-2015 09:00:00 5.4 C 6.77 g/m*3 5.4 C 3.2 km/h
1803 08-01-2015 09:05:00 5.4 C 6.77 g/m*3 5.4 C 3.2 km/h
1804 08-01-2015 09:10:00 5.5 C 6.81 g/m*3 5.5 C 0 km/h
1805 08-01-2015 09:15:00 5.5 C 6.81 g/m*3 5.5 C 1.6 km/h
1806 08-01-2015 09:20:00 5.5 C 6.81 g/m*3 5.5 C 0 km/h
1807 08-01-2015 09:25:00 5.5 C 6.81 g/m*3 5.5 C 0 km/h
1808 08-01-2015 09:30:00 5.6 C 6.86 g/m*3 5.6 C 0 km/h
1809 08-01-2015 09:35:00 5.6 C 6.86 g/m*3 5.6 C 3.2 km/h
1810 08-01-2015 09:40:00 5.6 C 6.86 g/m*3 5.6 C 1.6 km/h
1811 08-01-2015 09:45:00 5.7 C 6.97 g/m*3 5.7 C 1.6 km/h
1812 08-01-2015 09:50:00 5.8 C 7.02 g/m*3 5.8 C 3.2 km/h
1813 08-01-2015 09:55:00 5.9 C 7.07 g/m*3 5.9 C 1.6 km/h
1814 08-01-2015 10:00:00 6 C 7.11 g/m*3 6 C 3.2 km/h
1815 08-01-2015 10:05:00 6.1 C 7.16 g/m*3 6.1 C 3.2 km/h
1816 08-01-2015 10:10:00 6.1 C 7.16 g/m*3 6.1 C 4.8 km/h
1817 08-01-2015 10:15:00 6.2 C 7.21 g/m*3 6.2 C 1.6 km/h
1818 08-01-2015 10:20:00 6.3 C 7.25 g/m*3 6.3 C 0 km/h
1819 08-01-2015 10:25:00 6.4 C 7.3 g/m*3 6.4 C 3.2 km/h
1820 08-01-2015 10:30:00 6.4 C 7.3 g/m*3 6.4 C 0 km/h
1821 08-01-2015 10:35:00 6.6 C 7.4 g/m*3 6.6 C 4.8 km/h
1822 08-01-2015 10:40:00 6.7 C 7.45 g/m*3 5.56 C 6.4 km/h
1823 08-01-2015 10:45:00 6.8 C 7.5 g/m*3 6.8 C 1.6 km/h
1824 08-01-2015 10:50:00 6.8 C 7.42 g/m*3 5.67 C 6.4 km/h
1825 08-01-2015 10:55:00 6.9 C 7.47 g/m*3 4.68 C 11.3 km/h
Sensor: Nr:Datum:Temp:Abs-Feuchte:Windchill:Wind:
Aussen-T/F 1826 08-01-2015 11:00:00 7.1 C 7.57 g/m*3 7.1 C 3.2 km/h
1827 08-01-2015 11:05:00 7.1 C 7.57 g/m*3 7.1 C 4.8 km/h
1828 08-01-2015 11:10:00 7.2 C 7.61 g/m*3 7.2 C 4.8 km/h
1829 08-01-2015 11:15:00 7.2 C 7.61 g/m*3 7.2 C 4.8 km/h
1830 08-01-2015 11:20:00 7.3 C 7.58 g/m*3 5.47 C 9.7 km/h
1831 08-01-2015 11:25:00 7.4 C 7.63 g/m*3 5.93 C 8.1 km/h
1832 08-01-2015 11:30:00 7.6 C 7.65 g/m*3 5.82 C 9.7 km/h
1833 08-01-2015 11:35:00 7.7 C 7.7 g/m*3 6.28 C 8.1 km/h
1834 08-01-2015 11:40:00 7.7 C 7.7 g/m*3 6.71 C 6.4 km/h
1835 08-01-2015 11:45:00 7.8 C 7.75 g/m*3 6.06 C 9.7 km/h
1836 08-01-2015 11:50:00 7.9 C 7.8 g/m*3 6.18 C 9.7 km/h
1837 08-01-2015 11:55:00 8 C 7.85 g/m*3 6.3 C 9.7 km/h
1838 08-01-2015 12:00:00 8.1 C 7.82 g/m*3 8.1 C 3.2 km/h
1839 08-01-2015 12:05:00 8.1 C 7.82 g/m*3 8.1 C 3.2 km/h
1840 08-01-2015 12:10:00 8.1 C 7.82 g/m*3 6.75 C 8.1 km/h
1841 08-01-2015 12:15:00 8.1 C 7.82 g/m*3 6.75 C 8.1 km/h
1842 08-01-2015 12:20:00 8.2 C 7.87 g/m*3 6.87 C 8.1 km/h
1843 08-01-2015 12:25:00 8.2 C 7.87 g/m*3 6.87 C 8.1 km/h
1844 08-01-2015 12:30:00 8.3 C 7.92 g/m*3 7.41 C 6.4 km/h
1845 08-01-2015 12:35:00 8.4 C 7.89 g/m*3 6.49 C 11.3 km/h
1846 08-01-2015 12:40:00 8.6 C 7.99 g/m*3 6.48 C 12.9 km/h
1847 08-01-2015 12:45:00 8.7 C 7.96 g/m*3 7.46 C 8.1 km/h
1848 08-01-2015 12:50:00 8.8 C 8.01 g/m*3 7.58 C 8.1 km/h
1849 08-01-2015 12:55:00 8.9 C 8.06 g/m*3 6.85 C 12.9 km/h
1850 08-01-2015 13:00:00 8.9 C 8.06 g/m*3 6.42 C 16.1 km/h
Sensor: Nr:Datum:Temp:Abs-Feuchte:Windchill:Wind:
Aussen-T/F 1851 08-01-2015 13:05:00 8.9 C 8.06 g/m*3 6.42 C 16.1 km/h
1852 08-01-2015 13:10:00 8.9 C 8.06 g/m*3 6.23 C 17.7 km/h
1853 08-01-2015 13:15:00 8.9 C 8.06 g/m*3 5.6 C 24.1 km/h
1854 08-01-2015 13:20:00 9 C 8.11 g/m*3 5.6 C 25.7 km/h
1855 08-01-2015 13:25:00 9 C 8.11 g/m*3 5.73 C 24.1 km/h
1856 08-01-2015 13:30:00 9.1 C 8.16 g/m*3 6.15 C 20.9 km/h
1857 08-01-2015 13:35:00 9.1 C 8.16 g/m*3 5.73 C 25.7 km/h
1858 08-01-2015 13:40:00 9.2 C 8.13 g/m*3 6.13 C 22.5 km/h
1859 08-01-2015 13:45:00 9.2 C 8.13 g/m*3 5.86 C 25.7 km/h
1860 08-01-2015 13:50:00 9.3 C 8.18 g/m*3 6.12 C 24.1 km/h
1861 08-01-2015 13:55:00 9.3 C 8.18 g/m*3 5.98 C 25.7 km/h
1862 08-01-2015 14:00:00 9.2 C 8.22 g/m*3 7.21 C 12.9 km/h
1863 08-01-2015 14:05:00 9.2 C 8.22 g/m*3 6.61 C 17.7 km/h
1864 08-01-2015 14:10:00 9.2 C 8.13 g/m*3 5.86 C 25.7 km/h
1865 08-01-2015 14:15:00 9.3 C 8.18 g/m*3 6.73 C 17.7 km/h
1866 08-01-2015 14:20:00 9.3 C 8.18 g/m*3 6.92 C 16.1 km/h
1867 08-01-2015 14:25:00 9.4 C 8.23 g/m*3 7.04 C 16.1 km/h
1868 08-01-2015 14:30:00 9.4 C 8.23 g/m*3 6.11 C 25.7 km/h
1869 08-01-2015 14:35:00 9.5 C 8.28 g/m*3 6.82 C 19.3 km/h
1870 08-01-2015 14:40:00 9.6 C 8.34 g/m*3 6.94 C 19.3 km/h
1871 08-01-2015 14:45:00 9.6 C 8.24 g/m*3 6.79 C 20.9 km/h
1872 08-01-2015 14:50:00 9.6 C 8.24 g/m*3 7.48 C 14.5 km/h
1873 08-01-2015 14:55:00 9.7 C 8.3 g/m*3 7.23 C 17.7 km/h
1874 08-01-2015 15:00:00 9.7 C 8.3 g/m*3 7.41 C 16.1 km/h
1875 08-01-2015 15:05:00 9.8 C 8.35 g/m*3 7.19 C 19.3 km/h
Sensor: Nr:Datum:Temp:Abs-Feuchte:Windchill:Wind:
Aussen-T/F 1876 08-01-2015 15:10:00 9.8 C 8.35 g/m*3 7.36 C 17.7 km/h
1877 08-01-2015 15:15:00 9.7 C 8.39 g/m*3 9.02 C 6.4 km/h
1878 08-01-2015 15:20:00 9.6 C 8.34 g/m*3 7.7 C 12.9 km/h
1879 08-01-2015 15:25:00 9.5 C 8.37 g/m*3 8.4 C 8.1 km/h
1880 08-01-2015 15:30:00 9.5 C 8.37 g/m*3 8.09 C 9.7 km/h
1881 08-01-2015 15:35:00 9.6 C 8.34 g/m*3 7.29 C 16.1 km/h
1882 08-01-2015 15:40:00 9.7 C 8.39 g/m*3 8.33 C 9.7 km/h
1883 08-01-2015 15:45:00 9.7 C 8.39 g/m*3 6.5 C 25.7 km/h
1884 08-01-2015 15:50:00 9.8 C 8.35 g/m*3 6.89 C 22.5 km/h
1885 08-01-2015 15:55:00 9.8 C 8.35 g/m*3 7.54 C 16.1 km/h
1886 08-01-2015 16:00:00 9.8 C 8.35 g/m*3 7.73 C 14.5 km/h
1887 08-01-2015 16:05:00 9.8 C 8.26 g/m*3 6.17 C 32.2 km/h
1888 08-01-2015 16:10:00 9.9 C 8.31 g/m*3 7.02 C 22.5 km/h
1889 08-01-2015 16:15:00 9.9 C 8.31 g/m*3 7.66 C 16.1 km/h
1890 08-01-2015 16:20:00 9.9 C 8.31 g/m*3 7.48 C 17.7 km/h
1891 08-01-2015 16:25:00 9.8 C 8.26 g/m*3 7.73 C 14.5 km/h
1892 08-01-2015 16:30:00 9.8 C 8.35 g/m*3 6.27 C 30.6 km/h
1893 08-01-2015 16:35:00 9.8 C 8.35 g/m*3 6.89 C 22.5 km/h
1894 08-01-2015 16:40:00 9.7 C 8.3 g/m*3 7.23 C 17.7 km/h
1895 08-01-2015 16:45:00 9.7 C 8.3 g/m*3 7.41 C 16.1 km/h
1896 08-01-2015 16:50:00 9.7 C 8.3 g/m*3 8.06 C 11.3 km/h
1897 08-01-2015 16:55:00 9.6 C 8.34 g/m*3 7.7 C 12.9 km/h
1898 08-01-2015 17:00:00 9.6 C 8.34 g/m*3 7.48 C 14.5 km/h
1899 08-01-2015 17:05:00 9.6 C 8.34 g/m*3 6.94 C 19.3 km/h
1900 08-01-2015 17:10:00 9.6 C 8.34 g/m*3 7.94 C 11.3 km/h
Sensor: Nr:Datum:Temp:Abs-Feuchte:Windchill:Wind:
Aussen-T/F 1901 08-01-2015 17:15:00 9.6 C 8.34 g/m*3 7.11 C 17.7 km/h
1902 08-01-2015 17:20:00 9.6 C 8.34 g/m*3 6.79 C 20.9 km/h
1903 08-01-2015 17:25:00 9.7 C 8.39 g/m*3 7.41 C 16.1 km/h
1904 08-01-2015 17:30:00 9.7 C 8.39 g/m*3 7.41 C 16.1 km/h
1905 08-01-2015 17:35:00 9.7 C 8.39 g/m*3 7.23 C 17.7 km/h
1906 08-01-2015 17:40:00 9.7 C 8.39 g/m*3 7.61 C 14.5 km/h
1907 08-01-2015 17:45:00 9.7 C 8.39 g/m*3 7.41 C 16.1 km/h
1908 08-01-2015 17:50:00 9.7 C 8.39 g/m*3 7.23 C 17.7 km/h
1909 08-01-2015 17:55:00 9.7 C 8.39 g/m*3 7.82 C 12.9 km/h
1910 08-01-2015 18:00:00 9.8 C 8.44 g/m*3 7.04 C 20.9 km/h
1911 08-01-2015 18:05:00 9.8 C 8.44 g/m*3 7.36 C 17.7 km/h
1912 08-01-2015 18:10:00 9.8 C 8.44 g/m*3 6.89 C 22.5 km/h
1913 08-01-2015 18:15:00 9.8 C 8.44 g/m*3 7.36 C 17.7 km/h
1914 08-01-2015 18:20:00 9.8 C 8.44 g/m*3 7.04 C 20.9 km/h
1915 08-01-2015 18:25:00 9.8 C 8.44 g/m*3 7.19 C 19.3 km/h
1916 08-01-2015 18:30:00 9.8 C 8.44 g/m*3 6.63 C 25.7 km/h
1917 08-01-2015 18:35:00 9.8 C 8.44 g/m*3 6.76 C 24.1 km/h
1918 08-01-2015 18:40:00 9.8 C 8.44 g/m*3 7.19 C 19.3 km/h
1919 08-01-2015 18:45:00 9.7 C 8.48 g/m*3 7.82 C 12.9 km/h
1920 08-01-2015 18:50:00 9.7 C 8.48 g/m*3 7.07 C 19.3 km/h
1921 08-01-2015 18:55:00 9.7 C 8.48 g/m*3 7.07 C 19.3 km/h
1922 08-01-2015 19:00:00 9.6 C 8.43 g/m*3 7.29 C 16.1 km/h
1923 08-01-2015 19:05:00 9.6 C 8.43 g/m*3 5.61 C 37 km/h
1924 08-01-2015 19:10:00 9.6 C 8.34 g/m*3 6.5 C 24.1 km/h
1925 08-01-2015 19:15:00 9.5 C 8.01 g/m*3 6.37 C 24.1 km/h
Sensor: Nr:Datum:Temp:Abs-Feuchte:Windchill:Wind:
Aussen-T/F 1926 08-01-2015 19:20:00 9.3 C 7.73 g/m*3 6.92 C 16.1 km/h
1927 08-01-2015 19:25:00 9.1 C 7.54 g/m*3 6.67 C 16.1 km/h
1928 08-01-2015 19:30:00 8.9 C 7.36 g/m*3 5.47 C 25.7 km/h
1929 08-01-2015 19:35:00 8.9 C 7.45 g/m*3 6.85 C 12.9 km/h
1930 08-01-2015 19:40:00 8.8 C 7.31 g/m*3 5.48 C 24.1 km/h
1931 08-01-2015 19:45:00 8.7 C 7.26 g/m*3 4.62 C 33.8 km/h
1932 08-01-2015 19:50:00 8.5 C 7.26 g/m*3 4.46 C 32.2 km/h
1933 08-01-2015 19:55:00 8.3 C 7.16 g/m*3 4.84 C 24.1 km/h
1934 08-01-2015 20:00:00 8.1 C 7.07 g/m*3 4.58 C 24.1 km/h
1935 08-01-2015 20:05:00 8 C 7.11 g/m*3 6.3 C 9.7 km/h
1936 08-01-2015 20:10:00 7.9 C 7.15 g/m*3 5.39 C 14.5 km/h
1937 08-01-2015 20:15:00 7.8 C 7.1 g/m*3 4.86 C 17.7 km/h
1938 08-01-2015 20:20:00 7.8 C 7.1 g/m*3 5.27 C 14.5 km/h
1939 08-01-2015 20:25:00 7.7 C 7.14 g/m*3 5.38 C 12.9 km/h
1940 08-01-2015 20:30:00 7.7 C 7.14 g/m*3 5.65 C 11.3 km/h
1941 08-01-2015 20:35:00 7.6 C 7.09 g/m*3 4.81 C 16.1 km/h
1942 08-01-2015 20:40:00 7.6 C 7.17 g/m*3 4.61 C 17.7 km/h
1943 08-01-2015 20:45:00 7.5 C 7.12 g/m*3 5.7 C 9.7 km/h
1944 08-01-2015 20:50:00 7.4 C 7.08 g/m*3 5.58 C 9.7 km/h
1945 08-01-2015 20:55:00 7.4 C 7.16 g/m*3 5.02 C 12.9 km/h
1946 08-01-2015 21:00:00 7.4 C 7.16 g/m*3 5.93 C 8.1 km/h
1947 08-01-2015 21:05:00 7.3 C 7.11 g/m*3 4.9 C 12.9 km/h
1948 08-01-2015 21:10:00 7.3 C 7.03 g/m*3 4.9 C 12.9 km/h
1949 08-01-2015 21:15:00 7.3 C 7.03 g/m*3 5.16 C 11.3 km/h
1950 08-01-2015 21:20:00 7.4 C 7.08 g/m*3 5.28 C 11.3 km/h
Sensor: Nr:Datum:Temp:Abs-Feuchte:Windchill:Wind:
Aussen-T/F 1951 08-01-2015 21:25:00 7.3 C 7.03 g/m*3 5.47 C 9.7 km/h
1952 08-01-2015 21:30:00 7.3 C 7.03 g/m*3 5.81 C 8.1 km/h
1953 08-01-2015 21:35:00 7.3 C 7.03 g/m*3 6.25 C 6.4 km/h
1954 08-01-2015 21:40:00 7.3 C 7.03 g/m*3 5.16 C 11.3 km/h
1955 08-01-2015 21:45:00 7.3 C 7.03 g/m*3 5.47 C 9.7 km/h
1956 08-01-2015 21:50:00 7.3 C 7.03 g/m*3 5.16 C 11.3 km/h
1957 08-01-2015 21:55:00 7.3 C 6.95 g/m*3 5.47 C 9.7 km/h
1958 08-01-2015 22:00:00 7.3 C 6.95 g/m*3 4.66 C 14.5 km/h
1959 08-01-2015 22:05:00 7.3 C 6.95 g/m*3 4.9 C 12.9 km/h
1960 08-01-2015 22:10:00 7.2 C 6.99 g/m*3 5.04 C 11.3 km/h
1961 08-01-2015 22:15:00 7.2 C 6.91 g/m*3 4.53 C 14.5 km/h
1962 08-01-2015 22:20:00 7.2 C 6.91 g/m*3 4.53 C 14.5 km/h
1963 08-01-2015 22:25:00 7.2 C 6.91 g/m*3 4.53 C 14.5 km/h
1964 08-01-2015 22:30:00 7.2 C 6.91 g/m*3 5.35 C 9.7 km/h
1965 08-01-2015 22:35:00 7.1 C 6.86 g/m*3 7.1 C 4.8 km/h
1966 08-01-2015 22:40:00 7.1 C 6.86 g/m*3 5.23 C 9.7 km/h
1967 08-01-2015 22:45:00 7.1 C 6.86 g/m*3 4.65 C 12.9 km/h
1968 08-01-2015 22:50:00 7 C 6.82 g/m*3 5.11 C 9.7 km/h
1969 08-01-2015 22:55:00 7 C 6.9 g/m*3 5.46 C 8.1 km/h
1970 08-01-2015 23:00:00 6.9 C 6.85 g/m*3 5.79 C 6.4 km/h
1971 08-01-2015 23:05:00 6.8 C 6.81 g/m*3 5.67 C 6.4 km/h
1972 08-01-2015 23:10:00 6.7 C 6.84 g/m*3 6.7 C 4.8 km/h
1973 08-01-2015 23:15:00 6.6 C 6.79 g/m*3 4.99 C 8.1 km/h
1974 08-01-2015 23:20:00 6.5 C 6.75 g/m*3 5.33 C 6.4 km/h
1975 08-01-2015 23:25:00 6.4 C 6.78 g/m*3 3.8 C 12.9 km/h
Sensor: Nr:Datum:Temp:Abs-Feuchte:Windchill:Wind:
Aussen-T/F 1976 08-01-2015 23:30:00 6.5 C 6.82 g/m*3 4.51 C 9.7 km/h
1977 08-01-2015 23:35:00 6.6 C 6.87 g/m*3 4.32 C 11.3 km/h
1978 08-01-2015 23:40:00 6.5 C 6.75 g/m*3 4.51 C 9.7 km/h
1979 08-01-2015 23:45:00 6.5 C 6.82 g/m*3 5.33 C 6.4 km/h
1980 08-01-2015 23:50:00 6.4 C 6.78 g/m*3 6.4 C 4.8 km/h
1981 08-01-2015 23:55:00 6.5 C 6.75 g/m*3 4.2 C 11.3 km/h
1982 09-01-2015 00:00:00 6.6 C 6.79 g/m*3 4.04 C 12.9 km/h
1983 09-01-2015 00:05:00 6.5 C 6.75 g/m*3 4.87 C 8.1 km/h
1984 09-01-2015 00:10:00 6.6 C 6.79 g/m*3 4.63 C 9.7 km/h
1985 09-01-2015 00:15:00 6.5 C 6.75 g/m*3 5.33 C 6.4 km/h
1986 09-01-2015 00:20:00 6.6 C 6.72 g/m*3 4.63 C 9.7 km/h
1987 09-01-2015 00:25:00 6.5 C 6.67 g/m*3 6.5 C 4.8 km/h
1988 09-01-2015 00:30:00 6.5 C 6.67 g/m*3 5.33 C 6.4 km/h
1989 09-01-2015 00:35:00 6.4 C 6.63 g/m*3 4.39 C 9.7 km/h
1990 09-01-2015 00:40:00 6.5 C 6.67 g/m*3 4.87 C 8.1 km/h
1991 09-01-2015 00:45:00 6.6 C 6.72 g/m*3 4.99 C 8.1 km/h
1992 09-01-2015 00:50:00 6.4 C 6.63 g/m*3 6.4 C 4.8 km/h
1993 09-01-2015 00:55:00 6.3 C 6.66 g/m*3 3.96 C 11.3 km/h
1994 09-01-2015 01:00:00 6.3 C 6.59 g/m*3 5.1 C 6.4 km/h
1995 09-01-2015 01:05:00 6.3 C 6.59 g/m*3 4.64 C 8.1 km/h
1996 09-01-2015 01:10:00 6.2 C 6.62 g/m*3 4.15 C 9.7 km/h
1997 09-01-2015 01:15:00 6.2 C 6.62 g/m*3 3.84 C 11.3 km/h
1998 09-01-2015 01:20:00 6.2 C 6.62 g/m*3 2.86 C 17.7 km/h
1999 09-01-2015 01:25:00 6.3 C 6.66 g/m*3 3.96 C 11.3 km/h
2000 09-01-2015 01:30:00 6.5 C 6.75 g/m*3 4.51 C 9.7 km/h
Sensor: Nr:Datum:Temp:Abs-Feuchte:Windchill:Wind:
Aussen-T/F 2001 09-01-2015 01:35:00 6.6 C 6.72 g/m*3 3.17 C 19.3 km/h
2002 09-01-2015 01:40:00 6.7 C 6.76 g/m*3 3.29 C 19.3 km/h
2003 09-01-2015 01:45:00 6.7 C 6.69 g/m*3 4.44 C 11.3 km/h
2004 09-01-2015 01:50:00 6.7 C 6.69 g/m*3 5.11 C 8.1 km/h
2005 09-01-2015 01:55:00 6.7 C 6.69 g/m*3 3.92 C 14.5 km/h
2006 09-01-2015 02:00:00 6.7 C 6.69 g/m*3 5.11 C 8.1 km/h
2007 09-01-2015 02:05:00 6.7 C 6.69 g/m*3 5.11 C 8.1 km/h
2008 09-01-2015 02:10:00 6.6 C 6.64 g/m*3 5.44 C 6.4 km/h
2009 09-01-2015 02:15:00 6.5 C 6.6 g/m*3 5.33 C 6.4 km/h
2010 09-01-2015 02:20:00 6.3 C 6.59 g/m*3 5.1 C 6.4 km/h
2011 09-01-2015 02:25:00 6.4 C 6.63 g/m*3 5.21 C 6.4 km/h
2012 09-01-2015 02:30:00 6.3 C 6.59 g/m*3 3.43 C 14.5 km/h
2013 09-01-2015 02:35:00 6.3 C 6.59 g/m*3 5.1 C 6.4 km/h
2014 09-01-2015 02:40:00 6.3 C 6.66 g/m*3 5.1 C 6.4 km/h
2015 09-01-2015 02:45:00 6.3 C 6.66 g/m*3 5.1 C 6.4 km/h
2016 09-01-2015 02:50:00 6.3 C 6.66 g/m*3 5.1 C 6.4 km/h
2017 09-01-2015 02:55:00 6.4 C 6.71 g/m*3 5.21 C 6.4 km/h
2018 09-01-2015 03:00:00 6.4 C 6.71 g/m*3 5.21 C 6.4 km/h
2019 09-01-2015 03:05:00 6.7 C 6.76 g/m*3 4.17 C 12.9 km/h
2020 09-01-2015 03:10:00 7 C 6.9 g/m*3 5.46 C 8.1 km/h
2021 09-01-2015 03:15:00 7.2 C 6.83 g/m*3 3.92 C 19.3 km/h
2022 09-01-2015 03:20:00 7.3 C 6.87 g/m*3 4.66 C 14.5 km/h
2023 09-01-2015 03:25:00 7.4 C 6.84 g/m*3 5.02 C 12.9 km/h
2024 09-01-2015 03:30:00 7.4 C 6.84 g/m*3 4.56 C 16.1 km/h
2025 09-01-2015 03:35:00 7.4 C 6.84 g/m*3 4.78 C 14.5 km/h
Sensor: Nr:Datum:Temp:Abs-Feuchte:Windchill:Wind:
Aussen-T/F 2026 09-01-2015 03:40:00 7.5 C 6.88 g/m*3 5.41 C 11.3 km/h
2027 09-01-2015 03:45:00 7.5 C 6.88 g/m*3 4.9 C 14.5 km/h
2028 09-01-2015 03:50:00 7.5 C 6.88 g/m*3 6.48 C 6.4 km/h
2029 09-01-2015 03:55:00 7.5 C 6.88 g/m*3 6.48 C 6.4 km/h
2030 09-01-2015 04:00:00 7.4 C 6.92 g/m*3 7.4 C 4.8 km/h
2031 09-01-2015 04:05:00 7.4 C 6.92 g/m*3 5.93 C 8.1 km/h
2032 09-01-2015 04:10:00 7.4 C 6.92 g/m*3 7.4 C 4.8 km/h
2033 09-01-2015 04:15:00 7.4 C 6.92 g/m*3 6.37 C 6.4 km/h
2034 09-01-2015 04:20:00 7.4 C 6.92 g/m*3 4.36 C 17.7 km/h
2035 09-01-2015 04:25:00 7.5 C 6.96 g/m*3 6.05 C 8.1 km/h
2036 09-01-2015 04:30:00 7.5 C 6.96 g/m*3 6.05 C 8.1 km/h
2037 09-01-2015 04:35:00 7.4 C 6.92 g/m*3 5.93 C 8.1 km/h
2038 09-01-2015 04:40:00 7.4 C 7 g/m*3 7.4 C 4.8 km/h
2039 09-01-2015 04:45:00 7.3 C 7.03 g/m*3 7.3 C 1.6 km/h
2040 09-01-2015 04:50:00 7.2 C 6.99 g/m*3 5.69 C 8.1 km/h
2041 09-01-2015 04:55:00 7.2 C 6.99 g/m*3 7.2 C 1.6 km/h
2042 09-01-2015 05:00:00 7.2 C 6.99 g/m*3 7.2 C 3.2 km/h
2043 09-01-2015 05:05:00 7.2 C 6.99 g/m*3 5.69 C 8.1 km/h
2044 09-01-2015 05:10:00 7.2 C 6.99 g/m*3 5.69 C 8.1 km/h
2045 09-01-2015 05:15:00 7.3 C 6.95 g/m*3 6.25 C 6.4 km/h
2046 09-01-2015 05:20:00 7.4 C 7 g/m*3 7.4 C 4.8 km/h
2047 09-01-2015 05:25:00 7.6 C 7.01 g/m*3 5.26 C 12.9 km/h
2048 09-01-2015 05:30:00 7.6 C 6.93 g/m*3 5.02 C 14.5 km/h
2049 09-01-2015 05:35:00 7.7 C 6.97 g/m*3 6.28 C 8.1 km/h
2050 09-01-2015 05:40:00 7.7 C 6.89 g/m*3 5.15 C 14.5 km/h
Sensor: Nr:Datum:Temp:Abs-Feuchte:Windchill:Wind:
Aussen-T/F 2051 09-01-2015 05:45:00 7.8 C 6.94 g/m*3 5.77 C 11.3 km/h
2052 09-01-2015 05:50:00 7.7 C 6.89 g/m*3 5.65 C 11.3 km/h
2053 09-01-2015 05:55:00 7.7 C 6.89 g/m*3 5.94 C 9.7 km/h
2054 09-01-2015 06:00:00 7.7 C 6.89 g/m*3 6.71 C 6.4 km/h
2055 09-01-2015 06:05:00 7.7 C 6.89 g/m*3 4.93 C 16.1 km/h
2056 09-01-2015 06:10:00 7.8 C 6.86 g/m*3 5.06 C 16.1 km/h
2057 09-01-2015 06:15:00 7.9 C 6.9 g/m*3 4.8 C 19.3 km/h
2058 09-01-2015 06:20:00 8.1 C 6.91 g/m*3 4.58 C 24.1 km/h
2059 09-01-2015 06:25:00 8.1 C 6.91 g/m*3 5.43 C 16.1 km/h
2060 09-01-2015 06:30:00 8.1 C 6.91 g/m*3 4.44 C 25.7 km/h
2061 09-01-2015 06:35:00 8.1 C 6.91 g/m*3 5.05 C 19.3 km/h
2062 09-01-2015 06:40:00 8.2 C 6.95 g/m*3 4.86 C 22.5 km/h
2063 09-01-2015 06:45:00 8.2 C 6.95 g/m*3 5.18 C 19.3 km/h
2064 09-01-2015 06:50:00 8.2 C 6.95 g/m*3 5.01 C 20.9 km/h
2065 09-01-2015 06:55:00 8.2 C 6.95 g/m*3 5.36 C 17.7 km/h
2066 09-01-2015 07:00:00 8.2 C 6.95 g/m*3 5.01 C 20.9 km/h
2067 09-01-2015 07:05:00 8.3 C 6.91 g/m*3 4.98 C 22.5 km/h
2068 09-01-2015 07:10:00 8.3 C 6.91 g/m*3 5.89 C 14.5 km/h
2069 09-01-2015 07:15:00 8.3 C 6.91 g/m*3 6.12 C 12.9 km/h
2070 09-01-2015 07:20:00 8.4 C 6.96 g/m*3 5.8 C 16.1 km/h
2071 09-01-2015 07:25:00 8.4 C 6.96 g/m*3 5.27 C 20.9 km/h
2072 09-01-2015 07:30:00 8.4 C 7.04 g/m*3 5.8 C 16.1 km/h
2073 09-01-2015 07:35:00 8.4 C 7.04 g/m*3 5.61 C 17.7 km/h
2074 09-01-2015 07:40:00 8.4 C 7.04 g/m*3 5.43 C 19.3 km/h
2075 09-01-2015 07:45:00 8.4 C 7.04 g/m*3 6.01 C 14.5 km/h
Sensor: Nr:Datum:Temp:Abs-Feuchte:Windchill:Wind:
Aussen-T/F 2076 09-01-2015 07:50:00 8.5 C 7.09 g/m*3 5.73 C 17.7 km/h
2077 09-01-2015 07:55:00 8.6 C 7.13 g/m*3 5.86 C 17.7 km/h
2078 09-01-2015 08:00:00 8.6 C 7.05 g/m*3 5.22 C 24.1 km/h
2079 09-01-2015 08:05:00 8.7 C 7.09 g/m*3 5.98 C 17.7 km/h
2080 09-01-2015 08:10:00 8.7 C 7.09 g/m*3 5.81 C 19.3 km/h
2081 09-01-2015 08:15:00 8.7 C 7.09 g/m*3 6.17 C 16.1 km/h
2082 09-01-2015 08:20:00 8.7 C 7.09 g/m*3 5.65 C 20.9 km/h
2083 09-01-2015 08:25:00 8.7 C 7.09 g/m*3 5.65 C 20.9 km/h
2084 09-01-2015 08:30:00 8.7 C 7.09 g/m*3 5.81 C 19.3 km/h
2085 09-01-2015 08:35:00 8.7 C 7.09 g/m*3 5.35 C 24.1 km/h
2086 09-01-2015 08:40:00 8.8 C 7.14 g/m*3 5.77 C 20.9 km/h
2087 09-01-2015 08:45:00 8.8 C 7.14 g/m*3 5.34 C 25.7 km/h
2088 09-01-2015 08:50:00 8.8 C 7.14 g/m*3 5.48 C 24.1 km/h
2089 09-01-2015 08:55:00 8.9 C 7.18 g/m*3 7.09 C 11.3 km/h
2090 09-01-2015 09:00:00 8.9 C 7.18 g/m*3 5.75 C 22.5 km/h
2091 09-01-2015 09:05:00 9 C 7.14 g/m*3 5.34 C 29 km/h
2092 09-01-2015 09:10:00 9.1 C 7.19 g/m*3 5.86 C 24.1 km/h
2093 09-01-2015 09:15:00 9.1 C 7.19 g/m*3 5.86 C 24.1 km/h
2094 09-01-2015 09:20:00 9.1 C 7.19 g/m*3 6.67 C 16.1 km/h
2095 09-01-2015 09:25:00 9.1 C 7.28 g/m*3 6.15 C 20.9 km/h
2096 09-01-2015 09:30:00 9.1 C 7.28 g/m*3 6.87 C 14.5 km/h
2097 09-01-2015 09:35:00 9.1 C 7.28 g/m*3 5.25 C 32.2 km/h
2098 09-01-2015 09:40:00 9.1 C 7.28 g/m*3 7.33 C 11.3 km/h
2099 09-01-2015 09:45:00 9.1 C 7.28 g/m*3 6.67 C 16.1 km/h
2100 09-01-2015 09:50:00 9.1 C 7.28 g/m*3 5.86 C 24.1 km/h
Sensor: Nr:Datum:Temp:Abs-Feuchte:Windchill:Wind:
Aussen-T/F 2101 09-01-2015 09:55:00 9.1 C 7.28 g/m*3 6.48 C 17.7 km/h
2102 09-01-2015 10:00:00 9 C 7.32 g/m*3 6.03 C 20.9 km/h
2103 09-01-2015 10:05:00 9 C 7.32 g/m*3 6.36 C 17.7 km/h
2104 09-01-2015 10:10:00 9 C 7.32 g/m*3 6.36 C 17.7 km/h
2105 09-01-2015 10:15:00 9 C 7.32 g/m*3 5.6 C 25.7 km/h
2106 09-01-2015 10:20:00 8.9 C 7.36 g/m*3 6.62 C 14.5 km/h
2107 09-01-2015 10:25:00 8.9 C 7.36 g/m*3 6.42 C 16.1 km/h
2108 09-01-2015 10:30:00 8.8 C 7.31 g/m*3 6.3 C 16.1 km/h
2109 09-01-2015 10:35:00 8.9 C 7.36 g/m*3 5.21 C 29 km/h
2110 09-01-2015 10:40:00 8.9 C 7.36 g/m*3 5.75 C 22.5 km/h
2111 09-01-2015 10:45:00 8.9 C 7.36 g/m*3 5.1 C 30.6 km/h
2112 09-01-2015 10:50:00 8.9 C 7.36 g/m*3 5.9 C 20.9 km/h
2113 09-01-2015 10:55:00 8.9 C 7.36 g/m*3 5.33 C 27.4 km/h
2114 09-01-2015 11:00:00 9 C 7.41 g/m*3 5.87 C 22.5 km/h
2115 09-01-2015 11:05:00 9.1 C 7.45 g/m*3 6 C 22.5 km/h
2116 09-01-2015 11:10:00 9.1 C 7.36 g/m*3 5.25 C 32.2 km/h
2117 09-01-2015 11:15:00 9.1 C 7.45 g/m*3 5.47 C 29 km/h
2118 09-01-2015 11:20:00 9.1 C 7.45 g/m*3 5.59 C 27.4 km/h
2119 09-01-2015 11:25:00 9.2 C 7.5 g/m*3 5.27 C 33.8 km/h
2120 09-01-2015 11:30:00 9.2 C 7.5 g/m*3 6.44 C 19.3 km/h
2121 09-01-2015 11:35:00 9.2 C 7.5 g/m*3 6.28 C 20.9 km/h
2122 09-01-2015 11:40:00 9.2 C 7.5 g/m*3 5.6 C 29 km/h
2123 09-01-2015 11:45:00 9.2 C 7.5 g/m*3 5.6 C 29 km/h
2124 09-01-2015 11:50:00 9.2 C 7.59 g/m*3 5.17 C 35.4 km/h
2125 09-01-2015 11:55:00 9.3 C 7.64 g/m*3 5.98 C 25.7 km/h
Sensor: Nr:Datum:Temp:Abs-Feuchte:Windchill:Wind:
Aussen-T/F 2126 09-01-2015 12:00:00 9.3 C 7.64 g/m*3 5.41 C 33.8 km/h
2127 09-01-2015 12:05:00 9.3 C 7.64 g/m*3 5.73 C 29 km/h
2128 09-01-2015 12:10:00 9.3 C 7.64 g/m*3 5.98 C 25.7 km/h
2129 09-01-2015 12:15:00 9.3 C 7.64 g/m*3 5.62 C 30.6 km/h
2130 09-01-2015 12:20:00 9.3 C 7.64 g/m*3 5.12 C 38.6 km/h
2131 09-01-2015 12:25:00 9.3 C 7.73 g/m*3 5.03 C 40.2 km/h
2132 09-01-2015 12:30:00 9.3 C 7.73 g/m*3 5.98 C 25.7 km/h
2133 09-01-2015 12:35:00 9.4 C 7.78 g/m*3 5.86 C 29 km/h
2134 09-01-2015 12:40:00 9.4 C 7.78 g/m*3 6.38 C 22.5 km/h
2135 09-01-2015 12:45:00 9.4 C 7.78 g/m*3 6.38 C 22.5 km/h
2136 09-01-2015 12:50:00 9.4 C 7.78 g/m*3 6.25 C 24.1 km/h
2137 09-01-2015 12:55:00 9.4 C 7.78 g/m*3 5.98 C 27.4 km/h
2138 09-01-2015 13:00:00 9.5 C 7.83 g/m*3 5.57 C 35.4 km/h
2139 09-01-2015 13:05:00 9.6 C 7.97 g/m*3 6.5 C 24.1 km/h
2140 09-01-2015 13:10:00 9.6 C 7.97 g/m*3 5.8 C 33.8 km/h
2141 09-01-2015 13:15:00 9.6 C 7.97 g/m*3 6.5 C 24.1 km/h
2142 09-01-2015 13:20:00 9.7 C 7.93 g/m*3 5.93 C 33.8 km/h
2143 09-01-2015 13:25:00 9.7 C 8.02 g/m*3 5.93 C 33.8 km/h
2144 09-01-2015 13:30:00 9.7 C 8.02 g/m*3 6.25 C 29 km/h
2145 09-01-2015 13:35:00 9.7 C 8.02 g/m*3 6.77 C 22.5 km/h
2146 09-01-2015 13:40:00 9.8 C 8.07 g/m*3 6.89 C 22.5 km/h
2147 09-01-2015 13:45:00 9.8 C 8.07 g/m*3 6.38 C 29 km/h
2148 09-01-2015 13:50:00 9.8 C 8.07 g/m*3 6.5 C 27.4 km/h
2149 09-01-2015 13:55:00 9.9 C 8.12 g/m*3 6.89 C 24.1 km/h
2150 09-01-2015 14:00:00 9.9 C 8.12 g/m*3 7.16 C 20.9 km/h
Sensor: Nr:Datum:Temp:Abs-Feuchte:Windchill:Wind:
Aussen-T/F 2151 09-01-2015 14:05:00 10.1 C 8.23 g/m*3 6.77 C 29 km/h
2152 09-01-2015 14:10:00 10.1 C 8.23 g/m*3 7.28 C 22.5 km/h
2153 09-01-2015 14:15:00 10.2 C 8.28 g/m*3 7.4 C 22.5 km/h
2154 09-01-2015 14:20:00 10.2 C 8.28 g/m*3 6.8 C 30.6 km/h
2155 09-01-2015 14:25:00 10.3 C 8.33 g/m*3 6.93 C 30.6 km/h
2156 09-01-2015 14:30:00 10.3 C 8.33 g/m*3 7.98 C 17.7 km/h
2157 09-01-2015 14:35:00 10.4 C 8.38 g/m*3 7.53 C 24.1 km/h
2158 09-01-2015 14:40:00 10.5 C 8.44 g/m*3 6.99 C 33.8 km/h
2159 09-01-2015 14:45:00 10.6 C 8.49 g/m*3 8.05 C 20.9 km/h
2160 09-01-2015 14:50:00 10.6 C 8.49 g/m*3 7.54 C 27.4 km/h
2161 09-01-2015 14:55:00 10.8 C 8.5 g/m*3 8.17 C 22.5 km/h
2162 09-01-2015 15:00:00 10.8 C 8.5 g/m*3 8.04 C 24.1 km/h
2163 09-01-2015 15:05:00 10.9 C 8.55 g/m*3 8.43 C 20.9 km/h
2164 09-01-2015 15:10:00 11.1 C 8.66 g/m*3 11.1 C 27.4 km/h
2165 09-01-2015 15:15:00 11.2 C 8.62 g/m*3 11.2 C 27.4 km/h
2166 09-01-2015 15:20:00 11.2 C 8.62 g/m*3 11.2 C 24.1 km/h
2167 09-01-2015 15:25:00 11.3 C 8.67 g/m*3 11.3 C 25.7 km/h
2168 09-01-2015 15:30:00 11.3 C 8.67 g/m*3 11.3 C 16.1 km/h
2169 09-01-2015 15:35:00 11.3 C 8.67 g/m*3 11.3 C 37 km/h
2170 09-01-2015 15:40:00 11.3 C 8.57 g/m*3 11.3 C 19.3 km/h
2171 09-01-2015 15:45:00 11.4 C 8.62 g/m*3 11.4 C 25.7 km/h
2172 09-01-2015 15:50:00 11.4 C 8.62 g/m*3 11.4 C 20.9 km/h
2173 09-01-2015 15:55:00 11.5 C 8.68 g/m*3 11.5 C 27.4 km/h
2174 09-01-2015 16:00:00 11.5 C 8.68 g/m*3 11.5 C 27.4 km/h
2175 09-01-2015 16:05:00 11.6 C 8.63 g/m*3 11.6 C 32.2 km/h
Sensor: Nr:Datum:Temp:Abs-Feuchte:Windchill:Wind:
Aussen-T/F 2176 09-01-2015 16:10:00 11.6 C 8.63 g/m*3 11.6 C 27.4 km/h
2177 09-01-2015 16:15:00 11.6 C 8.63 g/m*3 11.6 C 22.5 km/h
2178 09-01-2015 16:20:00 11.6 C 8.63 g/m*3 11.6 C 24.1 km/h
2179 09-01-2015 16:25:00 11.6 C 8.63 g/m*3 11.6 C 29 km/h
2180 09-01-2015 16:30:00 11.7 C 8.68 g/m*3 11.7 C 22.5 km/h
2181 09-01-2015 16:35:00 11.7 C 8.68 g/m*3 11.7 C 16.1 km/h
2182 09-01-2015 16:40:00 11.7 C 8.58 g/m*3 11.7 C 14.5 km/h
2183 09-01-2015 16:45:00 11.7 C 8.58 g/m*3 11.7 C 20.9 km/h
2184 09-01-2015 16:50:00 11.7 C 8.58 g/m*3 11.7 C 20.9 km/h
2185 09-01-2015 16:55:00 11.7 C 8.58 g/m*3 11.7 C 22.5 km/h
2186 09-01-2015 17:00:00 11.7 C 8.58 g/m*3 11.7 C 27.4 km/h
2187 09-01-2015 17:05:00 11.8 C 8.53 g/m*3 11.8 C 19.3 km/h
2188 09-01-2015 17:10:00 11.8 C 8.63 g/m*3 11.8 C 12.9 km/h
2189 09-01-2015 17:15:00 11.8 C 8.63 g/m*3 11.8 C 20.9 km/h
2190 09-01-2015 17:20:00 11.7 C 8.58 g/m*3 11.7 C 12.9 km/h
2191 09-01-2015 17:25:00 11.7 C 8.58 g/m*3 11.7 C 16.1 km/h
2192 09-01-2015 17:30:00 11.7 C 8.58 g/m*3 11.7 C 16.1 km/h
2193 09-01-2015 17:35:00 11.7 C 8.58 g/m*3 11.7 C 20.9 km/h
2194 09-01-2015 17:40:00 11.7 C 8.58 g/m*3 11.7 C 16.1 km/h
2195 09-01-2015 17:45:00 11.7 C 8.58 g/m*3 11.7 C 17.7 km/h
2196 09-01-2015 17:50:00 11.7 C 8.47 g/m*3 11.7 C 17.7 km/h
2197 09-01-2015 17:55:00 11.7 C 8.47 g/m*3 11.7 C 17.7 km/h
2198 09-01-2015 18:00:00 11.7 C 8.47 g/m*3 11.7 C 11.3 km/h
2199 09-01-2015 18:05:00 11.7 C 8.37 g/m*3 11.7 C 14.5 km/h
2200 09-01-2015 18:10:00 11.8 C 8.31 g/m*3 11.8 C 17.7 km/h
Sensor: Nr:Datum:Temp:Abs-Feuchte:Windchill:Wind:
Aussen-T/F 2201 09-01-2015 18:15:00 11.8 C 8.31 g/m*3 11.8 C 20.9 km/h
2202 09-01-2015 18:20:00 11.8 C 8.31 g/m*3 11.8 C 9.7 km/h
2203 09-01-2015 18:25:00 11.8 C 8.21 g/m*3 11.8 C 14.5 km/h
2204 09-01-2015 18:30:00 11.8 C 8.1 g/m*3 11.8 C 16.1 km/h
2205 09-01-2015 18:35:00 11.7 C 7.84 g/m*3 11.7 C 14.5 km/h
2206 09-01-2015 18:40:00 11.4 C 7.8 g/m*3 11.4 C 17.7 km/h
2207 09-01-2015 18:45:00 11.3 C 7.96 g/m*3 11.3 C 19.3 km/h
2208 09-01-2015 18:50:00 11.1 C 7.86 g/m*3 11.1 C 9.7 km/h
2209 09-01-2015 18:55:00 11.1 C 8.26 g/m*3 11.1 C 6.4 km/h
2210 09-01-2015 19:00:00 10.7 C 8.05 g/m*3 10.7 C 4.8 km/h
2211 09-01-2015 19:05:00 10.7 C 8.05 g/m*3 10.7 C 4.8 km/h
2212 09-01-2015 19:10:00 10.7 C 8.05 g/m*3 10.18 C 6.4 km/h
2213 09-01-2015 21:15:00 10 C 9.02 g/m*3 8.19 C 12.9 km/h
2214 09-01-2015 21:20:00 10.2 C 9.14 g/m*3 7.86 C 17.7 km/h
2215 09-01-2015 21:25:00 10.3 C 9.1 g/m*3 7.82 C 19.3 km/h
2216 09-01-2015 21:30:00 10.5 C 9.21 g/m*3 8.8 C 12.9 km/h
2217 09-01-2015 21:35:00 10.6 C 9.27 g/m*3 8.53 C 16.1 km/h
2218 09-01-2015 21:40:00 10.7 C 9.33 g/m*3 8.84 C 14.5 km/h
2219 09-01-2015 21:45:00 10.9 C 9.35 g/m*3 9.08 C 14.5 km/h
2220 09-01-2015 21:50:00 10.9 C 9.35 g/m*3 9.08 C 14.5 km/h
2221 09-01-2015 21:55:00 11 C 9.41 g/m*3 8.7 C 19.3 km/h
2222 09-01-2015 22:00:00 11.1 C 9.47 g/m*3 11.1 C 12.9 km/h
2223 09-01-2015 22:05:00 11.2 C 9.53 g/m*3 11.2 C 22.5 km/h
2224 09-01-2015 22:10:00 11.3 C 9.59 g/m*3 11.3 C 16.1 km/h
2225 09-01-2015 22:15:00 11.5 C 9.61 g/m*3 11.5 C 20.9 km/h
Sensor: Nr:Datum:Temp:Abs-Feuchte:Windchill:Wind:
Aussen-T/F 2226 09-01-2015 22:20:00 11.7 C 9.73 g/m*3 11.7 C 17.7 km/h
2227 09-01-2015 22:25:00 11.7 C 9.73 g/m*3 11.7 C 16.1 km/h
2228 09-01-2015 22:30:00 11.7 C 9.73 g/m*3 11.7 C 19.3 km/h
2229 09-01-2015 22:35:00 11.8 C 9.79 g/m*3 11.8 C 16.1 km/h
2230 09-01-2015 22:40:00 11.8 C 9.79 g/m*3 11.8 C 19.3 km/h
2231 09-01-2015 22:45:00 11.8 C 9.79 g/m*3 11.8 C 14.5 km/h
2232 09-01-2015 22:50:00 11.9 C 9.85 g/m*3 11.9 C 25.7 km/h
2233 09-01-2015 22:55:00 11.9 C 9.85 g/m*3 11.9 C 20.9 km/h
2234 09-01-2015 23:00:00 12 C 9.91 g/m*3 12 C 24.1 km/h
2235 09-01-2015 23:05:00 12.1 C 9.97 g/m*3 12.1 C 25.7 km/h
2236 09-01-2015 23:10:00 12.2 C 9.93 g/m*3 12.2 C 17.7 km/h
2237 09-01-2015 23:15:00 12.3 C 9.99 g/m*3 12.3 C 25.7 km/h
2238 09-01-2015 23:20:00 12.4 C 9.94 g/m*3 12.4 C 29 km/h
2239 09-01-2015 23:25:00 12.6 C 10.07 g/m*3 12.6 C 16.1 km/h
2240 09-01-2015 23:30:00 12.6 C 10.07 g/m*3 12.6 C 17.7 km/h
2241 09-01-2015 23:35:00 12.8 C 10.08 g/m*3 12.8 C 33.8 km/h
2242 09-01-2015 23:40:00 12.9 C 10.14 g/m*3 12.9 C 25.7 km/h
2243 09-01-2015 23:45:00 12.9 C 10.14 g/m*3 12.9 C 27.4 km/h
2244 09-01-2015 23:50:00 13 C 10.21 g/m*3 13 C 29 km/h
2245 09-01-2015 23:55:00 13.1 C 10.27 g/m*3 13.1 C 38.6 km/h
2246 10-01-2015 00:00:00 13 C 10.21 g/m*3 13 C 22.5 km/h
2247 10-01-2015 00:05:00 13 C 10.21 g/m*3 13 C 22.5 km/h
2248 10-01-2015 00:10:00 12.9 C 10.26 g/m*3 12.9 C 20.9 km/h
2249 10-01-2015 00:15:00 12.9 C 10.26 g/m*3 12.9 C 25.7 km/h
2250 10-01-2015 00:20:00 12.9 C 10.26 g/m*3 12.9 C 25.7 km/h
Sensor: Nr:Datum:Temp:Abs-Feuchte:Windchill:Wind:
Aussen-T/F 2251 10-01-2015 00:25:00 12.9 C 10.26 g/m*3 12.9 C 20.9 km/h
2252 10-01-2015 00:30:00 12.9 C 10.26 g/m*3 12.9 C 19.3 km/h
2253 10-01-2015 00:35:00 12.9 C 10.26 g/m*3 12.9 C 25.7 km/h
2254 10-01-2015 00:40:00 12.9 C 10.26 g/m*3 12.9 C 20.9 km/h
2255 10-01-2015 00:45:00 12.9 C 10.26 g/m*3 12.9 C 11.3 km/h
2256 10-01-2015 00:50:00 12.9 C 10.26 g/m*3 12.9 C 12.9 km/h
2257 10-01-2015 00:55:00 12.9 C 10.26 g/m*3 12.9 C 14.5 km/h
2258 10-01-2015 01:00:00 13.2 C 10.33 g/m*3 13.2 C 16.1 km/h
2259 10-01-2015 01:05:00 13.2 C 10.33 g/m*3 13.2 C 14.5 km/h
2260 10-01-2015 01:10:00 13.3 C 10.4 g/m*3 13.3 C 17.7 km/h
2261 10-01-2015 01:15:00 13.3 C 10.4 g/m*3 13.3 C 17.7 km/h
2262 10-01-2015 01:20:00 13.3 C 10.4 g/m*3 13.3 C 20.9 km/h
2263 10-01-2015 01:25:00 13.4 C 10.46 g/m*3 13.4 C 19.3 km/h
2264 10-01-2015 01:30:00 13.4 C 10.46 g/m*3 13.4 C 14.5 km/h
2265 10-01-2015 02:40:00 14 C 12.06 g/m*3 14 C 17.7 km/h
2266 10-01-2015 02:45:00 14 C 12.06 g/m*3 14 C 8.1 km/h
2267 10-01-2015 04:15:00 15.2 C 10.9 g/m*3 15.2 C 16.1 km/h
2268 10-01-2015 04:20:00 15.2 C 10.9 g/m*3 15.2 C 17.7 km/h
2269 10-01-2015 04:25:00 15.2 C 10.9 g/m*3 15.2 C 19.3 km/h
2270 10-01-2015 04:30:00 15.3 C 10.97 g/m*3 15.3 C 16.1 km/h
2271 10-01-2015 04:35:00 15.3 C 10.97 g/m*3 15.3 C 20.9 km/h
2272 10-01-2015 04:40:00 15.3 C 10.97 g/m*3 15.3 C 22.5 km/h
2273 10-01-2015 04:45:00 15.3 C 10.97 g/m*3 15.3 C 17.7 km/h
2274 10-01-2015 04:50:00 15.3 C 10.71 g/m*3 15.3 C 22.5 km/h
2275 10-01-2015 04:55:00 15.4 C 10.77 g/m*3 15.4 C 14.5 km/h
Sensor: Nr:Datum:Temp:Abs-Feuchte:Windchill:Wind:
Aussen-T/F 2276 10-01-2015 05:00:00 15.4 C 10.77 g/m*3 15.4 C 29 km/h
2277 10-01-2015 05:05:00 15.4 C 10.77 g/m*3 15.4 C 22.5 km/h
2278 10-01-2015 05:10:00 15.4 C 10.77 g/m*3 15.4 C 14.5 km/h
2279 10-01-2015 05:15:00 15.3 C 10.84 g/m*3 15.3 C 20.9 km/h
2280 10-01-2015 05:20:00 15.3 C 10.84 g/m*3 15.3 C 22.5 km/h
2281 10-01-2015 05:25:00 15.3 C 10.84 g/m*3 15.3 C 17.7 km/h
2282 10-01-2015 05:30:00 15.3 C 10.84 g/m*3 15.3 C 22.5 km/h
2283 10-01-2015 05:35:00 15.3 C 10.97 g/m*3 15.3 C 22.5 km/h
2284 10-01-2015 05:40:00 15.2 C 10.9 g/m*3 15.2 C 24.1 km/h
2285 10-01-2015 05:45:00 15.1 C 10.97 g/m*3 15.1 C 32.2 km/h
2286 10-01-2015 05:50:00 15 C 11.03 g/m*3 15 C 20.9 km/h
2287 10-01-2015 05:55:00 14.9 C 10.96 g/m*3 14.9 C 14.5 km/h
2288 10-01-2015 06:00:00 14.8 C 11.02 g/m*3 14.8 C 27.4 km/h
2289 10-01-2015 06:05:00 14.8 C 11.02 g/m*3 14.8 C 14.5 km/h
2290 10-01-2015 06:35:00 14.7 C 12.59 g/m*3 14.7 C 22.5 km/h
2291 10-01-2015 06:40:00 14.7 C 10.95 g/m*3 14.7 C 25.7 km/h
2292 10-01-2015 06:45:00 14.8 C 11.02 g/m*3 14.8 C 24.1 km/h
2293 10-01-2015 06:50:00 14.8 C 10.89 g/m*3 14.8 C 22.5 km/h
2294 10-01-2015 06:55:00 14.9 C 10.83 g/m*3 14.9 C 30.6 km/h
2295 10-01-2015 07:00:00 15 C 10.64 g/m*3 15 C 30.6 km/h
2296 10-01-2015 07:05:00 15.1 C 10.45 g/m*3 15.1 C 32.2 km/h
2297 10-01-2015 07:10:00 15.1 C 10.32 g/m*3 15.1 C 32.2 km/h
2298 10-01-2015 07:15:00 15.1 C 10.32 g/m*3 15.1 C 17.7 km/h
2299 10-01-2015 07:20:00 15.1 C 10.32 g/m*3 15.1 C 19.3 km/h
2300 10-01-2015 07:25:00 14.7 C 10.45 g/m*3 14.7 C 12.9 km/h
Sensor: Nr:Datum:Temp:Abs-Feuchte:Windchill:Wind:
Aussen-T/F 2301 10-01-2015 07:30:00 14.7 C 10.45 g/m*3 14.7 C 20.9 km/h
2302 10-01-2015 07:35:00 14.7 C 10.58 g/m*3 14.7 C 16.1 km/h
2303 10-01-2015 07:40:00 14.6 C 10.51 g/m*3 14.6 C 22.5 km/h
2304 10-01-2015 07:45:00 14.6 C 10.51 g/m*3 14.6 C 20.9 km/h
2305 10-01-2015 07:50:00 14.6 C 10.39 g/m*3 14.6 C 16.1 km/h
2306 10-01-2015 07:55:00 14.6 C 10.39 g/m*3 14.6 C 22.5 km/h
2307 10-01-2015 08:00:00 14.6 C 10.39 g/m*3 14.6 C 19.3 km/h
2308 10-01-2015 08:05:00 14.6 C 10.39 g/m*3 14.6 C 20.9 km/h
2309 10-01-2015 08:10:00 14.5 C 10.2 g/m*3 14.5 C 22.5 km/h
2310 10-01-2015 08:15:00 14.4 C 10.26 g/m*3 14.4 C 19.3 km/h
2311 10-01-2015 08:20:00 14.5 C 10.2 g/m*3 14.5 C 30.6 km/h
2312 10-01-2015 08:25:00 14.4 C 10.14 g/m*3 14.4 C 19.3 km/h
2313 10-01-2015 08:30:00 14.4 C 10.14 g/m*3 14.4 C 22.5 km/h
2314 10-01-2015 08:35:00 14.5 C 10.2 g/m*3 14.5 C 33.8 km/h
2315 10-01-2015 08:40:00 14.5 C 10.07 g/m*3 14.5 C 27.4 km/h
2316 10-01-2015 08:45:00 14.5 C 10.07 g/m*3 14.5 C 22.5 km/h
2317 10-01-2015 08:50:00 14.4 C 10.01 g/m*3 14.4 C 22.5 km/h
2318 10-01-2015 08:55:00 14.5 C 10.07 g/m*3 14.5 C 24.1 km/h
2319 10-01-2015 09:00:00 14.5 C 10.07 g/m*3 14.5 C 16.1 km/h
2320 10-01-2015 09:05:00 14.6 C 10.14 g/m*3 14.6 C 29 km/h
2321 10-01-2015 09:10:00 14.7 C 10.07 g/m*3 14.7 C 24.1 km/h
2322 10-01-2015 09:15:00 14.7 C 10.07 g/m*3 14.7 C 27.4 km/h
2323 10-01-2015 09:20:00 14.7 C 9.95 g/m*3 14.7 C 33.8 km/h
2324 10-01-2015 09:25:00 14.7 C 9.95 g/m*3 14.7 C 33.8 km/h
2325 10-01-2015 09:30:00 14.7 C 9.95 g/m*3 14.7 C 24.1 km/h
Sensor: Nr:Datum:Temp:Abs-Feuchte:Windchill:Wind:
Aussen-T/F 2326 10-01-2015 09:35:00 14.7 C 9.95 g/m*3 14.7 C 32.2 km/h
2327 10-01-2015 09:40:00 14.7 C 9.95 g/m*3 14.7 C 24.1 km/h
2328 10-01-2015 09:45:00 14.7 C 9.95 g/m*3 14.7 C 19.3 km/h
2329 10-01-2015 09:50:00 14.7 C 9.95 g/m*3 14.7 C 32.2 km/h
2330 10-01-2015 09:55:00 14.7 C 9.95 g/m*3 14.7 C 25.7 km/h
2331 10-01-2015 10:00:00 14.7 C 9.82 g/m*3 14.7 C 19.3 km/h
2332 10-01-2015 10:05:00 14.7 C 9.82 g/m*3 14.7 C 27.4 km/h
2333 10-01-2015 10:10:00 14.7 C 9.82 g/m*3 14.7 C 20.9 km/h
2334 10-01-2015 10:15:00 14.6 C 9.76 g/m*3 14.6 C 20.9 km/h
2335 10-01-2015 10:20:00 14.6 C 9.76 g/m*3 14.6 C 17.7 km/h
2336 10-01-2015 10:25:00 14.6 C 9.76 g/m*3 14.6 C 20.9 km/h
2337 10-01-2015 10:30:00 14.6 C 9.76 g/m*3 14.6 C 22.5 km/h
2338 10-01-2015 10:35:00 14.6 C 9.76 g/m*3 14.6 C 22.5 km/h
2339 10-01-2015 10:40:00 14.6 C 9.76 g/m*3 14.6 C 24.1 km/h
2340 10-01-2015 10:45:00 14.4 C 9.64 g/m*3 14.4 C 22.5 km/h
2341 10-01-2015 10:50:00 14.4 C 9.52 g/m*3 14.4 C 20.9 km/h
2342 10-01-2015 10:55:00 14.5 C 9.58 g/m*3 14.5 C 25.7 km/h
2343 10-01-2015 11:00:00 14.4 C 9.52 g/m*3 14.4 C 24.1 km/h
2344 10-01-2015 11:05:00 14.4 C 9.52 g/m*3 14.4 C 19.3 km/h
2345 10-01-2015 11:10:00 14.4 C 9.52 g/m*3 14.4 C 22.5 km/h
2346 10-01-2015 11:15:00 14.3 C 9.46 g/m*3 14.3 C 17.7 km/h
2347 10-01-2015 11:20:00 14.3 C 9.46 g/m*3 14.3 C 20.9 km/h
2348 10-01-2015 11:25:00 14.3 C 9.46 g/m*3 14.3 C 17.7 km/h
2349 10-01-2015 11:30:00 14.2 C 9.52 g/m*3 14.2 C 17.7 km/h
2350 10-01-2015 11:35:00 14.2 C 9.52 g/m*3 14.2 C 11.3 km/h
Sensor: Nr:Datum:Temp:Abs-Feuchte:Windchill:Wind:
Aussen-T/F 2351 10-01-2015 11:40:00 14.2 C 9.52 g/m*3 14.2 C 17.7 km/h
2352 10-01-2015 11:45:00 14.2 C 9.52 g/m*3 14.2 C 24.1 km/h
2353 10-01-2015 11:50:00 14.2 C 9.52 g/m*3 14.2 C 17.7 km/h
2354 10-01-2015 11:55:00 14.2 C 9.52 g/m*3 14.2 C 14.5 km/h
2355 10-01-2015 12:00:00 14.2 C 9.52 g/m*3 14.2 C 12.9 km/h
2356 10-01-2015 12:05:00 14.2 C 9.52 g/m*3 14.2 C 19.3 km/h
2357 10-01-2015 12:10:00 14.2 C 9.52 g/m*3 14.2 C 19.3 km/h
2358 10-01-2015 12:15:00 14.2 C 9.52 g/m*3 14.2 C 22.5 km/h
2359 10-01-2015 12:20:00 14.3 C 9.46 g/m*3 14.3 C 29 km/h
2360 10-01-2015 12:25:00 14.3 C 9.46 g/m*3 14.3 C 19.3 km/h
2361 10-01-2015 12:30:00 14.4 C 9.52 g/m*3 14.4 C 22.5 km/h
2362 10-01-2015 12:35:00 14.4 C 9.39 g/m*3 14.4 C 29 km/h
2363 10-01-2015 12:40:00 14.4 C 9.39 g/m*3 14.4 C 20.9 km/h
2364 10-01-2015 12:45:00 14.4 C 9.39 g/m*3 14.4 C 22.5 km/h
2365 10-01-2015 12:50:00 14.4 C 9.39 g/m*3 14.4 C 19.3 km/h
2366 10-01-2015 12:55:00 14.2 C 9.4 g/m*3 14.2 C 14.5 km/h
2367 10-01-2015 13:00:00 14.2 C 9.52 g/m*3 14.2 C 16.1 km/h
2368 10-01-2015 13:05:00 14.1 C 9.47 g/m*3 14.1 C 19.3 km/h
2369 10-01-2015 13:10:00 14 C 9.41 g/m*3 14 C 20.9 km/h
2370 10-01-2015 13:15:00 14 C 9.41 g/m*3 14 C 20.9 km/h
2371 10-01-2015 13:20:00 13.9 C 9.35 g/m*3 13.9 C 20.9 km/h
2372 10-01-2015 13:25:00 13.9 C 9.35 g/m*3 13.9 C 14.5 km/h
2373 10-01-2015 13:30:00 13.9 C 9.35 g/m*3 13.9 C 17.7 km/h
2374 10-01-2015 13:35:00 13.9 C 9.35 g/m*3 13.9 C 16.1 km/h
2375 10-01-2015 13:40:00 13.9 C 9.35 g/m*3 13.9 C 16.1 km/h
Sensor: Nr:Datum:Temp:Abs-Feuchte:Windchill:Wind:
Aussen-T/F 2376 10-01-2015 13:45:00 13.9 C 9.35 g/m*3 13.9 C 11.3 km/h
2377 10-01-2015 13:50:00 13.9 C 9.23 g/m*3 13.9 C 22.5 km/h
2378 10-01-2015 13:55:00 14 C 9.29 g/m*3 14 C 20.9 km/h
2379 10-01-2015 14:00:00 14.1 C 9.34 g/m*3 14.1 C 25.7 km/h
2380 10-01-2015 14:05:00 14.1 C 9.34 g/m*3 14.1 C 30.6 km/h
2381 10-01-2015 14:10:00 14 C 9.29 g/m*3 14 C 22.5 km/h
2382 10-01-2015 14:15:00 14 C 9.29 g/m*3 14 C 17.7 km/h
2383 10-01-2015 14:20:00 14 C 9.29 g/m*3 14 C 17.7 km/h
2384 10-01-2015 14:25:00 13.9 C 9.23 g/m*3 13.9 C 12.9 km/h
2385 10-01-2015 14:30:00 13.9 C 9.23 g/m*3 13.9 C 17.7 km/h
2386 10-01-2015 14:35:00 13.9 C 9.35 g/m*3 13.9 C 12.9 km/h
2387 10-01-2015 14:40:00 13.8 C 9.41 g/m*3 13.8 C 14.5 km/h
2388 10-01-2015 14:45:00 13.7 C 9.35 g/m*3 13.7 C 20.9 km/h
2389 10-01-2015 14:50:00 13.7 C 9.35 g/m*3 13.7 C 16.1 km/h
2390 10-01-2015 14:55:00 13.7 C 9.47 g/m*3 13.7 C 11.3 km/h
2391 10-01-2015 15:00:00 13.6 C 9.42 g/m*3 13.6 C 11.3 km/h
2392 10-01-2015 15:05:00 13.6 C 9.42 g/m*3 13.6 C 16.1 km/h
2393 10-01-2015 15:10:00 13.6 C 9.42 g/m*3 13.6 C 19.3 km/h
2394 10-01-2015 15:15:00 13.6 C 9.42 g/m*3 13.6 C 16.1 km/h
2395 10-01-2015 15:55:00 13.2 C 9.53 g/m*3 13.2 C 14.5 km/h
2396 10-01-2015 16:00:00 13.2 C 9.53 g/m*3 13.2 C 17.7 km/h
2397 10-01-2015 16:05:00 13.1 C 9.47 g/m*3 13.1 C 14.5 km/h
2398 10-01-2015 16:10:00 13.1 C 9.59 g/m*3 13.1 C 16.1 km/h
2399 10-01-2015 16:15:00 13 C 9.53 g/m*3 13 C 17.7 km/h
2400 10-01-2015 16:20:00 12.9 C 9.58 g/m*3 12.9 C 19.3 km/h
Sensor: Nr:Datum:Temp:Abs-Feuchte:Windchill:Wind:
Aussen-T/F 2401 10-01-2015 16:25:00 12.9 C 9.58 g/m*3 12.9 C 17.7 km/h
2402 10-01-2015 16:30:00 12.9 C 9.58 g/m*3 12.9 C 16.1 km/h
2403 10-01-2015 16:35:00 12.8 C 9.52 g/m*3 12.8 C 17.7 km/h
2404 10-01-2015 16:40:00 12.7 C 9.46 g/m*3 12.7 C 11.3 km/h
2405 10-01-2015 16:45:00 12.7 C 9.68 g/m*3 12.7 C 17.7 km/h
2406 10-01-2015 16:50:00 12.6 C 9.62 g/m*3 12.6 C 22.5 km/h
2407 10-01-2015 16:55:00 12.6 C 9.62 g/m*3 12.6 C 14.5 km/h
2408 10-01-2015 17:00:00 12.4 C 9.62 g/m*3 12.4 C 20.9 km/h
2409 10-01-2015 17:05:00 12.3 C 9.66 g/m*3 12.3 C 14.5 km/h
2410 10-01-2015 17:10:00 12.3 C 9.66 g/m*3 12.3 C 12.9 km/h
2411 10-01-2015 17:15:00 12.1 C 9.54 g/m*3 12.1 C 14.5 km/h
2412 10-01-2015 17:20:00 12 C 9.7 g/m*3 12 C 16.1 km/h
2413 10-01-2015 17:25:00 11.9 C 9.74 g/m*3 11.9 C 12.9 km/h
2414 10-01-2015 17:30:00 11.8 C 9.58 g/m*3 11.8 C 20.9 km/h
2415 10-01-2015 17:35:00 11.9 C 9.64 g/m*3 11.9 C 12.9 km/h
2416 10-01-2015 17:40:00 12 C 9.59 g/m*3 12 C 14.5 km/h
2417 10-01-2015 17:45:00 12.1 C 9.65 g/m*3 12.1 C 16.1 km/h
2418 10-01-2015 17:50:00 12.1 C 9.65 g/m*3 12.1 C 9.7 km/h
2419 10-01-2015 17:55:00 12.2 C 9.5 g/m*3 12.2 C 20.9 km/h
2420 10-01-2015 18:00:00 12.6 C 9.29 g/m*3 12.6 C 20.9 km/h
2421 10-01-2015 18:05:00 11.8 C 8.42 g/m*3 11.8 C 33.8 km/h
2422 10-01-2015 18:10:00 10.9 C 8.16 g/m*3 8.58 C 19.3 km/h
2423 10-01-2015 18:15:00 10.4 C 8.19 g/m*3 7.8 C 20.9 km/h
2424 10-01-2015 18:20:00 9.9 C 8.03 g/m*3 6.4 C 30.6 km/h
2425 10-01-2015 18:25:00 9.6 C 8.06 g/m*3 7.11 C 17.7 km/h
Sensor: Nr:Datum:Temp:Abs-Feuchte:Windchill:Wind:
Aussen-T/F 2426 10-01-2015 18:30:00 9.6 C 7.97 g/m*3 6.5 C 24.1 km/h
2427 10-01-2015 18:35:00 9.6 C 7.97 g/m*3 7.11 C 17.7 km/h
2428 10-01-2015 18:40:00 9.1 C 7.45 g/m*3 6 C 22.5 km/h
2429 10-01-2015 18:45:00 8.9 C 7.27 g/m*3 5.33 C 27.4 km/h
2430 10-01-2015 18:50:00 8.8 C 7.31 g/m*3 5.08 C 29 km/h
2431 10-01-2015 18:55:00 8.8 C 7.31 g/m*3 6.3 C 16.1 km/h
2432 10-01-2015 19:00:00 8.7 C 7.26 g/m*3 5.98 C 17.7 km/h
2433 10-01-2015 19:05:00 8.7 C 7.26 g/m*3 6.17 C 16.1 km/h
2434 10-01-2015 19:10:00 8.7 C 7.26 g/m*3 5.81 C 19.3 km/h
2435 10-01-2015 19:15:00 8.7 C 7.09 g/m*3 5.98 C 17.7 km/h
2436 10-01-2015 19:20:00 8.7 C 7.01 g/m*3 5.49 C 22.5 km/h
2437 10-01-2015 19:25:00 8.7 C 7.01 g/m*3 6.17 C 16.1 km/h
2438 10-01-2015 20:05:00 8.8 C 8.7 g/m*3 5.62 C 22.5 km/h
2439 10-01-2015 20:10:00 8.8 C 8.7 g/m*3 6.11 C 17.7 km/h
2440 10-01-2015 20:15:00 8.8 C 8.7 g/m*3 6.97 C 11.3 km/h
2441 11-01-2015 01:45:00 5.1 C 6.84 g/m*3 3.71 C 6.4 km/h
2442 11-01-2015 01:50:00 5.1 C 5.27 g/m*3 3.71 C 6.4 km/h
2443 11-01-2015 01:55:00 5 C 5.23 g/m*3 2.72 C 9.7 km/h
2444 11-01-2015 02:00:00 5 C 5.23 g/m*3 3.11 C 8.1 km/h
2445 11-01-2015 02:05:00 5 C 5.23 g/m*3 3.11 C 8.1 km/h
2446 11-01-2015 02:25:00 4.8 C 5.23 g/m*3 4.8 C 4.8 km/h
2447 11-01-2015 02:30:00 4.7 C 5.13 g/m*3 4.7 C 3.2 km/h
2448 11-01-2015 02:35:00 4.5 C 5.13 g/m*3 4.5 C 4.8 km/h
2449 11-01-2015 02:40:00 4.4 C 5.09 g/m*3 4.4 C 4.8 km/h
2450 11-01-2015 02:45:00 4.4 C 5.09 g/m*3 4.4 C 3.2 km/h
Sensor: Nr:Datum:Temp:Abs-Feuchte:Windchill:Wind:
Aussen-T/F 2451 11-01-2015 02:50:00 4.4 C 5.09 g/m*3 4.4 C 4.8 km/h
2452 11-01-2015 02:55:00 4.4 C 5.09 g/m*3 4.4 C 4.8 km/h
2453 11-01-2015 03:00:00 4.3 C 5.06 g/m*3 4.3 C 4.8 km/h
2454 11-01-2015 03:05:00 4.2 C 5.03 g/m*3 4.2 C 4.8 km/h
2455 11-01-2015 03:10:00 4.2 C 5.15 g/m*3 4.2 C 4.8 km/h
2456 11-01-2015 03:15:00 3.8 C 5.14 g/m*3 3.8 C 4.8 km/h
2457 11-01-2015 03:20:00 3.9 C 5.18 g/m*3 3.9 C 3.2 km/h
2458 11-01-2015 03:25:00 3.9 C 5.18 g/m*3 3.9 C 4.8 km/h
2459 11-01-2015 05:45:00 3.4 C 6.11 g/m*3 1.23 C 8.1 km/h
2460 11-01-2015 05:50:00 3.4 C 6.11 g/m*3 1.75 C 6.4 km/h
2461 11-01-2015 08:30:00 3.8 C 6.27 g/m*3 0.35 C 14.5 km/h
2462 11-01-2015 08:35:00 3.8 C 4.83 g/m*3 -1.57 C 30.6 km/h
2463 11-01-2015 08:40:00 3.8 C 4.83 g/m*3 -1.57 C 30.6 km/h
2464 11-01-2015 08:45:00 3.8 C 4.83 g/m*3 0.94 C 11.3 km/h
2465 11-01-2015 08:50:00 4.1 C 4.86 g/m*3 0.72 C 14.5 km/h
2466 11-01-2015 08:55:00 4.2 C 4.9 g/m*3 1.43 C 11.3 km/h
2467 11-01-2015 09:00:00 4.2 C 4.9 g/m*3 1.43 C 11.3 km/h
2468 11-01-2015 09:05:00 4.2 C 4.9 g/m*3 1.77 C 9.7 km/h
2469 11-01-2015 11:15:00 4.9 C 5.47 g/m*3 1.97 C 12.9 km/h
2470 11-01-2015 11:20:00 5 C 5.44 g/m*3 1.15 C 19.3 km/h
2471 11-01-2015 11:25:00 5.1 C 5.4 g/m*3 1.95 C 14.5 km/h
2472 11-01-2015 11:30:00 5.1 C 5.4 g/m*3 1.71 C 16.1 km/h
2473 11-01-2015 11:35:00 5.2 C 5.44 g/m*3 1.83 C 16.1 km/h
2474 11-01-2015 11:40:00 5.2 C 5.44 g/m*3 2.34 C 12.9 km/h
2475 11-01-2015 11:45:00 5.2 C 5.44 g/m*3 1.83 C 16.1 km/h
Sensor: Nr:Datum:Temp:Abs-Feuchte:Windchill:Wind:
Aussen-T/F 2476 11-01-2015 11:50:00 5.2 C 5.37 g/m*3 2.07 C 14.5 km/h
2477 11-01-2015 11:55:00 5.2 C 5.37 g/m*3 1.83 C 16.1 km/h
2478 11-01-2015 12:00:00 5.2 C 5.37 g/m*3 2.07 C 14.5 km/h
2479 11-01-2015 12:05:00 5.2 C 5.37 g/m*3 1.4 C 19.3 km/h
2480 11-01-2015 12:10:00 5.2 C 5.37 g/m*3 2.07 C 14.5 km/h
2481 11-01-2015 12:15:00 5.3 C 5.41 g/m*3 1.96 C 16.1 km/h
2482 11-01-2015 12:20:00 5.5 C 5.41 g/m*3 1.59 C 20.9 km/h
2483 11-01-2015 12:25:00 5.6 C 5.23 g/m*3 1.54 C 22.5 km/h
2484 11-01-2015 12:30:00 5.6 C 5.16 g/m*3 2.57 C 14.5 km/h
2485 11-01-2015 12:35:00 5.6 C 5.16 g/m*3 1.91 C 19.3 km/h
2486 11-01-2015 12:40:00 5.6 C 5.16 g/m*3 1.91 C 19.3 km/h
2487 11-01-2015 12:45:00 5.7 C 5.19 g/m*3 2.24 C 17.7 km/h
2488 11-01-2015 12:50:00 5.7 C 5.19 g/m*3 1.35 C 25.7 km/h
2489 11-01-2015 12:55:00 5.8 C 5.16 g/m*3 1.32 C 27.4 km/h
2490 11-01-2015 13:00:00 5.9 C 5.12 g/m*3 2.29 C 19.3 km/h
2491 11-01-2015 13:05:00 6.1 C 5.19 g/m*3 2.18 C 22.5 km/h
2492 11-01-2015 13:10:00 6 C 5.15 g/m*3 1.44 C 29 km/h
2493 11-01-2015 13:15:00 6 C 5.08 g/m*3 2.41 C 19.3 km/h
2494 11-01-2015 13:20:00 6 C 5.15 g/m*3 2.41 C 19.3 km/h
2495 11-01-2015 13:25:00 6 C 5.08 g/m*3 1.31 C 30.6 km/h
2496 11-01-2015 13:30:00 6.1 C 5.11 g/m*3 2.02 C 24.1 km/h
2497 11-01-2015 13:35:00 6.1 C 5.04 g/m*3 1.86 C 25.7 km/h
2498 11-01-2015 13:40:00 6.1 C 5.04 g/m*3 1.71 C 27.4 km/h
2499 11-01-2015 13:45:00 6.1 C 5.11 g/m*3 2.18 C 22.5 km/h
2500 11-01-2015 13:50:00 6 C 5.08 g/m*3 2.61 C 17.7 km/h
Sensor: Nr:Datum:Temp:Abs-Feuchte:Windchill:Wind:
Aussen-T/F 2501 11-01-2015 13:55:00 6 C 5.15 g/m*3 2.41 C 19.3 km/h
2502 11-01-2015 14:00:00 6.1 C 5.19 g/m*3 2.35 C 20.9 km/h
2503 11-01-2015 14:05:00 6.1 C 5.04 g/m*3 2.35 C 20.9 km/h
2504 11-01-2015 14:10:00 6.2 C 5.07 g/m*3 2.48 C 20.9 km/h
2505 11-01-2015 14:15:00 6.2 C 5.07 g/m*3 2.48 C 20.9 km/h
2506 11-01-2015 14:20:00 6.2 C 5.07 g/m*3 1.7 C 29 km/h
2507 11-01-2015 14:25:00 6.2 C 5.15 g/m*3 2.66 C 19.3 km/h
2508 11-01-2015 14:30:00 6.1 C 5.11 g/m*3 2.95 C 16.1 km/h
2509 11-01-2015 14:35:00 6.1 C 5.11 g/m*3 2.73 C 17.7 km/h
2510 11-01-2015 14:40:00 6.1 C 5.11 g/m*3 2.35 C 20.9 km/h
2511 11-01-2015 15:00:00 6.1 C 5.11 g/m*3 2.35 C 20.9 km/h
2512 11-01-2015 15:05:00 6.2 C 5.07 g/m*3 2.66 C 19.3 km/h
2513 11-01-2015 15:10:00 6.2 C 5.15 g/m*3 2.86 C 17.7 km/h
2514 11-01-2015 15:15:00 6.1 C 5.11 g/m*3 1.44 C 30.6 km/h
2515 11-01-2015 15:20:00 6.1 C 5.11 g/m*3 2.54 C 19.3 km/h
2516 11-01-2015 15:25:00 6.1 C 5.04 g/m*3 2.02 C 24.1 km/h
2517 11-01-2015 15:30:00 6.1 C 5.04 g/m*3 1.31 C 32.2 km/h
2518 11-01-2015 15:35:00 6.1 C 5.04 g/m*3 1.31 C 32.2 km/h
2519 11-01-2015 15:40:00 6 C 5.08 g/m*3 2.23 C 20.9 km/h
2520 11-01-2015 15:45:00 5.9 C 5.12 g/m*3 2.48 C 17.7 km/h
2521 11-01-2015 15:50:00 5.8 C 5.16 g/m*3 2.58 C 16.1 km/h
2522 11-01-2015 15:55:00 5.8 C 5.16 g/m*3 2.36 C 17.7 km/h
2523 11-01-2015 16:00:00 5.8 C 5.16 g/m*3 2.36 C 17.7 km/h
2524 11-01-2015 16:05:00 5.7 C 5.12 g/m*3 2.45 C 16.1 km/h
2525 11-01-2015 16:10:00 5.7 C 5.12 g/m*3 2.45 C 16.1 km/h
Sensor: Nr:Datum:Temp:Abs-Feuchte:Windchill:Wind:
Aussen-T/F 2526 11-01-2015 16:15:00 5.7 C 5.05 g/m*3 2.24 C 17.7 km/h
2527 11-01-2015 16:20:00 5.7 C 5.12 g/m*3 2.45 C 16.1 km/h
2528 11-01-2015 16:25:00 5.7 C 5.12 g/m*3 2.45 C 16.1 km/h
2529 11-01-2015 16:30:00 5.7 C 5.12 g/m*3 2.69 C 14.5 km/h
2530 11-01-2015 16:35:00 5.6 C 5.09 g/m*3 3.44 C 9.7 km/h
2531 11-01-2015 16:40:00 5.6 C 5.09 g/m*3 3.11 C 11.3 km/h
2532 11-01-2015 16:45:00 5.6 C 5.09 g/m*3 1.91 C 19.3 km/h
2533 11-01-2015 17:05:00 5.5 C 7.02 g/m*3 2.7 C 12.9 km/h
2534 11-01-2015 17:10:00 5.5 C 7.02 g/m*3 1.78 C 19.3 km/h
2535 11-01-2015 17:15:00 5.5 C 7.02 g/m*3 2.7 C 12.9 km/h
2536 11-01-2015 17:20:00 5.5 C 7.02 g/m*3 2.7 C 12.9 km/h
2537 11-01-2015 17:25:00 5.4 C 6.98 g/m*3 2.32 C 14.5 km/h
2538 11-01-2015 17:30:00 5.5 C 7.02 g/m*3 2.7 C 12.9 km/h
2539 11-01-2015 17:35:00 5.5 C 7.02 g/m*3 2.44 C 14.5 km/h
2540 11-01-2015 18:15:00 5.6 C 7.07 g/m*3 2.33 C 16.1 km/h
2541 11-01-2015 18:20:00 5.6 C 7.07 g/m*3 3.11 C 11.3 km/h
2542 11-01-2015 18:25:00 5.6 C 5.02 g/m*3 3.44 C 9.7 km/h
2543 11-01-2015 18:30:00 5.6 C 5.02 g/m*3 3.11 C 11.3 km/h
2544 11-01-2015 18:35:00 5.5 C 5.06 g/m*3 4.17 C 6.4 km/h
2545 11-01-2015 18:40:00 5.4 C 5.02 g/m*3 2.58 C 12.9 km/h
2546 11-01-2015 18:45:00 5.5 C 5.06 g/m*3 3.32 C 9.7 km/h
2547 11-01-2015 18:50:00 5.4 C 5.09 g/m*3 3.58 C 8.1 km/h
2548 11-01-2015 18:55:00 5.4 C 5.09 g/m*3 2.87 C 11.3 km/h
2549 11-01-2015 19:00:00 5.5 C 5.13 g/m*3 1.78 C 19.3 km/h
2550 11-01-2015 19:05:00 5.6 C 5.16 g/m*3 3.11 C 11.3 km/h
Sensor: Nr:Datum:Temp:Abs-Feuchte:Windchill:Wind:
Aussen-T/F 2551 11-01-2015 19:10:00 5.5 C 5.13 g/m*3 2.99 C 11.3 km/h
2552 11-01-2015 19:15:00 5.5 C 5.13 g/m*3 1.99 C 17.7 km/h
2553 11-01-2015 19:20:00 5.6 C 5.16 g/m*3 3.44 C 9.7 km/h
2554 11-01-2015 19:25:00 5.6 C 5.16 g/m*3 2.57 C 14.5 km/h
2555 11-01-2015 19:30:00 5.6 C 5.16 g/m*3 2.57 C 14.5 km/h
2556 11-01-2015 19:35:00 5.6 C 5.16 g/m*3 3.81 C 8.1 km/h
2557 11-01-2015 19:40:00 5.7 C 5.19 g/m*3 2.69 C 14.5 km/h
2558 11-01-2015 19:45:00 5.7 C 5.19 g/m*3 2.45 C 16.1 km/h
2559 11-01-2015 19:50:00 5.8 C 5.23 g/m*3 1.8 C 22.5 km/h
2560 11-01-2015 19:55:00 5.8 C 5.23 g/m*3 3.07 C 12.9 km/h
2561 11-01-2015 20:00:00 5.8 C 5.23 g/m*3 2.81 C 14.5 km/h
2562 11-01-2015 20:05:00 5.8 C 5.23 g/m*3 3.07 C 12.9 km/h
2563 11-01-2015 20:10:00 5.8 C 5.23 g/m*3 2.81 C 14.5 km/h
2564 11-01-2015 20:15:00 5.8 C 5.23 g/m*3 3.07 C 12.9 km/h
2565 11-01-2015 20:20:00 5.8 C 5.23 g/m*3 3.68 C 9.7 km/h
2566 11-01-2015 20:25:00 5.7 C 5.19 g/m*3 3.23 C 11.3 km/h
2567 11-01-2015 20:30:00 5.7 C 5.19 g/m*3 2.24 C 17.7 km/h
2568 11-01-2015 20:35:00 5.7 C 5.27 g/m*3 3.56 C 9.7 km/h
2569 11-01-2015 20:40:00 5.7 C 5.27 g/m*3 3.56 C 9.7 km/h
2570 11-01-2015 20:45:00 5.7 C 5.27 g/m*3 3.23 C 11.3 km/h
2571 11-01-2015 20:50:00 5.7 C 5.27 g/m*3 2.69 C 14.5 km/h
2572 11-01-2015 20:55:00 5.8 C 5.3 g/m*3 3.07 C 12.9 km/h
2573 11-01-2015 21:00:00 5.8 C 5.3 g/m*3 3.36 C 11.3 km/h
2574 11-01-2015 21:05:00 5.9 C 5.34 g/m*3 4.17 C 8.1 km/h
2575 11-01-2015 21:10:00 5.9 C 5.34 g/m*3 2.7 C 16.1 km/h
Sensor: Nr:Datum:Temp:Abs-Feuchte:Windchill:Wind:
Aussen-T/F 2576 11-01-2015 21:15:00 5.9 C 5.34 g/m*3 3.48 C 11.3 km/h
2577 11-01-2015 21:20:00 5.9 C 5.41 g/m*3 3.19 C 12.9 km/h
2578 11-01-2015 21:25:00 5.9 C 5.48 g/m*3 2.1 C 20.9 km/h
2579 11-01-2015 21:30:00 5.8 C 5.44 g/m*3 3.36 C 11.3 km/h
2580 11-01-2015 21:35:00 5.8 C 5.44 g/m*3 3.07 C 12.9 km/h
2581 11-01-2015 21:40:00 5.8 C 5.44 g/m*3 3.36 C 11.3 km/h
2582 11-01-2015 21:45:00 5.8 C 5.44 g/m*3 2.58 C 16.1 km/h
2583 11-01-2015 21:50:00 5.8 C 5.44 g/m*3 3.07 C 12.9 km/h
2584 11-01-2015 21:55:00 5.8 C 5.44 g/m*3 3.36 C 11.3 km/h
2585 11-01-2015 22:00:00 5.8 C 5.52 g/m*3 3.36 C 11.3 km/h
2586 11-01-2015 22:05:00 5.8 C 5.52 g/m*3 3.68 C 9.7 km/h
2587 11-01-2015 22:10:00 5.8 C 5.52 g/m*3 3.07 C 12.9 km/h
2588 11-01-2015 22:15:00 5.8 C 5.52 g/m*3 3.36 C 11.3 km/h
2589 12-01-2015 00:10:00 5.8 C 5.95 g/m*3 2.16 C 19.3 km/h
2590 12-01-2015 00:15:00 5.8 C 5.95 g/m*3 3.07 C 12.9 km/h
2591 12-01-2015 00:20:00 5.6 C 5.87 g/m*3 2.57 C 14.5 km/h
2592 12-01-2015 00:25:00 5.6 C 5.87 g/m*3 1.54 C 22.5 km/h
2593 12-01-2015 00:30:00 5.6 C 5.94 g/m*3 1.54 C 22.5 km/h
2594 12-01-2015 00:35:00 5.6 C 5.94 g/m*3 2.83 C 12.9 km/h
2595 12-01-2015 00:40:00 5.6 C 6.01 g/m*3 1.54 C 22.5 km/h
2596 12-01-2015 00:45:00 5.6 C 6.08 g/m*3 1.72 C 20.9 km/h
2597 12-01-2015 00:50:00 5.6 C 6.08 g/m*3 1.38 C 24.1 km/h
2598 12-01-2015 00:55:00 5.6 C 6.08 g/m*3 1.38 C 24.1 km/h
2599 12-01-2015 01:00:00 5.5 C 6.11 g/m*3 2.7 C 12.9 km/h
2600 12-01-2015 01:05:00 5.5 C 6.11 g/m*3 2.7 C 12.9 km/h
Sensor: Nr:Datum:Temp:Abs-Feuchte:Windchill:Wind:
Aussen-T/F 2601 12-01-2015 01:10:00 5.4 C 6.07 g/m*3 2.32 C 14.5 km/h
2602 12-01-2015 01:15:00 5.3 C 6.03 g/m*3 1.74 C 17.7 km/h
2603 12-01-2015 01:20:00 5.3 C 6.17 g/m*3 2.46 C 12.9 km/h
2604 12-01-2015 01:25:00 5.3 C 6.17 g/m*3 1.53 C 19.3 km/h
2605 12-01-2015 01:30:00 5.2 C 6.2 g/m*3 1.83 C 16.1 km/h
2606 12-01-2015 01:35:00 5.2 C 6.2 g/m*3 1.83 C 16.1 km/h
2607 12-01-2015 01:40:00 5.1 C 6.16 g/m*3 1.28 C 19.3 km/h
2608 12-01-2015 01:45:00 5.2 C 6.2 g/m*3 1.61 C 17.7 km/h
2609 12-01-2015 01:50:00 5.2 C 6.2 g/m*3 1.83 C 16.1 km/h
2610 12-01-2015 01:55:00 5.2 C 6.2 g/m*3 1.61 C 17.7 km/h
2611 12-01-2015 02:00:00 5.3 C 6.24 g/m*3 1.96 C 16.1 km/h
2612 12-01-2015 02:05:00 5.3 C 6.24 g/m*3 1.74 C 17.7 km/h
2613 12-01-2015 02:10:00 5.3 C 6.17 g/m*3 2.46 C 12.9 km/h
2614 12-01-2015 02:15:00 5.4 C 6.21 g/m*3 1.86 C 17.7 km/h
2615 12-01-2015 02:20:00 5.4 C 6.21 g/m*3 2.32 C 14.5 km/h
2616 12-01-2015 02:25:00 5.4 C 6.21 g/m*3 2.08 C 16.1 km/h
2617 12-01-2015 02:30:00 5.4 C 6.21 g/m*3 2.87 C 11.3 km/h
2618 12-01-2015 02:35:00 5.7 C 6.26 g/m*3 2.95 C 12.9 km/h
2619 12-01-2015 02:40:00 5.7 C 6.26 g/m*3 2.69 C 14.5 km/h
2620 12-01-2015 02:45:00 5.8 C 6.3 g/m*3 2.81 C 14.5 km/h
2621 12-01-2015 02:50:00 5.8 C 6.3 g/m*3 3.07 C 12.9 km/h
2622 12-01-2015 02:55:00 5.8 C 6.3 g/m*3 2.81 C 14.5 km/h
2623 12-01-2015 03:00:00 5.8 C 6.3 g/m*3 3.36 C 11.3 km/h
2624 12-01-2015 03:05:00 5.8 C 6.3 g/m*3 3.36 C 11.3 km/h
2625 12-01-2015 03:10:00 5.9 C 6.35 g/m*3 3.8 C 9.7 km/h
Sensor: Nr:Datum:Temp:Abs-Feuchte:Windchill:Wind:
Aussen-T/F 2626 12-01-2015 03:15:00 5.9 C 6.35 g/m*3 2.48 C 17.7 km/h
2627 12-01-2015 03:20:00 6 C 6.31 g/m*3 3.6 C 11.3 km/h
2628 12-01-2015 03:25:00 6 C 6.31 g/m*3 3.92 C 9.7 km/h
2629 12-01-2015 03:30:00 6.1 C 6.36 g/m*3 2.54 C 19.3 km/h
2630 12-01-2015 03:35:00 6.1 C 6.36 g/m*3 3.43 C 12.9 km/h
2631 12-01-2015 03:40:00 6.1 C 6.36 g/m*3 3.72 C 11.3 km/h
2632 12-01-2015 03:45:00 6.1 C 6.43 g/m*3 3.72 C 11.3 km/h
2633 12-01-2015 03:50:00 6.1 C 6.43 g/m*3 3.72 C 11.3 km/h
2634 12-01-2015 03:55:00 6.1 C 6.43 g/m*3 2.73 C 17.7 km/h
2635 12-01-2015 04:00:00 6.1 C 6.43 g/m*3 3.18 C 14.5 km/h
2636 12-01-2015 04:05:00 6.1 C 6.43 g/m*3 2.73 C 17.7 km/h
2637 12-01-2015 04:10:00 6.1 C 6.43 g/m*3 3.72 C 11.3 km/h
2638 12-01-2015 04:15:00 6.1 C 6.5 g/m*3 3.18 C 14.5 km/h
2639 12-01-2015 04:20:00 6 C 6.46 g/m*3 3.31 C 12.9 km/h
2640 12-01-2015 04:25:00 6 C 6.46 g/m*3 3.92 C 9.7 km/h
2641 12-01-2015 04:30:00 6 C 6.46 g/m*3 3.31 C 12.9 km/h
2642 12-01-2015 04:35:00 6 C 6.46 g/m*3 3.92 C 9.7 km/h
2643 12-01-2015 04:40:00 6.1 C 6.5 g/m*3 2.73 C 17.7 km/h
2644 12-01-2015 04:45:00 6.1 C 6.5 g/m*3 2.95 C 16.1 km/h
2645 12-01-2015 04:50:00 6.1 C 6.5 g/m*3 3.43 C 12.9 km/h
2646 12-01-2015 04:55:00 6.2 C 6.55 g/m*3 4.52 C 8.1 km/h
2647 12-01-2015 05:00:00 6.2 C 6.47 g/m*3 4.52 C 8.1 km/h
2648 12-01-2015 05:05:00 6.2 C 6.55 g/m*3 6.2 C 4.8 km/h
2649 12-01-2015 05:10:00 6.2 C 6.55 g/m*3 4.98 C 6.4 km/h
2650 12-01-2015 05:15:00 6.2 C 6.55 g/m*3 3.56 C 12.9 km/h
Sensor: Nr:Datum:Temp:Abs-Feuchte:Windchill:Wind:
Aussen-T/F 2651 12-01-2015 05:20:00 6.2 C 6.55 g/m*3 4.52 C 8.1 km/h
2652 12-01-2015 05:25:00 6.2 C 6.55 g/m*3 3.84 C 11.3 km/h
2653 12-01-2015 05:30:00 6.2 C 6.55 g/m*3 4.15 C 9.7 km/h
2654 12-01-2015 05:35:00 6.2 C 6.55 g/m*3 3.56 C 12.9 km/h
2655 12-01-2015 05:40:00 6.2 C 6.47 g/m*3 3.56 C 12.9 km/h
2656 12-01-2015 05:45:00 6.3 C 6.44 g/m*3 3.43 C 14.5 km/h
2657 12-01-2015 05:50:00 6.3 C 6.44 g/m*3 3.43 C 14.5 km/h
2658 12-01-2015 05:55:00 6.3 C 6.44 g/m*3 3.43 C 14.5 km/h
2659 12-01-2015 06:00:00 6.3 C 6.44 g/m*3 3.68 C 12.9 km/h
2660 12-01-2015 06:05:00 6.4 C 6.41 g/m*3 2.91 C 19.3 km/h
2661 12-01-2015 06:10:00 6.4 C 6.41 g/m*3 3.8 C 12.9 km/h
2662 12-01-2015 06:15:00 6.4 C 6.41 g/m*3 4.08 C 11.3 km/h
2663 12-01-2015 06:20:00 6.5 C 6.45 g/m*3 3.23 C 17.7 km/h
2664 12-01-2015 06:25:00 6.6 C 6.42 g/m*3 2.82 C 22.5 km/h
2665 12-01-2015 06:30:00 6.6 C 6.42 g/m*3 3.17 C 19.3 km/h
2666 12-01-2015 06:35:00 6.6 C 6.42 g/m*3 3.57 C 16.1 km/h
2667 12-01-2015 06:40:00 6.6 C 6.42 g/m*3 3.57 C 16.1 km/h
2668 12-01-2015 06:45:00 6.5 C 6.45 g/m*3 4.2 C 11.3 km/h
2669 12-01-2015 06:50:00 6.5 C 6.45 g/m*3 3.92 C 12.9 km/h
2670 12-01-2015 06:55:00 6.5 C 6.37 g/m*3 3.92 C 12.9 km/h
2671 12-01-2015 07:00:00 6.5 C 6.45 g/m*3 4.2 C 11.3 km/h
2672 12-01-2015 07:05:00 6.4 C 6.33 g/m*3 3.11 C 17.7 km/h
2673 12-01-2015 07:10:00 6.4 C 6.33 g/m*3 4.08 C 11.3 km/h
2674 12-01-2015 07:15:00 6.5 C 6.45 g/m*3 3.92 C 12.9 km/h
2675 12-01-2015 07:20:00 6.5 C 6.37 g/m*3 3.44 C 16.1 km/h
Sensor: Nr:Datum:Temp:Abs-Feuchte:Windchill:Wind:
Aussen-T/F 2676 12-01-2015 07:25:00 6.5 C 6.37 g/m*3 3.92 C 12.9 km/h
2677 12-01-2015 07:30:00 6.5 C 6.37 g/m*3 3.04 C 19.3 km/h
2678 12-01-2015 07:35:00 6.6 C 6.34 g/m*3 3.79 C 14.5 km/h
2679 12-01-2015 07:40:00 6.6 C 6.34 g/m*3 2.99 C 20.9 km/h
2680 12-01-2015 07:45:00 6.6 C 6.34 g/m*3 3.57 C 16.1 km/h
2681 12-01-2015 07:50:00 6.7 C 6.38 g/m*3 2.64 C 25.7 km/h
2682 12-01-2015 07:55:00 6.7 C 6.38 g/m*3 3.92 C 14.5 km/h
2683 12-01-2015 08:00:00 6.7 C 6.38 g/m*3 4.17 C 12.9 km/h
2684 12-01-2015 08:05:00 6.6 C 6.27 g/m*3 3.57 C 16.1 km/h
2685 12-01-2015 08:10:00 6.6 C 6.27 g/m*3 3.79 C 14.5 km/h
2686 12-01-2015 08:15:00 6.7 C 6.31 g/m*3 2.79 C 24.1 km/h
2687 12-01-2015 08:20:00 6.7 C 6.31 g/m*3 3.92 C 14.5 km/h
2688 12-01-2015 08:25:00 6.7 C 6.31 g/m*3 4.17 C 12.9 km/h
2689 12-01-2015 08:30:00 6.7 C 6.31 g/m*3 4.17 C 12.9 km/h
2690 12-01-2015 08:35:00 6.7 C 6.31 g/m*3 3.69 C 16.1 km/h
2691 12-01-2015 08:40:00 6.7 C 6.31 g/m*3 3.29 C 19.3 km/h
2692 12-01-2015 08:45:00 6.7 C 6.31 g/m*3 4.17 C 12.9 km/h
2693 12-01-2015 08:50:00 6.7 C 6.31 g/m*3 4.17 C 12.9 km/h
2694 12-01-2015 08:55:00 6.7 C 6.31 g/m*3 4.44 C 11.3 km/h
2695 12-01-2015 09:00:00 6.7 C 6.23 g/m*3 3.11 C 20.9 km/h
2696 12-01-2015 09:05:00 6.7 C 6.23 g/m*3 4.17 C 12.9 km/h
2697 12-01-2015 09:10:00 6.8 C 6.27 g/m*3 3.61 C 17.7 km/h
2698 12-01-2015 09:15:00 6.8 C 6.27 g/m*3 3.61 C 17.7 km/h
2699 12-01-2015 09:20:00 6.8 C 6.27 g/m*3 3.61 C 17.7 km/h
2700 12-01-2015 09:25:00 6.8 C 6.19 g/m*3 3.61 C 17.7 km/h
Sensor: Nr:Datum:Temp:Abs-Feuchte:Windchill:Wind:
Aussen-T/F 2701 12-01-2015 09:30:00 6.8 C 6.19 g/m*3 4.04 C 14.5 km/h
2702 12-01-2015 09:35:00 6.9 C 6.24 g/m*3 3.94 C 16.1 km/h
2703 12-01-2015 09:40:00 6.8 C 6.19 g/m*3 4.87 C 9.7 km/h
2704 12-01-2015 09:45:00 6.8 C 6.19 g/m*3 4.04 C 14.5 km/h
2705 12-01-2015 09:50:00 6.8 C 6.19 g/m*3 4.56 C 11.3 km/h
2706 12-01-2015 09:55:00 6.9 C 6.24 g/m*3 4.41 C 12.9 km/h
2707 12-01-2015 10:00:00 6.9 C 6.24 g/m*3 4.16 C 14.5 km/h
2708 12-01-2015 10:05:00 6.9 C 6.24 g/m*3 4.99 C 9.7 km/h
2709 12-01-2015 10:10:00 6.9 C 6.24 g/m*3 3.2 C 22.5 km/h
2710 12-01-2015 10:15:00 6.9 C 6.24 g/m*3 4.16 C 14.5 km/h
2711 12-01-2015 10:20:00 7 C 6.28 g/m*3 4.29 C 14.5 km/h
2712 12-01-2015 10:25:00 7.1 C 6.24 g/m*3 3.62 C 20.9 km/h
2713 12-01-2015 10:30:00 7.1 C 6.24 g/m*3 4.19 C 16.1 km/h
2714 12-01-2015 10:35:00 7.1 C 6.24 g/m*3 4.19 C 16.1 km/h
2715 12-01-2015 10:40:00 7.1 C 6.24 g/m*3 4.19 C 16.1 km/h
2716 12-01-2015 10:45:00 7.1 C 6.32 g/m*3 4.41 C 14.5 km/h
2717 12-01-2015 10:50:00 7.1 C 6.32 g/m*3 5.58 C 8.1 km/h
2718 12-01-2015 10:55:00 7 C 6.28 g/m*3 3.86 C 17.7 km/h
2719 12-01-2015 11:00:00 7 C 6.35 g/m*3 3.49 C 20.9 km/h
2720 12-01-2015 11:05:00 6.9 C 6.31 g/m*3 4.41 C 12.9 km/h
2721 12-01-2015 11:10:00 6.9 C 6.39 g/m*3 3.54 C 19.3 km/h
2722 12-01-2015 11:15:00 6.8 C 6.35 g/m*3 3.82 C 16.1 km/h
2723 12-01-2015 11:20:00 6.8 C 6.42 g/m*3 4.56 C 11.3 km/h
2724 12-01-2015 11:25:00 6.7 C 6.38 g/m*3 3.92 C 14.5 km/h
2725 12-01-2015 11:30:00 6.7 C 6.46 g/m*3 4.75 C 9.7 km/h
Sensor: Nr:Datum:Temp:Abs-Feuchte:Windchill:Wind:
Aussen-T/F 2726 12-01-2015 11:35:00 6.6 C 6.42 g/m*3 4.04 C 12.9 km/h
2727 12-01-2015 11:40:00 6.6 C 6.42 g/m*3 3.57 C 16.1 km/h
2728 12-01-2015 11:45:00 6.6 C 6.42 g/m*3 4.04 C 12.9 km/h
2729 12-01-2015 11:50:00 6.6 C 6.42 g/m*3 3.57 C 16.1 km/h
2730 12-01-2015 11:55:00 6.7 C 6.46 g/m*3 3.92 C 14.5 km/h
2731 12-01-2015 12:00:00 6.7 C 6.46 g/m*3 5.11 C 8.1 km/h
2732 12-01-2015 12:05:00 6.7 C 6.38 g/m*3 3.92 C 14.5 km/h
2733 12-01-2015 12:10:00 6.8 C 6.42 g/m*3 5.22 C 8.1 km/h
2734 12-01-2015 12:15:00 6.8 C 6.42 g/m*3 3.61 C 17.7 km/h
2735 12-01-2015 12:20:00 6.8 C 6.42 g/m*3 3.82 C 16.1 km/h
2736 12-01-2015 12:25:00 6.8 C 6.42 g/m*3 4.29 C 12.9 km/h
2737 12-01-2015 12:30:00 6.9 C 6.47 g/m*3 4.68 C 11.3 km/h
2738 12-01-2015 12:35:00 6.9 C 6.47 g/m*3 4.68 C 11.3 km/h
2739 12-01-2015 13:10:00 7.3 C 7.9 g/m*3 5.47 C 9.7 km/h
2740 12-01-2015 13:15:00 7.3 C 6.48 g/m*3 4.9 C 12.9 km/h
2741 12-01-2015 13:20:00 7.3 C 6.4 g/m*3 5.81 C 8.1 km/h
2742 12-01-2015 13:25:00 7.3 C 6.4 g/m*3 5.47 C 9.7 km/h
2743 12-01-2015 13:30:00 7.3 C 6.4 g/m*3 4.66 C 14.5 km/h
2744 12-01-2015 13:35:00 7.4 C 6.44 g/m*3 4.78 C 14.5 km/h
2745 12-01-2015 13:40:00 7.4 C 6.44 g/m*3 5.28 C 11.3 km/h
2746 12-01-2015 13:45:00 7.4 C 6.44 g/m*3 4.56 C 16.1 km/h
2747 12-01-2015 13:50:00 7.4 C 6.44 g/m*3 4.56 C 16.1 km/h
2748 12-01-2015 13:55:00 7.5 C 6.48 g/m*3 5.14 C 12.9 km/h
2749 12-01-2015 14:00:00 7.5 C 6.48 g/m*3 5.14 C 12.9 km/h
2750 12-01-2015 14:05:00 7.6 C 6.53 g/m*3 4.61 C 17.7 km/h
Sensor: Nr:Datum:Temp:Abs-Feuchte:Windchill:Wind:
Aussen-T/F 2751 12-01-2015 14:10:00 7.6 C 6.53 g/m*3 4.81 C 16.1 km/h
2752 12-01-2015 14:15:00 7.6 C 6.53 g/m*3 5.26 C 12.9 km/h
2753 12-01-2015 14:20:00 7.6 C 6.53 g/m*3 4.81 C 16.1 km/h
2754 12-01-2015 14:25:00 7.6 C 6.53 g/m*3 4.81 C 16.1 km/h
2755 12-01-2015 14:30:00 7.6 C 6.53 g/m*3 4.81 C 16.1 km/h
2756 12-01-2015 14:35:00 7.6 C 6.53 g/m*3 5.02 C 14.5 km/h
2757 12-01-2015 14:40:00 7.6 C 6.53 g/m*3 4.81 C 16.1 km/h
2758 12-01-2015 14:45:00 7.6 C 6.53 g/m*3 5.82 C 9.7 km/h
2759 12-01-2015 14:50:00 7.6 C 6.53 g/m*3 5.53 C 11.3 km/h
2760 12-01-2015 14:55:00 7.6 C 6.53 g/m*3 4.25 C 20.9 km/h
2761 12-01-2015 15:20:00 7.5 C 6.56 g/m*3 4.9 C 14.5 km/h
2762 12-01-2015 15:25:00 7.4 C 6.52 g/m*3 5.02 C 12.9 km/h
2763 12-01-2015 15:30:00 7.4 C 6.6 g/m*3 5.28 C 11.3 km/h
2764 12-01-2015 15:35:00 7.4 C 6.6 g/m*3 5.02 C 12.9 km/h
2765 12-01-2015 15:40:00 7.4 C 6.6 g/m*3 4.78 C 14.5 km/h
2766 12-01-2015 15:45:00 7.3 C 6.64 g/m*3 3.71 C 22.5 km/h
2767 12-01-2015 15:50:00 7.3 C 6.64 g/m*3 4.9 C 12.9 km/h
2768 12-01-2015 15:55:00 7.2 C 6.59 g/m*3 5.35 C 9.7 km/h
2769 12-01-2015 16:00:00 7.2 C 6.59 g/m*3 4.11 C 17.7 km/h
2770 12-01-2015 16:05:00 7.2 C 6.59 g/m*3 3.75 C 20.9 km/h
2771 12-01-2015 16:10:00 7.2 C 6.59 g/m*3 4.77 C 12.9 km/h
2772 12-01-2015 16:15:00 7.1 C 6.55 g/m*3 3.8 C 19.3 km/h
2773 12-01-2015 16:20:00 7.1 C 6.55 g/m*3 4.65 C 12.9 km/h
2774 12-01-2015 16:25:00 7.1 C 6.55 g/m*3 4.41 C 14.5 km/h
2775 12-01-2015 16:45:00 7.1 C 7.8 g/m*3 2.62 C 32.2 km/h
Sensor: Nr:Datum:Temp:Abs-Feuchte:Windchill:Wind:
Aussen-T/F 2776 12-01-2015 16:50:00 7.1 C 6.63 g/m*3 2.62 C 32.2 km/h
2777 12-01-2015 16:55:00 7.1 C 6.63 g/m*3 3.15 C 25.7 km/h
2778 12-01-2015 17:00:00 7.1 C 6.63 g/m*3 3.98 C 17.7 km/h
2779 12-01-2015 17:05:00 7.1 C 6.63 g/m*3 3.98 C 17.7 km/h
2780 12-01-2015 17:10:00 7.1 C 6.63 g/m*3 4.19 C 16.1 km/h
2781 12-01-2015 17:15:00 7.1 C 6.63 g/m*3 3.3 C 24.1 km/h
2782 12-01-2015 17:20:00 7.1 C 6.63 g/m*3 3.8 C 19.3 km/h
2783 12-01-2015 17:25:00 7.1 C 6.63 g/m*3 3.8 C 19.3 km/h
2784 12-01-2015 17:30:00 7.1 C 6.55 g/m*3 4.19 C 16.1 km/h
2785 12-01-2015 17:35:00 7.1 C 6.55 g/m*3 4.65 C 12.9 km/h
2786 12-01-2015 17:40:00 7.1 C 6.55 g/m*3 4.19 C 16.1 km/h
2787 12-01-2015 17:45:00 7.1 C 6.55 g/m*3 4.41 C 14.5 km/h
2788 12-01-2015 17:50:00 7.1 C 6.47 g/m*3 3.62 C 20.9 km/h
2789 12-01-2015 17:55:00 7.2 C 6.52 g/m*3 4.53 C 14.5 km/h
2790 12-01-2015 18:00:00 7.2 C 6.52 g/m*3 5.04 C 11.3 km/h
2791 12-01-2015 18:05:00 7.2 C 6.44 g/m*3 5.04 C 11.3 km/h
2792 12-01-2015 18:10:00 7.2 C 6.44 g/m*3 4.77 C 12.9 km/h
2793 12-01-2015 18:15:00 7.3 C 6.48 g/m*3 3.71 C 22.5 km/h
2794 12-01-2015 18:20:00 7.3 C 6.4 g/m*3 4.44 C 16.1 km/h
2795 12-01-2015 18:25:00 7.4 C 6.44 g/m*3 4.78 C 14.5 km/h
2796 12-01-2015 18:30:00 7.5 C 6.4 g/m*3 4.13 C 20.9 km/h
2797 12-01-2015 18:35:00 7.6 C 6.44 g/m*3 5.02 C 14.5 km/h
2798 12-01-2015 18:40:00 7.6 C 6.44 g/m*3 4.61 C 17.7 km/h
2799 12-01-2015 18:45:00 7.6 C 6.44 g/m*3 4.61 C 17.7 km/h
2800 12-01-2015 18:50:00 7.7 C 6.49 g/m*3 4.93 C 16.1 km/h
Sensor: Nr:Datum:Temp:Abs-Feuchte:Windchill:Wind:
Aussen-T/F 2801 12-01-2015 18:55:00 7.7 C 6.49 g/m*3 3.92 C 25.7 km/h
2802 12-01-2015 19:00:00 7.7 C 6.49 g/m*3 5.94 C 9.7 km/h
2803 12-01-2015 19:05:00 7.7 C 6.49 g/m*3 5.38 C 12.9 km/h
2804 12-01-2015 19:10:00 7.7 C 6.49 g/m*3 5.15 C 14.5 km/h
2805 12-01-2015 19:15:00 7.7 C 6.49 g/m*3 5.65 C 11.3 km/h
2806 12-01-2015 19:20:00 7.7 C 6.57 g/m*3 5.15 C 14.5 km/h
2807 12-01-2015 19:25:00 7.7 C 6.57 g/m*3 4.73 C 17.7 km/h
2808 12-01-2015 19:30:00 7.8 C 6.61 g/m*3 5.51 C 12.9 km/h
2809 12-01-2015 19:35:00 7.8 C 6.61 g/m*3 5.06 C 16.1 km/h
2810 12-01-2015 19:40:00 7.8 C 6.61 g/m*3 5.27 C 14.5 km/h
2811 12-01-2015 19:45:00 7.8 C 6.61 g/m*3 5.51 C 12.9 km/h
2812 12-01-2015 19:50:00 7.8 C 6.61 g/m*3 6.06 C 9.7 km/h
2813 12-01-2015 19:55:00 7.8 C 6.61 g/m*3 5.51 C 12.9 km/h
2814 12-01-2015 20:00:00 7.9 C 6.65 g/m*3 5.39 C 14.5 km/h
2815 12-01-2015 20:05:00 7.9 C 6.65 g/m*3 5.39 C 14.5 km/h
2816 12-01-2015 20:10:00 7.9 C 6.65 g/m*3 5.89 C 11.3 km/h
2817 12-01-2015 20:15:00 8 C 6.7 g/m*3 6.01 C 11.3 km/h
2818 12-01-2015 20:20:00 8.1 C 6.66 g/m*3 5.64 C 14.5 km/h
2819 12-01-2015 20:25:00 8.1 C 6.66 g/m*3 6.42 C 9.7 km/h
2820 12-01-2015 20:30:00 8.2 C 6.7 g/m*3 5.01 C 20.9 km/h
2821 12-01-2015 20:35:00 8.3 C 6.74 g/m*3 5.89 C 14.5 km/h
2822 12-01-2015 20:40:00 8.3 C 6.74 g/m*3 6.12 C 12.9 km/h
2823 12-01-2015 20:45:00 8.3 C 6.74 g/m*3 5.14 C 20.9 km/h
2824 12-01-2015 20:50:00 8.3 C 6.74 g/m*3 5.89 C 14.5 km/h
2825 12-01-2015 21:15:00 8.4 C 6.62 g/m*3 5.27 C 20.9 km/h
Sensor: Nr:Datum:Temp:Abs-Feuchte:Windchill:Wind:
Aussen-T/F 2826 12-01-2015 21:20:00 8.4 C 6.62 g/m*3 5.27 C 20.9 km/h
2827 12-01-2015 21:25:00 8.4 C 6.53 g/m*3 5.43 C 19.3 km/h
2828 12-01-2015 21:30:00 8.5 C 6.57 g/m*3 5.56 C 19.3 km/h
2829 12-01-2015 21:35:00 8.5 C 6.57 g/m*3 5.73 C 17.7 km/h
2830 12-01-2015 21:40:00 8.4 C 6.53 g/m*3 5.11 C 22.5 km/h
2831 12-01-2015 21:45:00 8.5 C 6.49 g/m*3 5.39 C 20.9 km/h
2832 12-01-2015 21:50:00 8.5 C 6.49 g/m*3 4.95 C 25.7 km/h
2833 12-01-2015 21:55:00 8.4 C 6.45 g/m*3 5.43 C 19.3 km/h
2834 12-01-2015 22:00:00 8.4 C 6.45 g/m*3 5.43 C 19.3 km/h
2835 12-01-2015 22:05:00 8.4 C 6.45 g/m*3 5.27 C 20.9 km/h
2836 12-01-2015 22:10:00 8.3 C 6.41 g/m*3 5.68 C 16.1 km/h
2837 12-01-2015 22:15:00 8.3 C 6.41 g/m*3 6.37 C 11.3 km/h
2838 12-01-2015 22:20:00 8.3 C 6.41 g/m*3 5.48 C 17.7 km/h
2839 12-01-2015 22:25:00 8.3 C 6.41 g/m*3 5.48 C 17.7 km/h
2840 12-01-2015 22:30:00 8.3 C 6.41 g/m*3 5.48 C 17.7 km/h
2841 12-01-2015 22:35:00 8.3 C 6.41 g/m*3 4.7 C 25.7 km/h
2842 12-01-2015 22:40:00 8.3 C 6.41 g/m*3 5.31 C 19.3 km/h
2843 12-01-2015 22:45:00 8.3 C 6.41 g/m*3 5.68 C 16.1 km/h
2844 12-01-2015 23:10:00 8.6 C 6.44 g/m*3 5.22 C 24.1 km/h
2845 12-01-2015 23:15:00 8.6 C 6.44 g/m*3 5.22 C 24.1 km/h
2846 12-01-2015 23:20:00 8.6 C 6.44 g/m*3 5.68 C 19.3 km/h
2847 12-01-2015 23:25:00 8.6 C 6.44 g/m*3 5.86 C 17.7 km/h
2848 12-01-2015 23:30:00 8.6 C 6.44 g/m*3 6.05 C 16.1 km/h
2849 12-01-2015 23:35:00 8.6 C 6.44 g/m*3 5.68 C 19.3 km/h
2850 12-01-2015 23:40:00 8.7 C 6.49 g/m*3 6.6 C 12.9 km/h
Sensor: Nr:Datum:Temp:Abs-Feuchte:Windchill:Wind:
Aussen-T/F 2851 12-01-2015 23:45:00 8.7 C 6.49 g/m*3 5.98 C 17.7 km/h
2852 12-01-2015 23:50:00 8.7 C 6.49 g/m*3 5.81 C 19.3 km/h
2853 12-01-2015 23:55:00 8.7 C 6.49 g/m*3 5.81 C 19.3 km/h
2854 13-01-2015 00:00:00 8.7 C 6.57 g/m*3 5.81 C 19.3 km/h
2855 13-01-2015 00:05:00 8.7 C 6.57 g/m*3 5.65 C 20.9 km/h
2856 13-01-2015 00:10:00 8.7 C 6.57 g/m*3 5.65 C 20.9 km/h
2857 13-01-2015 00:15:00 8.8 C 6.61 g/m*3 6.11 C 17.7 km/h
2858 13-01-2015 00:20:00 8.8 C 6.61 g/m*3 5.2 C 27.4 km/h
2859 13-01-2015 00:25:00 8.8 C 6.61 g/m*3 5.2 C 27.4 km/h
2860 13-01-2015 00:30:00 8.8 C 6.61 g/m*3 5.93 C 19.3 km/h
2861 13-01-2015 00:35:00 8.8 C 6.61 g/m*3 5.62 C 22.5 km/h
2862 13-01-2015 00:40:00 8.8 C 6.7 g/m*3 5.34 C 25.7 km/h
2863 13-01-2015 00:45:00 8.9 C 6.66 g/m*3 6.23 C 17.7 km/h
2864 13-01-2015 00:50:00 8.9 C 6.75 g/m*3 5.75 C 22.5 km/h
2865 13-01-2015 00:55:00 8.9 C 6.66 g/m*3 5.6 C 24.1 km/h
2866 13-01-2015 01:00:00 8.9 C 6.66 g/m*3 5.9 C 20.9 km/h
2867 13-01-2015 01:05:00 8.9 C 6.66 g/m*3 6.42 C 16.1 km/h
2868 13-01-2015 01:10:00 8.9 C 6.66 g/m*3 5.9 C 20.9 km/h
2869 13-01-2015 01:15:00 9 C 6.7 g/m*3 5.46 C 27.4 km/h
2870 13-01-2015 01:20:00 8.9 C 6.66 g/m*3 5.9 C 20.9 km/h
2871 13-01-2015 01:25:00 8.9 C 6.66 g/m*3 6.42 C 16.1 km/h
2872 13-01-2015 01:30:00 8.9 C 6.66 g/m*3 5.6 C 24.1 km/h
2873 13-01-2015 01:35:00 8.9 C 6.75 g/m*3 6.23 C 17.7 km/h
2874 13-01-2015 01:40:00 8.9 C 6.75 g/m*3 5.9 C 20.9 km/h
2875 13-01-2015 01:45:00 8.9 C 6.75 g/m*3 6.42 C 16.1 km/h
Sensor: Nr:Datum:Temp:Abs-Feuchte:Windchill:Wind:
Aussen-T/F 2876 13-01-2015 01:50:00 8.9 C 6.75 g/m*3 5.6 C 24.1 km/h
2877 13-01-2015 01:55:00 9 C 6.79 g/m*3 6.19 C 19.3 km/h
2878 13-01-2015 02:00:00 9.1 C 6.74 g/m*3 6.15 C 20.9 km/h
2879 13-01-2015 02:05:00 9.1 C 6.74 g/m*3 6 C 22.5 km/h
2880 13-01-2015 02:10:00 9.1 C 6.74 g/m*3 6.67 C 16.1 km/h
2881 13-01-2015 02:15:00 8.9 C 6.75 g/m*3 5.9 C 20.9 km/h
2882 13-01-2015 02:20:00 8.9 C 6.75 g/m*3 5.75 C 22.5 km/h
2883 13-01-2015 02:25:00 8.9 C 6.75 g/m*3 6.42 C 16.1 km/h
2884 13-01-2015 02:30:00 8.9 C 6.75 g/m*3 6.23 C 17.7 km/h
2885 13-01-2015 02:35:00 8.9 C 6.75 g/m*3 5.75 C 22.5 km/h
2886 13-01-2015 02:40:00 8.9 C 6.75 g/m*3 6.06 C 19.3 km/h
2887 13-01-2015 02:45:00 8.9 C 6.75 g/m*3 6.06 C 19.3 km/h
2888 13-01-2015 02:50:00 8.9 C 6.75 g/m*3 6.23 C 17.7 km/h
2889 13-01-2015 02:55:00 8.9 C 6.75 g/m*3 5.9 C 20.9 km/h
2890 13-01-2015 03:00:00 8.8 C 6.79 g/m*3 6.5 C 14.5 km/h
2891 13-01-2015 03:05:00 8.8 C 6.79 g/m*3 6.11 C 17.7 km/h
2892 13-01-2015 03:10:00 8.9 C 6.75 g/m*3 5.9 C 20.9 km/h
2893 13-01-2015 03:15:00 8.8 C 6.79 g/m*3 6.3 C 16.1 km/h
2894 13-01-2015 03:20:00 8.9 C 6.83 g/m*3 6.62 C 14.5 km/h
2895 13-01-2015 03:25:00 8.9 C 6.75 g/m*3 6.85 C 12.9 km/h
2896 13-01-2015 03:30:00 8.9 C 6.83 g/m*3 6.06 C 19.3 km/h
2897 13-01-2015 03:35:00 8.9 C 6.83 g/m*3 6.42 C 16.1 km/h
2898 13-01-2015 03:40:00 8.9 C 6.83 g/m*3 7.37 C 9.7 km/h
2899 13-01-2015 03:45:00 8.9 C 6.83 g/m*3 7.37 C 9.7 km/h
2900 13-01-2015 03:50:00 8.9 C 6.83 g/m*3 7.09 C 11.3 km/h
Sensor: Nr:Datum:Temp:Abs-Feuchte:Windchill:Wind:
Aussen-T/F 2901 13-01-2015 03:55:00 8.9 C 6.83 g/m*3 7.69 C 8.1 km/h
2902 13-01-2015 04:00:00 8.9 C 6.75 g/m*3 7.69 C 8.1 km/h
2903 13-01-2015 04:05:00 9.1 C 6.83 g/m*3 7.33 C 11.3 km/h
2904 13-01-2015 04:10:00 9.1 C 6.74 g/m*3 7.09 C 12.9 km/h
2905 13-01-2015 04:15:00 9.1 C 6.74 g/m*3 7.61 C 9.7 km/h
2906 13-01-2015 04:20:00 9.1 C 6.74 g/m*3 7.33 C 11.3 km/h
2907 13-01-2015 04:25:00 9.1 C 6.74 g/m*3 7.33 C 11.3 km/h
2908 13-01-2015 04:30:00 9.2 C 6.7 g/m*3 7.21 C 12.9 km/h
2909 13-01-2015 04:35:00 9.3 C 6.65 g/m*3 7.12 C 14.5 km/h
2910 13-01-2015 04:40:00 9.3 C 6.65 g/m*3 7.58 C 11.3 km/h
2911 13-01-2015 04:45:00 9.3 C 6.65 g/m*3 6.56 C 19.3 km/h
2912 13-01-2015 04:50:00 9.4 C 6.6 g/m*3 7.24 C 14.5 km/h
2913 13-01-2015 04:55:00 9.4 C 6.6 g/m*3 7.46 C 12.9 km/h
2914 13-01-2015 05:00:00 9.4 C 6.6 g/m*3 6.86 C 17.7 km/h
2915 13-01-2015 05:05:00 9.4 C 6.51 g/m*3 7.24 C 14.5 km/h
2916 13-01-2015 05:10:00 9.4 C 6.51 g/m*3 7.24 C 14.5 km/h
2917 13-01-2015 05:15:00 9.4 C 6.51 g/m*3 7.7 C 11.3 km/h
2918 13-01-2015 05:20:00 9.2 C 6.52 g/m*3 7.46 C 11.3 km/h
2919 13-01-2015 05:25:00 9.1 C 6.57 g/m*3 8.33 C 6.4 km/h
2920 13-01-2015 05:30:00 9 C 6.52 g/m*3 7.21 C 11.3 km/h
2921 13-01-2015 05:35:00 9.1 C 6.48 g/m*3 8.33 C 6.4 km/h
2922 13-01-2015 05:40:00 9.1 C 6.57 g/m*3 7.93 C 8.1 km/h
2923 13-01-2015 05:45:00 9.1 C 6.57 g/m*3 8.33 C 6.4 km/h
2924 13-01-2015 05:50:00 9.1 C 6.65 g/m*3 9.1 C 4.8 km/h
2925 13-01-2015 05:55:00 9 C 6.52 g/m*3 8.21 C 6.4 km/h
Sensor: Nr:Datum:Temp:Abs-Feuchte:Windchill:Wind:
Aussen-T/F 2926 13-01-2015 06:00:00 9.1 C 6.48 g/m*3 9.1 C 3.2 km/h
2927 13-01-2015 06:05:00 9.2 C 6.43 g/m*3 7.46 C 11.3 km/h
2928 13-01-2015 06:10:00 9.4 C 6.42 g/m*3 8.68 C 6.4 km/h
2929 13-01-2015 06:15:00 9.3 C 6.47 g/m*3 8.56 C 6.4 km/h
2930 13-01-2015 06:20:00 9.3 C 6.38 g/m*3 8.56 C 6.4 km/h
2931 13-01-2015 06:25:00 9.4 C 6.42 g/m*3 7.7 C 11.3 km/h
2932 13-01-2015 06:30:00 9.4 C 6.51 g/m*3 9.4 C 4.8 km/h
2933 13-01-2015 06:35:00 9.4 C 6.42 g/m*3 8.68 C 6.4 km/h
2934 13-01-2015 06:40:00 9.4 C 6.33 g/m*3 9.4 C 4.8 km/h
2935 13-01-2015 06:45:00 9.3 C 6.29 g/m*3 9.3 C 4.8 km/h
2936 13-01-2015 06:50:00 9.2 C 6.34 g/m*3 9.2 C 3.2 km/h
2937 13-01-2015 06:55:00 9.2 C 6.34 g/m*3 9.2 C 4.8 km/h
2938 13-01-2015 07:00:00 8.9 C 6.39 g/m*3 8.9 C 1.6 km/h
2939 13-01-2015 07:05:00 8.7 C 6.31 g/m*3 8.7 C 4.8 km/h
2940 13-01-2015 07:10:00 8.6 C 6.27 g/m*3 7.75 C 6.4 km/h
2941 13-01-2015 07:15:00 8.6 C 6.19 g/m*3 8.6 C 4.8 km/h
2942 13-01-2015 07:20:00 8.6 C 6.19 g/m*3 8.6 C 3.2 km/h
2943 13-01-2015 07:25:00 8.4 C 6.45 g/m*3 7.52 C 6.4 km/h
2944 13-01-2015 07:30:00 8.2 C 6.62 g/m*3 8.2 C 3.2 km/h
2945 13-01-2015 07:35:00 8.3 C 6.41 g/m*3 6.66 C 9.7 km/h
2946 13-01-2015 07:40:00 8.7 C 6.4 g/m*3 7.87 C 6.4 km/h
2947 13-01-2015 07:45:00 8.8 C 6.61 g/m*3 8.8 C 3.2 km/h
2948 13-01-2015 07:50:00 8.8 C 6.61 g/m*3 8.8 C 3.2 km/h
2949 13-01-2015 08:05:00 9 C 8.82 g/m*3 7.81 C 8.1 km/h
2950 13-01-2015 08:10:00 9 C 8.82 g/m*3 7.81 C 8.1 km/h
Sensor: Nr:Datum:Temp:Abs-Feuchte:Windchill:Wind:
Aussen-T/F 2951 13-01-2015 12:10:00 11.2 C 10.14 g/m*3 11.2 C 20.9 km/h
2952 13-01-2015 12:15:00 11.2 C 6.59 g/m*3 11.2 C 22.5 km/h
2953 13-01-2015 12:20:00 11.3 C 6.63 g/m*3 11.3 C 9.7 km/h
2954 13-01-2015 12:25:00 11.3 C 6.63 g/m*3 11.3 C 14.5 km/h
2955 13-01-2015 12:30:00 11.4 C 6.57 g/m*3 11.4 C 16.1 km/h
2956 13-01-2015 12:35:00 11.3 C 6.63 g/m*3 11.3 C 11.3 km/h
2957 13-01-2015 12:40:00 11.3 C 6.53 g/m*3 11.3 C 17.7 km/h
2958 13-01-2015 12:45:00 11.6 C 6.65 g/m*3 11.6 C 16.1 km/h
2959 13-01-2015 12:50:00 11.7 C 6.59 g/m*3 11.7 C 20.9 km/h
2960 13-01-2015 12:55:00 11.8 C 6.63 g/m*3 11.8 C 19.3 km/h
2961 13-01-2015 13:00:00 11.9 C 6.57 g/m*3 11.9 C 17.7 km/h
2962 13-01-2015 13:05:00 11.9 C 6.67 g/m*3 11.9 C 14.5 km/h
2963 13-01-2015 13:10:00 12.2 C 6.69 g/m*3 12.2 C 20.9 km/h
2964 13-01-2015 13:15:00 12.4 C 6.56 g/m*3 12.4 C 22.5 km/h
2965 13-01-2015 13:20:00 12.6 C 6.53 g/m*3 12.6 C 24.1 km/h
2966 13-01-2015 13:25:00 12.8 C 6.61 g/m*3 12.8 C 16.1 km/h
2967 13-01-2015 13:30:00 12.9 C 6.65 g/m*3 12.9 C 17.7 km/h
2968 13-01-2015 13:35:00 13.1 C 6.62 g/m*3 13.1 C 14.5 km/h
2969 13-01-2015 13:40:00 13.2 C 6.66 g/m*3 13.2 C 14.5 km/h
2970 13-01-2015 13:45:00 13.2 C 6.66 g/m*3 13.2 C 20.9 km/h
2971 13-01-2015 13:50:00 13.2 C 6.54 g/m*3 13.2 C 19.3 km/h
2972 13-01-2015 13:55:00 13.3 C 6.59 g/m*3 13.3 C 25.7 km/h
2973 13-01-2015 14:00:00 13.3 C 6.47 g/m*3 13.3 C 17.7 km/h
2974 13-01-2015 14:05:00 13.3 C 6.59 g/m*3 13.3 C 27.4 km/h
2975 13-01-2015 14:10:00 13.4 C 6.51 g/m*3 13.4 C 25.7 km/h
Sensor: Nr:Datum:Temp:Abs-Feuchte:Windchill:Wind:
Aussen-T/F 2976 13-01-2015 14:15:00 13.3 C 6.47 g/m*3 13.3 C 25.7 km/h
2977 13-01-2015 14:20:00 13.4 C 6.51 g/m*3 13.4 C 20.9 km/h
2978 13-01-2015 14:25:00 13.6 C 6.71 g/m*3 13.6 C 20.9 km/h
2979 13-01-2015 14:30:00 13.6 C 6.59 g/m*3 13.6 C 22.5 km/h
2980 13-01-2015 14:35:00 13.6 C 6.59 g/m*3 13.6 C 24.1 km/h
2981 13-01-2015 14:40:00 13.6 C 6.59 g/m*3 13.6 C 17.7 km/h
2982 13-01-2015 14:45:00 13.6 C 6.59 g/m*3 13.6 C 14.5 km/h
2983 13-01-2015 14:50:00 13.5 C 6.55 g/m*3 13.5 C 24.1 km/h
2984 13-01-2015 14:55:00 13.5 C 6.55 g/m*3 13.5 C 20.9 km/h
2985 13-01-2015 15:00:00 13.4 C 6.63 g/m*3 13.4 C 24.1 km/h
2986 13-01-2015 15:05:00 13.4 C 6.63 g/m*3 13.4 C 19.3 km/h
2987 13-01-2015 15:10:00 13.5 C 6.78 g/m*3 13.5 C 16.1 km/h
2988 13-01-2015 15:15:00 13.5 C 6.78 g/m*3 13.5 C 14.5 km/h
2989 13-01-2015 15:20:00 13.4 C 6.74 g/m*3 13.4 C 25.7 km/h
2990 13-01-2015 15:25:00 13.4 C 6.74 g/m*3 13.4 C 14.5 km/h
2991 13-01-2015 15:30:00 13.4 C 6.74 g/m*3 13.4 C 11.3 km/h
2992 13-01-2015 15:35:00 13.1 C 6.62 g/m*3 13.1 C 16.1 km/h
2993 13-01-2015 15:40:00 13.1 C 6.62 g/m*3 13.1 C 12.9 km/h
2994 13-01-2015 16:10:00 11.9 C 7.84 g/m*3 11.9 C 19.3 km/h
2995 13-01-2015 16:15:00 11.9 C 7.84 g/m*3 11.9 C 17.7 km/h
2996 13-01-2015 16:20:00 11.9 C 7.94 g/m*3 11.9 C 20.9 km/h
2997 13-01-2015 16:25:00 11.8 C 8 g/m*3 11.8 C 11.3 km/h
2998 13-01-2015 16:30:00 11.7 C 7.95 g/m*3 11.7 C 22.5 km/h
2999 13-01-2015 16:35:00 11.7 C 8.05 g/m*3 11.7 C 16.1 km/h
3000 13-01-2015 16:40:00 11.7 C 8.05 g/m*3 11.7 C 32.2 km/h
Sensor: Nr:Datum:Temp:Abs-Feuchte:Windchill:Wind:
Aussen-T/F 3001 13-01-2015 16:45:00 11.7 C 8.05 g/m*3 11.7 C 19.3 km/h
3002 13-01-2015 16:50:00 11.6 C 8.11 g/m*3 11.6 C 19.3 km/h
3003 13-01-2015 16:55:00 11.5 C 8.06 g/m*3 11.5 C 22.5 km/h
3004 13-01-2015 17:00:00 11.4 C 8.11 g/m*3 11.4 C 11.3 km/h
3005 13-01-2015 17:05:00 11.4 C 8.21 g/m*3 11.4 C 17.7 km/h
3006 13-01-2015 17:10:00 11.3 C 8.16 g/m*3 11.3 C 14.5 km/h
3007 13-01-2015 17:15:00 11.3 C 8.26 g/m*3 11.3 C 19.3 km/h
3008 13-01-2015 17:20:00 11.2 C 8.21 g/m*3 11.2 C 14.5 km/h
3009 13-01-2015 17:25:00 11.2 C 8.21 g/m*3 11.2 C 32.2 km/h
3010 13-01-2015 17:30:00 11.1 C 8.16 g/m*3 11.1 C 17.7 km/h
3011 13-01-2015 17:35:00 11.1 C 8.16 g/m*3 11.1 C 17.7 km/h
3012 13-01-2015 17:40:00 11.1 C 8.16 g/m*3 11.1 C 22.5 km/h
3013 13-01-2015 17:45:00 11.1 C 8.26 g/m*3 11.1 C 11.3 km/h
3014 13-01-2015 17:50:00 11 C 8.21 g/m*3 9.02 C 16.1 km/h
3015 13-01-2015 17:55:00 10.9 C 8.26 g/m*3 8.73 C 17.7 km/h
3016 13-01-2015 18:00:00 10.8 C 8.2 g/m*3 8.61 C 17.7 km/h
3017 13-01-2015 18:05:00 10.8 C 8.2 g/m*3 8.61 C 17.7 km/h
3018 13-01-2015 18:10:00 10.8 C 8.2 g/m*3 8.78 C 16.1 km/h
3019 13-01-2015 18:15:00 10.8 C 8.2 g/m*3 8.3 C 20.9 km/h
3020 13-01-2015 18:20:00 10.8 C 8.11 g/m*3 8.3 C 20.9 km/h
3021 13-01-2015 18:25:00 10.8 C 8.2 g/m*3 8.45 C 19.3 km/h
3022 13-01-2015 18:30:00 10.8 C 8.11 g/m*3 8.3 C 20.9 km/h
3023 13-01-2015 18:35:00 10.8 C 8.11 g/m*3 8.04 C 24.1 km/h
3024 13-01-2015 18:40:00 10.8 C 8.11 g/m*3 7.68 C 29 km/h
3025 13-01-2015 18:45:00 10.7 C 8.15 g/m*3 8.18 C 20.9 km/h
Sensor: Nr:Datum:Temp:Abs-Feuchte:Windchill:Wind:
Aussen-T/F 3026 13-01-2015 18:50:00 10.6 C 8.1 g/m*3 7.66 C 25.7 km/h
3027 13-01-2015 18:55:00 10.4 C 8.19 g/m*3 7.16 C 29 km/h
3028 13-01-2015 19:00:00 10.3 C 8.14 g/m*3 7.98 C 17.7 km/h
3029 13-01-2015 19:05:00 10.2 C 8.09 g/m*3 7.4 C 22.5 km/h
3030 13-01-2015 19:10:00 10.2 C 8.09 g/m*3 7.02 C 27.4 km/h
3031 13-01-2015 19:15:00 10.2 C 8.09 g/m*3 7.4 C 22.5 km/h
3032 13-01-2015 19:20:00 10.1 C 8.04 g/m*3 7.42 C 20.9 km/h
3033 13-01-2015 19:25:00 10.1 C 8.04 g/m*3 7.42 C 20.9 km/h
3034 13-01-2015 19:30:00 10.2 C 7.99 g/m*3 7.02 C 27.4 km/h
3035 13-01-2015 19:35:00 10.1 C 8.04 g/m*3 7.91 C 16.1 km/h
3036 13-01-2015 19:40:00 10.1 C 8.04 g/m*3 7.91 C 16.1 km/h
3037 13-01-2015 19:45:00 10.1 C 8.04 g/m*3 8.1 C 14.5 km/h
3038 13-01-2015 19:50:00 10.1 C 8.04 g/m*3 7.91 C 16.1 km/h
3039 13-01-2015 19:55:00 9.9 C 8.03 g/m*3 7.16 C 20.9 km/h
3040 13-01-2015 20:00:00 9.9 C 8.03 g/m*3 7.32 C 19.3 km/h
3041 13-01-2015 20:05:00 9.9 C 8.03 g/m*3 7.48 C 17.7 km/h
3042 13-01-2015 20:10:00 9.8 C 7.98 g/m*3 7.73 C 14.5 km/h
3043 13-01-2015 20:15:00 9.6 C 8.06 g/m*3 6.94 C 19.3 km/h
3044 13-01-2015 20:20:00 9.6 C 8.06 g/m*3 7.94 C 11.3 km/h
3045 13-01-2015 20:25:00 9.5 C 8.01 g/m*3 8.4 C 8.1 km/h
3046 13-01-2015 20:30:00 9.5 C 8.01 g/m*3 7.82 C 11.3 km/h
3047 13-01-2015 21:40:00 8.9 C 7.36 g/m*3 8.1 C 6.4 km/h
3048 13-01-2015 21:45:00 8.9 C 7.36 g/m*3 7.09 C 11.3 km/h
3049 13-01-2015 21:50:00 8.7 C 7.26 g/m*3 8.7 C 4.8 km/h
3050 13-01-2015 21:55:00 8.6 C 7.3 g/m*3 7.01 C 9.7 km/h
Sensor: Nr:Datum:Temp:Abs-Feuchte:Windchill:Wind:
Aussen-T/F 3051 13-01-2015 22:00:00 8.7 C 7.35 g/m*3 8.7 C 4.8 km/h
3052 13-01-2015 22:05:00 8.7 C 7.35 g/m*3 7.13 C 9.7 km/h
3053 13-01-2015 22:10:00 8.8 C 7.4 g/m*3 7.25 C 9.7 km/h
3054 13-01-2015 22:15:00 8.8 C 7.31 g/m*3 7.58 C 8.1 km/h
3055 13-01-2015 22:20:00 8.8 C 7.31 g/m*3 7.25 C 9.7 km/h
3056 13-01-2015 22:25:00 8.8 C 7.31 g/m*3 6.97 C 11.3 km/h
3057 13-01-2015 22:30:00 8.9 C 7.36 g/m*3 7.09 C 11.3 km/h
3058 13-01-2015 22:35:00 8.8 C 7.31 g/m*3 6.97 C 11.3 km/h
3059 13-01-2015 22:40:00 8.8 C 7.31 g/m*3 7.58 C 8.1 km/h
3060 13-01-2015 22:45:00 8.8 C 7.31 g/m*3 8.8 C 4.8 km/h
3061 13-01-2015 22:50:00 8.7 C 7.35 g/m*3 7.87 C 6.4 km/h
3062 13-01-2015 22:55:00 8.5 C 7.34 g/m*3 8.5 C 4.8 km/h
3063 13-01-2015 23:00:00 8.4 C 7.3 g/m*3 8.4 C 4.8 km/h
3064 13-01-2015 23:05:00 8.3 C 7.25 g/m*3 8.3 C 3.2 km/h
3065 13-01-2015 23:10:00 8.3 C 7.25 g/m*3 8.3 C 4.8 km/h
3066 13-01-2015 23:15:00 8.3 C 7.25 g/m*3 6.37 C 11.3 km/h
3067 13-01-2015 23:20:00 8.3 C 7.25 g/m*3 6.66 C 9.7 km/h
3068 13-01-2015 23:25:00 8.3 C 7.25 g/m*3 7.41 C 6.4 km/h
3069 13-01-2015 23:30:00 8.4 C 7.3 g/m*3 8.4 C 4.8 km/h
3070 13-01-2015 23:35:00 8.4 C 7.3 g/m*3 7.52 C 6.4 km/h
3071 13-01-2015 23:40:00 8.5 C 7.34 g/m*3 8.5 C 4.8 km/h
3072 13-01-2015 23:45:00 8.4 C 7.3 g/m*3 8.4 C 4.8 km/h
3073 13-01-2015 23:50:00 8.4 C 7.3 g/m*3 6.78 C 9.7 km/h
3074 13-01-2015 23:55:00 8.4 C 7.3 g/m*3 8.4 C 4.8 km/h
3075 14-01-2015 00:00:00 8.4 C 7.3 g/m*3 7.52 C 6.4 km/h
Sensor: Nr:Datum:Temp:Abs-Feuchte:Windchill:Wind:
Aussen-T/F 3076 14-01-2015 00:05:00 8.3 C 7.25 g/m*3 8.3 C 3.2 km/h
3077 14-01-2015 00:10:00 8.3 C 7.33 g/m*3 8.3 C 4.8 km/h
3078 14-01-2015 00:15:00 8.3 C 7.33 g/m*3 7.41 C 6.4 km/h
3079 14-01-2015 00:20:00 8.4 C 7.3 g/m*3 8.4 C 4.8 km/h
3080 14-01-2015 00:25:00 8.5 C 7.34 g/m*3 7.64 C 6.4 km/h
3081 14-01-2015 00:30:00 8.5 C 7.34 g/m*3 7.22 C 8.1 km/h
3082 14-01-2015 00:35:00 8.6 C 7.39 g/m*3 6.73 C 11.3 km/h
3083 14-01-2015 00:40:00 8.6 C 7.39 g/m*3 6.73 C 11.3 km/h
3084 14-01-2015 00:45:00 8.6 C 7.39 g/m*3 7.75 C 6.4 km/h
3085 14-01-2015 00:50:00 8.6 C 7.39 g/m*3 8.6 C 4.8 km/h
3086 14-01-2015 00:55:00 8.4 C 7.3 g/m*3 7.52 C 6.4 km/h
3087 14-01-2015 01:00:00 8.4 C 7.3 g/m*3 8.4 C 4.8 km/h
3088 14-01-2015 01:05:00 8.4 C 7.3 g/m*3 8.4 C 3.2 km/h
3089 14-01-2015 01:10:00 8.3 C 7.33 g/m*3 8.3 C 4.8 km/h
3090 14-01-2015 01:15:00 8.2 C 7.29 g/m*3 8.2 C 3.2 km/h
3091 14-01-2015 01:20:00 8.2 C 7.37 g/m*3 8.2 C 4.8 km/h
3092 14-01-2015 01:25:00 8.1 C 7.32 g/m*3 8.1 C 1.6 km/h
3093 14-01-2015 01:30:00 8 C 7.36 g/m*3 8 C 1.6 km/h
3094 14-01-2015 01:35:00 7.9 C 7.31 g/m*3 7.9 C 1.6 km/h
3095 14-01-2015 01:40:00 8 C 7.36 g/m*3 7.06 C 6.4 km/h
3096 14-01-2015 01:45:00 8.1 C 7.32 g/m*3 7.17 C 6.4 km/h
3097 14-01-2015 01:50:00 8.3 C 7.33 g/m*3 6.66 C 9.7 km/h
3098 14-01-2015 01:55:00 8.3 C 7.25 g/m*3 6.99 C 8.1 km/h
3099 14-01-2015 02:00:00 8.3 C 7.25 g/m*3 6.66 C 9.7 km/h
3100 14-01-2015 02:05:00 8.2 C 7.2 g/m*3 7.29 C 6.4 km/h
Sensor: Nr:Datum:Temp:Abs-Feuchte:Windchill:Wind:
Aussen-T/F 3101 14-01-2015 02:10:00 8.2 C 7.2 g/m*3 6.87 C 8.1 km/h
3102 14-01-2015 02:15:00 8.2 C 7.2 g/m*3 7.29 C 6.4 km/h
3103 14-01-2015 02:20:00 8.1 C 7.16 g/m*3 7.17 C 6.4 km/h
3104 14-01-2015 02:25:00 8.2 C 7.2 g/m*3 8.2 C 3.2 km/h
3105 14-01-2015 02:30:00 8.2 C 7.2 g/m*3 8.2 C 3.2 km/h
3106 14-01-2015 02:35:00 8 C 7.11 g/m*3 7.06 C 6.4 km/h
3107 14-01-2015 02:40:00 8.1 C 7.16 g/m*3 5.87 C 12.9 km/h
3108 14-01-2015 02:45:00 8.3 C 7.08 g/m*3 5.68 C 16.1 km/h
3109 14-01-2015 02:50:00 8.5 C 7 g/m*3 5.09 C 24.1 km/h
3110 14-01-2015 02:55:00 8.6 C 6.96 g/m*3 5.37 C 22.5 km/h
3111 14-01-2015 03:00:00 8.6 C 6.87 g/m*3 6.73 C 11.3 km/h
3112 14-01-2015 03:05:00 8.6 C 6.79 g/m*3 5.37 C 22.5 km/h
3113 14-01-2015 03:10:00 8.7 C 6.83 g/m*3 6.17 C 16.1 km/h
3114 14-01-2015 03:15:00 8.7 C 6.83 g/m*3 7.13 C 9.7 km/h
3115 14-01-2015 03:20:00 8.7 C 6.83 g/m*3 5.98 C 17.7 km/h
3116 14-01-2015 03:25:00 8.7 C 6.75 g/m*3 5.49 C 22.5 km/h
3117 14-01-2015 03:30:00 8.7 C 6.75 g/m*3 6.17 C 16.1 km/h
3118 14-01-2015 03:35:00 8.7 C 6.83 g/m*3 6.17 C 16.1 km/h
3119 14-01-2015 03:40:00 8.8 C 6.79 g/m*3 5.48 C 24.1 km/h
3120 14-01-2015 03:45:00 8.7 C 6.75 g/m*3 6.6 C 12.9 km/h
3121 14-01-2015 03:50:00 8.7 C 6.66 g/m*3 5.35 C 24.1 km/h
3122 14-01-2015 03:55:00 8.8 C 6.61 g/m*3 4.75 C 33.8 km/h
3123 14-01-2015 04:00:00 8.8 C 6.53 g/m*3 4.97 C 30.6 km/h
3124 14-01-2015 04:05:00 8.8 C 6.53 g/m*3 5.77 C 20.9 km/h
3125 14-01-2015 04:10:00 8.8 C 6.53 g/m*3 5.62 C 22.5 km/h
Sensor: Nr:Datum:Temp:Abs-Feuchte:Windchill:Wind:
Aussen-T/F 3126 14-01-2015 04:15:00 8.8 C 6.53 g/m*3 5.62 C 22.5 km/h
3127 14-01-2015 04:20:00 8.8 C 6.44 g/m*3 5.62 C 22.5 km/h
3128 14-01-2015 04:25:00 8.7 C 6.49 g/m*3 5.81 C 19.3 km/h
3129 14-01-2015 04:30:00 8.7 C 6.49 g/m*3 5.81 C 19.3 km/h
3130 14-01-2015 04:35:00 8.8 C 6.61 g/m*3 4.45 C 38.6 km/h
3131 14-01-2015 04:40:00 8.6 C 6.79 g/m*3 5.52 C 20.9 km/h
3132 14-01-2015 04:45:00 8.4 C 6.7 g/m*3 6.24 C 12.9 km/h
3133 14-01-2015 04:50:00 8.4 C 6.87 g/m*3 6.24 C 12.9 km/h
3134 14-01-2015 04:55:00 7.8 C 6.94 g/m*3 4.51 C 20.9 km/h
3135 14-01-2015 05:00:00 7.4 C 6.92 g/m*3 3.68 C 24.1 km/h
3136 14-01-2015 05:05:00 7 C 6.66 g/m*3 3.17 C 24.1 km/h
3137 14-01-2015 05:10:00 6.7 C 6.46 g/m*3 3.29 C 19.3 km/h
3138 14-01-2015 05:15:00 6.6 C 6.34 g/m*3 2.36 C 27.4 km/h
3139 14-01-2015 05:20:00 6.3 C 6.22 g/m*3 3.68 C 12.9 km/h
3140 14-01-2015 05:25:00 6.2 C 6.25 g/m*3 3.84 C 11.3 km/h
3141 14-01-2015 05:30:00 6.1 C 6.28 g/m*3 4.04 C 9.7 km/h
3142 14-01-2015 05:35:00 6.1 C 6.28 g/m*3 4.04 C 9.7 km/h
3143 14-01-2015 05:40:00 5.9 C 6.06 g/m*3 2.1 C 20.9 km/h
3144 14-01-2015 05:45:00 5.9 C 6.06 g/m*3 3.8 C 9.7 km/h
3145 14-01-2015 05:50:00 5.9 C 6.06 g/m*3 3.48 C 11.3 km/h
3146 14-01-2015 05:55:00 5.8 C 6.09 g/m*3 4.05 C 8.1 km/h
3147 14-01-2015 06:00:00 5.6 C 6.08 g/m*3 4.29 C 6.4 km/h
3148 14-01-2015 06:05:00 5.4 C 6 g/m*3 3.58 C 8.1 km/h
3149 14-01-2015 06:10:00 5.4 C 6 g/m*3 4.06 C 6.4 km/h
3150 14-01-2015 06:15:00 5.3 C 6.03 g/m*3 3.46 C 8.1 km/h
Sensor: Nr:Datum:Temp:Abs-Feuchte:Windchill:Wind:
Aussen-T/F 3151 14-01-2015 06:20:00 5.3 C 5.96 g/m*3 3.46 C 8.1 km/h
3152 14-01-2015 06:25:00 5.3 C 5.96 g/m*3 2.46 C 12.9 km/h
3153 14-01-2015 06:30:00 5.3 C 5.89 g/m*3 2.75 C 11.3 km/h
3154 14-01-2015 06:35:00 5.3 C 5.89 g/m*3 5.3 C 3.2 km/h
3155 14-01-2015 06:40:00 5.3 C 5.89 g/m*3 5.3 C 4.8 km/h
3156 14-01-2015 06:45:00 5.2 C 5.85 g/m*3 2.96 C 9.7 km/h
3157 14-01-2015 06:50:00 5.2 C 5.85 g/m*3 2.96 C 9.7 km/h
3158 14-01-2015 06:55:00 5.3 C 5.82 g/m*3 2.46 C 12.9 km/h
3159 14-01-2015 07:00:00 5.3 C 5.75 g/m*3 3.94 C 6.4 km/h
3160 14-01-2015 07:05:00 5.3 C 5.75 g/m*3 3.08 C 9.7 km/h
3161 14-01-2015 07:10:00 5.4 C 5.79 g/m*3 2.58 C 12.9 km/h
3162 14-01-2015 07:15:00 5.4 C 5.79 g/m*3 2.58 C 12.9 km/h
3163 14-01-2015 07:20:00 5.6 C 5.73 g/m*3 2.83 C 12.9 km/h
3164 14-01-2015 07:25:00 5.6 C 5.73 g/m*3 3.81 C 8.1 km/h
3165 14-01-2015 07:30:00 5.6 C 5.73 g/m*3 4.29 C 6.4 km/h
3166 14-01-2015 07:35:00 5.2 C 5.71 g/m*3 3.82 C 6.4 km/h
3167 14-01-2015 07:40:00 5.2 C 5.71 g/m*3 5.2 C 4.8 km/h
3168 14-01-2015 07:45:00 5.2 C 5.78 g/m*3 2.96 C 9.7 km/h
3169 14-01-2015 07:50:00 5.1 C 5.68 g/m*3 3.71 C 6.4 km/h
3170 14-01-2015 07:55:00 5.1 C 5.75 g/m*3 3.71 C 6.4 km/h
3171 14-01-2015 08:00:00 5 C 5.71 g/m*3 2.72 C 9.7 km/h
3172 14-01-2015 08:05:00 4.9 C 5.67 g/m*3 2.99 C 8.1 km/h
3173 14-01-2015 08:10:00 5.1 C 5.68 g/m*3 2.51 C 11.3 km/h
3174 14-01-2015 08:15:00 5.2 C 5.65 g/m*3 2.63 C 11.3 km/h
3175 14-01-2015 08:20:00 5.2 C 5.65 g/m*3 2.96 C 9.7 km/h
Sensor: Nr:Datum:Temp:Abs-Feuchte:Windchill:Wind:
Aussen-T/F 3176 14-01-2015 08:25:00 5.1 C 5.61 g/m*3 5.1 C 4.8 km/h
3177 14-01-2015 08:30:00 5.1 C 5.61 g/m*3 1.71 C 16.1 km/h
3178 14-01-2015 08:35:00 5.1 C 5.68 g/m*3 5.1 C 4.8 km/h
3179 14-01-2015 08:40:00 5 C 5.57 g/m*3 3.11 C 8.1 km/h
3180 14-01-2015 08:45:00 5.1 C 5.61 g/m*3 3.23 C 8.1 km/h
3181 14-01-2015 08:50:00 5.1 C 5.61 g/m*3 2.84 C 9.7 km/h
3182 14-01-2015 08:55:00 5.1 C 5.61 g/m*3 3.71 C 6.4 km/h
3183 14-01-2015 09:00:00 5 C 5.57 g/m*3 3.59 C 6.4 km/h
3184 14-01-2015 09:05:00 5 C 5.64 g/m*3 3.59 C 6.4 km/h
3185 14-01-2015 09:10:00 5 C 5.64 g/m*3 5 C 4.8 km/h
3186 14-01-2015 09:15:00 5.1 C 5.68 g/m*3 2.84 C 9.7 km/h
3187 14-01-2015 09:20:00 5.2 C 5.71 g/m*3 5.2 C 4.8 km/h
3188 14-01-2015 09:25:00 5.3 C 5.75 g/m*3 3.08 C 9.7 km/h
3189 14-01-2015 09:30:00 5.4 C 5.72 g/m*3 2.32 C 14.5 km/h
3190 14-01-2015 09:35:00 5.4 C 5.72 g/m*3 2.08 C 16.1 km/h
3191 14-01-2015 09:40:00 5.5 C 5.76 g/m*3 3.32 C 9.7 km/h
3192 14-01-2015 09:45:00 5.5 C 5.69 g/m*3 2.7 C 12.9 km/h
3193 14-01-2015 09:50:00 5.5 C 5.69 g/m*3 1.99 C 17.7 km/h
3194 14-01-2015 09:55:00 5.5 C 5.69 g/m*3 1.78 C 19.3 km/h
3195 14-01-2015 10:00:00 5.8 C 5.73 g/m*3 2.16 C 19.3 km/h
3196 14-01-2015 10:05:00 5.9 C 5.77 g/m*3 2.93 C 14.5 km/h
3197 14-01-2015 10:10:00 5.9 C 5.77 g/m*3 3.19 C 12.9 km/h
3198 14-01-2015 10:15:00 6 C 5.81 g/m*3 2.82 C 16.1 km/h
3199 14-01-2015 10:20:00 6.1 C 5.84 g/m*3 3.18 C 14.5 km/h
3200 14-01-2015 10:25:00 6.1 C 5.92 g/m*3 3.72 C 11.3 km/h
Sensor: Nr:Datum:Temp:Abs-Feuchte:Windchill:Wind:
Aussen-T/F 3201 14-01-2015 10:30:00 6.2 C 5.88 g/m*3 2.66 C 19.3 km/h
3202 14-01-2015 10:35:00 6.3 C 5.92 g/m*3 2.98 C 17.7 km/h
3203 14-01-2015 10:40:00 6.3 C 5.85 g/m*3 4.27 C 9.7 km/h
3204 14-01-2015 10:45:00 6.5 C 5.85 g/m*3 2.69 C 22.5 km/h
3205 14-01-2015 10:50:00 6.6 C 5.89 g/m*3 3.57 C 16.1 km/h
3206 14-01-2015 10:55:00 6.6 C 5.96 g/m*3 4.04 C 12.9 km/h
3207 14-01-2015 11:00:00 6.6 C 5.96 g/m*3 4.04 C 12.9 km/h
3208 14-01-2015 11:05:00 6.7 C 5.93 g/m*3 2.22 C 30.6 km/h
3209 14-01-2015 11:10:00 6.8 C 5.97 g/m*3 3.24 C 20.9 km/h
3210 14-01-2015 11:15:00 6.9 C 6 g/m*3 3.94 C 16.1 km/h
3211 14-01-2015 11:20:00 6.9 C 5.93 g/m*3 3.37 C 20.9 km/h
3212 14-01-2015 11:25:00 6.9 C 5.85 g/m*3